Provisional Data: Nanticoke Creek near Maine, NY


Please select a monitoring station.
Please select start date.
Please select start date.

Toggle Unit: C/F Toggle Unit: C/F
Sample Time Temperature (C) Temperature (F) Specific Conductivity (mS/cm) pH   Turbidity (NTU+) DO (mg/L)
8/1/2022 12:00:00 AM 23.58 74.444 0.287 7.52 8.45 8.39
8/1/2022 12:15:00 AM 23.56 74.408 0.287 7.49 8.62 8.24
8/1/2022 12:30:00 AM 23.56 74.408 0.287 7.51 10.47 8.18
8/1/2022 12:45:00 AM 23.49 74.282 0.286 7.55 8.35 8.1
8/1/2022 1:00:00 AM 23.45 74.21 0.286 7.51 8.24 7.85
8/1/2022 1:15:00 AM 23.41 74.138 0.286 7.55 8.55 7.89
8/1/2022 1:30:00 AM 23.35 74.03 0.286 7.55 10.24 8.13
8/1/2022 1:45:00 AM 23.32 73.976 0.286 7.51 8.01 7.64
8/1/2022 2:00:00 AM 23.26 73.868 0.286 7.52 8.76 7.59
8/1/2022 2:15:00 AM 23.22 73.796 0.286 7.51 8.22 7.66
8/1/2022 2:30:00 AM 23.19 73.742 0.286 7.49 8.72 7.84
8/1/2022 2:45:00 AM 23.08 73.544 0.286 7.53 7.76 7.95
8/1/2022 3:00:00 AM 23.04 73.472 0.286 7.48 8.14 7.9
8/1/2022 3:15:00 AM 23.01 73.418 0.286 7.51 8.07 7.72
8/1/2022 3:30:00 AM 22.95 73.31 0.286 7.5 9.38 7.66
8/1/2022 3:45:00 AM 22.95 73.31 0.286 7.48 9.03 7.49
8/1/2022 4:00:00 AM 22.89 73.202 0.286 7.47 8.73 7.49
8/1/2022 4:15:00 AM 22.87 73.166 0.286 7.47 9.09 7.47
8/1/2022 4:30:00 AM 22.86 73.148 0.286 7.45 8.75 7.49
8/1/2022 4:45:00 AM 22.78 73.004 0.286 7.46 9.2 7.49
8/1/2022 5:00:00 AM 22.72 72.896 0.286 7.47 8.64 7.52
8/1/2022 5:15:00 AM 22.69 72.842 0.286 7.46 8.8 7.51
8/1/2022 5:30:00 AM 22.65 72.77 0.286 7.45 10.21 7.42
8/1/2022 5:45:00 AM 22.6 72.68 0.286 7.44 8.6 7.48
8/1/2022 6:00:00 AM 22.56 72.608 0.286 7.45 8.59 7.55
8/1/2022 6:15:00 AM 22.52 72.536 0.286 7.44 9.53 7.48
8/1/2022 6:30:00 AM 22.5 72.5 0.286 7.42 11.4 7.35
8/1/2022 6:45:00 AM 22.47 72.446 0.286 7.41 14.97 7.19
8/1/2022 7:00:00 AM 22.44 72.392 0.286 7.4 10.93 7.3
8/1/2022 7:15:00 AM 22.39 72.302 0.286 7.41 12.72 7.29
8/1/2022 7:30:00 AM 22.4 72.32 0.286 7.38 15.93 7.08
8/1/2022 7:45:00 AM 22.34 72.212 0.286 7.41 11.41 7.24
8/1/2022 8:00:00 AM 22.4 72.32 0.285 7.39 14.34 7.26
8/1/2022 8:15:00 AM 22.33 72.194 0.286 7.41 14.79 7.18
8/1/2022 8:30:00 AM 22.37 72.266 0.286 7.38 18.62 7.12
8/1/2022 8:45:00 AM 22.39 72.302 0.286 7.42 13.36 7.33
8/1/2022 9:00:00 AM 22.39 72.302 0.286 7.43 13.52 7.48
8/1/2022 9:15:00 AM 22.42 72.356 0.286 7.44 12.49 7.41
8/1/2022 9:30:00 AM 22.44 72.392 0.285 7.41 11.41 7.26
8/1/2022 9:45:00 AM 22.52 72.536 0.285 7.38 10.09 7.27
8/1/2022 10:00:00 AM 22.7 72.86 0.285 7.42 12.7 7.34
8/1/2022 10:15:00 AM 22.71 72.878 0.285 7.42 13.92 7.26
8/1/2022 10:30:00 AM 22.76 72.968 0.285 7.41 113.79 7.21
8/1/2022 10:45:00 AM 22.7 72.86 0.285 7.41 15.35 7.34
8/1/2022 11:00:00 AM 22.68 72.824 0.285 7.43 13.3 7.58
8/1/2022 11:15:00 AM 22.7 72.86 0.285 7.44 14.05 7.61
8/1/2022 11:30:00 AM 22.73 72.914 0.285 7.45 12.97 7.92
8/1/2022 11:45:00 AM 22.75 72.95 0.285 7.47 18.05 8.12
8/1/2022 12:00:00 PM 22.87 73.166 0.285 7.47 15.2 8.12
8/1/2022 12:15:00 PM 22.98 73.364 0.284 7.48 14.68 8.51
8/1/2022 12:30:00 PM 23.11 73.598 0.285 7.49 12.82 8.12
8/1/2022 12:45:00 PM 22.98 73.364 0.284 7.52 14.12 8.5
8/1/2022 1:00:00 PM 23.11 73.598 0.284 7.5 12.74 8.54
8/1/2022 1:15:00 PM 23.07 73.526 0.284 7.54 13.88 8.59
8/1/2022 1:30:00 PM 23.16 73.688 0.284 7.5 13.17 8.77
8/1/2022 1:45:00 PM 23.3 73.94 0.285 7.55 15 8.63
8/1/2022 2:00:00 PM 23.32 73.976 0.284 7.54 21.61 8.6
8/1/2022 2:15:00 PM 23.47 74.246 0.285 7.59 18.11 8.83
8/1/2022 2:30:00 PM 23.39 74.102 0.284 7.58 13.31 8.91
8/1/2022 2:45:00 PM 23.42 74.156 0.285 7.57 14.2 8.83
8/1/2022 3:00:00 PM 23.45 74.21 0.285 7.58 11.73 8.81
8/1/2022 3:15:00 PM 23.59 74.462 0.285 7.59 17.6 8.97
8/1/2022 3:30:00 PM 23.73 74.714 0.285 7.61 17 9.02
8/1/2022 3:45:00 PM 23.69 74.642 0.285 7.59 18.04 9.15
8/1/2022 4:00:00 PM 23.69 74.642 0.285 7.57 14.63 9.15
8/1/2022 4:15:00 PM 23.77 74.786 0.285 7.64 16.23 9.17
8/1/2022 4:30:00 PM 23.78 74.804 0.285 7.66 12.9 9.38
8/1/2022 4:45:00 PM 23.84 74.912 0.285 7.66 14.1 9.2
8/1/2022 5:00:00 PM 23.89 75.002 0.285 7.67 15.22 9.34
8/1/2022 5:15:00 PM 24.01 75.218 0.285 7.64 13.27 9.21
8/1/2022 5:30:00 PM 24.01 75.218 0.286 7.65 13.43 9.15
8/1/2022 5:45:00 PM 23.86 74.948 0.286 7.65 11.9 9.07
8/1/2022 6:00:00 PM 23.89 75.002 0.286 7.62 10.16 8.95
8/1/2022 6:15:00 PM 24.01 75.218 0.286 7.62 10.47 8.9
8/1/2022 6:30:00 PM 24.11 75.398 0.286 7.62 10.07 8.99
8/1/2022 6:45:00 PM 24.21 75.578 0.286 7.6 9.6 8.94
8/1/2022 7:00:00 PM 24.14 75.452 0.286 7.6 10.3 8.8
8/1/2022 7:15:00 PM 24.08 75.344 0.286 7.61 10.23 8.76
8/1/2022 7:30:00 PM 23.82 74.876 0.287 7.54 9.98 8.23
8/1/2022 7:45:00 PM 23.94 75.092 0.287 7.53 10.55 8.31
8/1/2022 8:00:00 PM 24.02 75.236 0.287 7.56 11.66 8.4
8/1/2022 8:15:00 PM 24.01 75.218 0.287 7.51 10.75 8.08
8/1/2022 8:30:00 PM 24.06 75.308 0.287 7.52 10.92 8.17
8/1/2022 8:45:00 PM 24.03 75.254 0.287 7.53 12.08 8.2
8/1/2022 9:00:00 PM 24.13 75.434 0.287 7.53 10.14 8.32
8/1/2022 9:15:00 PM 24.15 75.47 0.287 7.51 11.94 8.14
8/1/2022 9:30:00 PM 24.2 75.56 0.287 7.5 11.05 8.03
8/1/2022 9:45:00 PM 24.18 75.524 0.287 7.49 12.15 8.03
8/1/2022 10:00:00 PM 24.22 75.596 0.287 7.5 10.42 8.11
8/1/2022 10:15:00 PM 24.14 75.452 0.287 7.5 11.42 8.09
8/1/2022 10:30:00 PM 24.2 75.56 0.287 7.49 9.65 8.06
8/1/2022 10:45:00 PM 24.21 75.578 0.287 7.48 10.51 7.87
8/1/2022 11:00:00 PM 24.25 75.65 0.287 7.49 11.97 7.96
8/1/2022 11:15:00 PM 24.27 75.686 0.287 7.5 10.28 8.09
8/1/2022 11:30:00 PM 24.3 75.74 0.287 7.52 9.19 8.35
8/1/2022 11:45:00 PM 24.25 75.65 0.287 7.5 9.42 8.07
8/2/2022 12:00:00 AM 24.28 75.704 0.287 7.48 9.27 8
8/2/2022 12:15:00 AM 24.23 75.614 0.287 7.45 18.44 7.68
8/2/2022 12:30:00 AM 24.24 75.632 0.287 7.45 28.38 7.58
8/2/2022 12:45:00 AM 24.29 75.722 0.287 7.47 289.45 7.83
8/2/2022 1:00:00 AM 24.32 75.776 0.287 7.47 26.89 7.73
8/2/2022 1:15:00 AM 24.23 75.614 0.287 7.43 15.55 7.55
8/2/2022 1:30:00 AM 24.23 75.614 0.288 7.42 17.27 7.5
8/2/2022 1:45:00 AM 24.21 75.578 0.288 7.43 777.44 7.32
8/2/2022 2:00:00 AM 24.2 75.56 0.289 7.47 15.88 7.4
8/2/2022 2:15:00 AM 24.16 75.488 0.288 7.47 7.74 7.48
8/2/2022 2:30:00 AM 24.14 75.452 0.288 7.52 6.82 7.38
8/2/2022 2:45:00 AM 24.08 75.344 0.288 7.51 6.9 7.24
8/2/2022 3:00:00 AM 24.04 75.272 0.288 7.5 7.74 7.28
8/2/2022 3:15:00 AM 23.99 75.182 0.288 7.51 6.88 7.31
8/2/2022 3:30:00 AM 23.95 75.11 0.288 7.49 7 7.19
8/2/2022 3:45:00 AM 23.89 75.002 0.288 7.47 7.34 7.07
8/2/2022 4:00:00 AM 23.85 74.93 0.288 7.51 7.05 7.25
8/2/2022 4:15:00 AM 23.8 74.84 0.288 7.47 7.51 6.96
8/2/2022 4:30:00 AM 23.77 74.786 0.288 7.48 7.07 7.13
8/2/2022 4:45:00 AM 23.73 74.714 0.288 7.44 7.54 6.91
8/2/2022 5:00:00 AM 23.65 74.57 0.288 7.43 7.56 6.67
8/2/2022 5:15:00 AM 23.61 74.498 0.288 7.45 7.88 6.73
8/2/2022 5:30:00 AM 23.56 74.408 0.288 7.44 7.68 6.69
8/2/2022 5:45:00 AM 23.54 74.372 0.288 7.43 8.45 6.68
8/2/2022 6:00:00 AM 23.51 74.318 0.288 7.41 15.92 6.55
8/2/2022 6:15:00 AM 23.44 74.192 0.288 7.44 8.68 6.8
8/2/2022 6:30:00 AM 23.45 74.21 0.287 7.43 10.88 6.85
8/2/2022 6:45:00 AM 23.36 74.048 0.288 7.39 10.42 6.81
8/2/2022 7:00:00 AM 23.33 73.994 0.288 7.45 10.41 6.79
8/2/2022 7:15:00 AM 23.31 73.958 0.288 7.43 9.37 6.69
8/2/2022 7:30:00 AM 23.32 73.976 0.288 7.42 10.07 6.77
8/2/2022 7:45:00 AM 23.32 73.976 0.287 7.42 10.49 6.67
8/2/2022 8:00:00 AM 23.33 73.994 0.287 7.41 11.9 6.77
8/2/2022 8:15:00 AM 23.3 73.94 0.287 7.42 10.71 6.77
8/2/2022 8:30:00 AM 23.29 73.922 0.288 7.4 9.83 6.73
8/2/2022 8:45:00 AM 23.29 73.922 0.288 7.42 9.35 6.78
8/2/2022 9:00:00 AM 23.32 73.976 0.287 7.42 11.31 6.74
8/2/2022 9:15:00 AM 23.35 74.03 0.287 7.41 10.65 6.86
8/2/2022 9:30:00 AM 23.41 74.138 0.287 7.41 9.49 7.03
8/2/2022 9:45:00 AM 23.54 74.372 0.287 7.45 7.38 7.21
8/2/2022 10:00:00 AM 23.52 74.336 0.287 7.44 8.69 7.25
8/2/2022 10:15:00 AM 23.52 74.336 0.287 7.44 8.8 7.27
8/2/2022 10:30:00 AM 23.47 74.246 0.287 7.44 9.38 7.19
8/2/2022 10:45:00 AM 23.49 74.282 0.286 7.41 10.59 7.31
8/2/2022 11:00:00 AM 23.51 74.318 0.286 7.41 11.51 7.14
8/2/2022 11:15:00 AM 23.56 74.408 0.286 7.42 11.56 7.18
8/2/2022 11:30:00 AM 23.55 74.39 0.286 7.42 9.75 7.23
8/2/2022 11:45:00 AM 23.61 74.498 0.286 7.43 10.58 7.37
8/2/2022 12:00:00 PM 23.69 74.642 0.286 7.44 10.47 7.48
8/2/2022 12:15:00 PM 23.73 74.714 0.286 7.46 14.43 7.57
8/2/2022 12:30:00 PM 23.78 74.804 0.286 7.46 13.42 7.6
8/2/2022 12:45:00 PM 23.81 74.858 0.286 7.47 12.3 7.62
8/2/2022 1:00:00 PM 23.99 75.182 0.286 7.49 13.86 7.85
8/2/2022 1:15:00 PM 24.12 75.416 0.286 7.53 17.56 8.04
8/2/2022 1:30:00 PM 24.12 75.416 0.287 7.54 14.29 7.98
8/2/2022 1:45:00 PM 23.95 75.11 0.287 7.46 13.78 7.77
8/2/2022 2:00:00 PM 23.98 75.164 0.286 7.51 13.51 7.86
8/2/2022 2:15:00 PM 24.07 75.326 0.286 7.52 14.7 8.01
8/2/2022 2:30:00 PM 24 75.2 0.286 7.46 12.79 7.72
8/2/2022 2:45:00 PM 24.17 75.506 0.286 7.52 11.57 8
8/2/2022 3:00:00 PM 24.35 75.83 0.286 7.56 11.32 8.39
8/2/2022 3:15:00 PM 24.23 75.614 0.286 7.58 12.64 8.49
8/2/2022 3:30:00 PM 24.19 75.542 0.286 7.59 12.67 8.51
8/2/2022 3:45:00 PM 24.33 75.794 0.286 7.6 14.61 8.54
8/2/2022 4:00:00 PM 24.67 76.406 0.286 7.61 14.19 8.68
8/2/2022 4:15:00 PM 24.77 76.586 0.286 7.65 12.41 8.92
8/2/2022 4:30:00 PM 24.73 76.514 0.286 7.69 14.01 9.14
8/2/2022 4:45:00 PM 24.6 76.28 0.286 7.72 12.63 9.21
8/2/2022 5:00:00 PM 24.46 76.028 0.286 7.72 13.56 9.22
8/2/2022 5:15:00 PM 24.37 75.866 0.286 7.67 11.86 8.89
8/2/2022 5:30:00 PM 24.71 76.478 0.286 7.73 13.62 9.31
8/2/2022 5:45:00 PM 24.73 76.514 0.286 7.69 13.4 8.99
8/2/2022 6:00:00 PM 24.81 76.658 0.287 7.64 13.65 8.79
8/2/2022 6:15:00 PM 24.92 76.856 0.287 7.63 12.14 8.68
8/2/2022 6:30:00 PM 24.93 76.874 0.287 7.62 11.05 8.7
8/2/2022 6:45:00 PM 24.5 76.1 0.287 7.61 12.04 8.32
8/2/2022 7:00:00 PM 24.73 76.514 0.288 7.59 9.89 8.29
8/2/2022 7:15:00 PM 24.77 76.586 0.287 7.59 12.95 8.24
8/2/2022 7:30:00 PM 24.82 76.676 0.288 7.56 11.61 8.16
8/2/2022 7:45:00 PM 24.81 76.658 0.288 7.53 13.65 8.04
8/2/2022 8:00:00 PM 24.83 76.694 0.288 7.54 11.98 7.99
8/2/2022 8:15:00 PM 24.84 76.712 0.288 7.51 10.96 7.79
8/2/2022 8:30:00 PM 24.86 76.748 0.288 7.51 10.69 7.81
8/2/2022 8:45:00 PM 24.95 76.91 0.289 7.55 10.95 7.92
8/2/2022 9:00:00 PM 24.92 76.856 0.289 7.49 9.44 7.64
8/2/2022 9:15:00 PM 24.93 76.874 0.289 7.48 10.22 7.51
8/2/2022 9:30:00 PM 24.97 76.946 0.289 7.48 9.31 7.45
8/2/2022 9:45:00 PM 25.03 77.054 0.289 7.53 10.45 7.81
8/2/2022 10:00:00 PM 24.95 76.91 0.289 7.57 8.5 7.84
8/2/2022 10:15:00 PM 24.95 76.91 0.289 7.54 10.16 7.82
8/2/2022 10:30:00 PM 24.93 76.874 0.289 7.61 7.76 7.89
8/2/2022 10:45:00 PM 24.92 76.856 0.289 7.51 7.66 7.9
8/2/2022 11:00:00 PM 24.85 76.73 0.289 7.55 8.28 7.78
8/2/2022 11:15:00 PM 24.81 76.658 0.289 7.53 8.23 7.77
8/2/2022 11:30:00 PM 24.77 76.586 0.289 7.55 8.03 7.51
8/2/2022 11:45:00 PM 24.68 76.424 0.29 7.51 7.41 7.32
8/3/2022 12:00:00 AM 24.62 76.316 0.29 7.5 8.68 7.3
8/3/2022 12:15:00 AM 24.62 76.316 0.289 7.45 8.97 7.72
8/3/2022 12:30:00 AM 24.56 76.208 0.289 7.55 17.45 7.77
8/3/2022 12:45:00 AM 24.51 76.118 0.289 7.55 9.6 7.86
8/3/2022 1:00:00 AM 24.41 75.938 0.289 7.55 10.74 7.64
8/3/2022 1:15:00 AM 24.34 75.812 0.29 7.5 15.72 7.09
8/3/2022 1:30:00 AM 24.3 75.74 0.29 7.51 8.59 7.21
8/3/2022 1:45:00 AM 24.26 75.668 0.29 7.51 9.17 7.34
8/3/2022 2:00:00 AM 24.14 75.452 0.291 7.52 7.58 7.35
8/3/2022 2:15:00 AM 24.12 75.416 0.291 7.5 8.89 7.21
8/3/2022 2:30:00 AM 24.03 75.254 0.291 7.48 8.34 7
8/3/2022 2:45:00 AM 23.99 75.182 0.291 7.49 9.02 7.17
8/3/2022 3:00:00 AM 23.88 74.984 0.291 7.49 9.15 7.2
8/3/2022 3:15:00 AM 23.85 74.93 0.291 7.48 8.23 7.09
8/3/2022 3:30:00 AM 23.81 74.858 0.29 7.51 8.51 7.26
8/3/2022 3:45:00 AM 23.72 74.696 0.29 7.47 8.65 7.05
8/3/2022 4:00:00 AM 23.67 74.606 0.291 7.46 8.13 7.09
8/3/2022 4:15:00 AM 23.63 74.534 0.291 7.46 8.64 7.04
8/3/2022 4:30:00 AM 23.58 74.444 0.291 7.46 7.48 7.05
8/3/2022 4:45:00 AM 23.51 74.318 0.291 7.44 8.81 6.8
8/3/2022 5:00:00 AM 23.48 74.264 0.291 7.42 8.41 6.74
8/3/2022 5:15:00 AM 23.39 74.102 0.291 7.42 10.05 6.73
8/3/2022 5:30:00 AM 23.38 74.084 0.291 7.42 9.51 6.68
8/3/2022 5:45:00 AM 23.37 74.066 0.29 7.42 12.26 6.7
8/3/2022 6:00:00 AM 23.33 73.994 0.29 7.4 183.98 6.62
8/3/2022 6:15:00 AM 23.21 73.778 0.291 7.41 151.21 6.54
8/3/2022 6:30:00 AM 23.2 73.76 0.29 7.41 26.2 6.59
8/3/2022 6:45:00 AM 23.15 73.67 0.29 7.39 126.13 6.37
8/3/2022 7:00:00 AM 23.13 73.634 0.29 7.39 16.46 6.46
8/3/2022 7:15:00 AM 23.13 73.634 0.29 7.38 11.66 6.42
8/3/2022 7:30:00 AM 23.12 73.616 0.29 7.38 1713.41 6.34
8/3/2022 7:45:00 AM 23.08 73.544 0.29 7.38 16.62 6.31
8/3/2022 8:00:00 AM 23.03 73.454 0.291 7.38 9.9 6.43
8/3/2022 8:15:00 AM 23.06 73.508 0.291 7.35 9.2 6.21
8/3/2022 8:30:00 AM 23.04 73.472 0.291 7.36 9.57 6.35
8/3/2022 8:45:00 AM 23.02 73.436 0.291 7.33 10.35 6.22
8/3/2022 9:00:00 AM 23.13 73.634 0.289 7.39 13.05 6.75
8/3/2022 9:15:00 AM 23.03 73.454 0.29 7.36 9.79 6.62
8/3/2022 9:30:00 AM 23.11 73.598 0.289 7.39 11.23 6.75
8/3/2022 9:45:00 AM 23.3 73.94 0.289 7.41 14.81 6.78
8/3/2022 10:00:00 AM 23.48 74.264 0.289 7.41 15.8 6.74
8/3/2022 10:15:00 AM 23.45 74.21 0.289 7.41 13.35 6.81
8/3/2022 10:30:00 AM 23.5 74.3 0.289 7.42 25.75 6.94
8/3/2022 10:45:00 AM 23.37 74.066 0.289 7.42 17.87 7.06
8/3/2022 11:00:00 AM 23.42 74.156 0.29 7.44 10.5 7.21
8/3/2022 11:15:00 AM 23.48 74.264 0.29 7.43 9.68 7.11
8/3/2022 11:30:00 AM 23.55 74.39 0.29 7.44 10.06 7.47
8/3/2022 11:45:00 AM 23.57 74.426 0.29 7.45 9.8 7.56
8/3/2022 12:00:00 PM 23.65 74.57 0.29 7.47 10.33 7.7
8/3/2022 12:15:00 PM 23.59 74.462 0.289 7.48 10.72 7.91
8/3/2022 12:30:00 PM 23.69 74.642 0.289 7.51 10.62 7.99
8/3/2022 12:45:00 PM 23.97 75.146 0.29 7.52 12.2 7.98
8/3/2022 1:00:00 PM 23.98 75.164 0.289 7.57 11.04 8.39
8/3/2022 1:15:00 PM 23.99 75.182 0.289 7.57 12.09 8.28
8/3/2022 1:30:00 PM 24.09 75.362 0.289 7.56 10.07 8.39
8/3/2022 1:45:00 PM 24.02 75.236 0.289 7.6 14.27 8.55
8/3/2022 2:00:00 PM 24.24 75.632 0.289 7.63 10.77 8.62
8/3/2022 2:15:00 PM 24.3 75.74 0.289 7.68 11.11 9.02
8/3/2022 2:30:00 PM 24.43 75.974 0.289 7.67 10.57 8.96
8/3/2022 2:45:00 PM 24.53 76.154 0.289 7.68 11.81 8.92
8/3/2022 3:00:00 PM 24.4 75.92 0.289 7.74 11.48 9.19
8/3/2022 3:15:00 PM 24.52 76.136 0.29 7.67 9.83 8.95
8/3/2022 3:30:00 PM 24.69 76.442 0.289 7.76 21.9 9.47
8/3/2022 3:45:00 PM 24.8 76.64 0.289 7.77 11.07 9.56
8/3/2022 4:00:00 PM 24.84 76.712 0.29 7.76 10.35 9.59
8/3/2022 4:15:00 PM 24.81 76.658 0.29 7.82 10.91 9.54
8/3/2022 4:30:00 PM 24.9 76.82 0.29 7.83 9.56 9.72
8/3/2022 4:45:00 PM 24.93 76.874 0.29 7.8 17.71 9.67
8/3/2022 5:00:00 PM 25.07 77.126 0.29 7.84 19.64 9.76
8/3/2022 5:15:00 PM 25.09 77.162 0.29 7.87 22.97 9.85
8/3/2022 5:30:00 PM 24.95 76.91 0.289 7.89 17.22 9.88
8/3/2022 5:45:00 PM 24.79 76.622 0.29 7.83 15.61 9.57
8/3/2022 6:00:00 PM 24.96 76.92799 0.29 7.79 25.04 9.27
8/3/2022 6:15:00 PM 25.22 77.396 0.291 7.63 28.97 8.61
8/3/2022 6:30:00 PM 25.13 77.234 0.291 7.63 29.82 8.44
8/3/2022 6:45:00 PM 25.12 77.216 0.291 7.63 25.42 8.42
8/3/2022 7:00:00 PM 25.14 77.252 0.291 7.61 16.98 8.55
8/3/2022 7:15:00 PM 25.26 77.468 0.292 7.58 15.39 8.14
8/3/2022 7:30:00 PM 25.24 77.432 0.292 7.58 15.84 8.22
8/3/2022 7:45:00 PM 25.3 77.54 0.292 7.59 17.4 8.24
8/3/2022 8:00:00 PM 25.3 77.54 0.292 7.62 13.21 8.33
8/3/2022 8:15:00 PM 25.28 77.504 0.292 7.59 12.85 8.01
8/3/2022 8:30:00 PM 25.27 77.486 0.292 7.59 12.66 7.93
8/3/2022 8:45:00 PM 25.28 77.504 0.293 7.55 11.1 8.01
8/3/2022 9:00:00 PM 25.24 77.432 0.292 7.55 13.78 7.88
8/3/2022 9:15:00 PM 25.28 77.504 0.292 7.54 11.89 7.91
8/3/2022 9:30:00 PM 25.3 77.54 0.292 7.55 11.27 7.88
8/3/2022 9:45:00 PM 25.28 77.504 0.292 7.57 11.05 7.9
8/3/2022 10:00:00 PM 25.27 77.486 0.293 7.54 12.23 7.78
8/3/2022 10:15:00 PM 25.37 77.666 0.293 7.52 12.36 7.53
8/3/2022 10:30:00 PM 25.38 77.684 0.293 7.55 13.88 7.71
8/3/2022 10:45:00 PM 25.29 77.522 0.293 7.53 11.68 7.57
8/3/2022 11:00:00 PM 25.38 77.684 0.293 7.52 11.4 7.38
8/3/2022 11:15:00 PM 25.37 77.666 0.293 7.52 9.95 7.32
8/3/2022 11:30:00 PM 25.36 77.648 0.293 7.51 9.42 7.23
8/3/2022 11:45:00 PM 25.26 77.468 0.293 7.48 9.79 7.18
8/4/2022 12:00:00 AM 25.29 77.522 0.295 7.53 8.04 7.05
8/4/2022 12:15:00 AM 25.24 77.432 0.294 7.53 8.19 7.06
8/4/2022 12:30:00 AM 25.17 77.306 0.294 7.54 8.89 7.05
8/4/2022 12:45:00 AM 25.09 77.162 0.294 7.52 8.56 7.09
8/4/2022 1:00:00 AM 25.04 77.07201 0.294 7.51 10.59 6.95
8/4/2022 1:15:00 AM 25.01 77.018 0.294 7.51 8.6 7.08
8/4/2022 1:30:00 AM 24.91 76.838 0.294 7.48 8.5 6.8
8/4/2022 1:45:00 AM 24.86 76.748 0.294 7.49 9.16 6.71
8/4/2022 2:00:00 AM 24.81 76.658 0.294 7.49 8.8 6.7
8/4/2022 2:15:00 AM 24.71 76.478 0.295 7.46 9.28 6.51
8/4/2022 2:30:00 AM 24.68 76.424 0.295 7.44 8.33 6.41
8/4/2022 2:45:00 AM 24.61 76.298 0.295 7.44 9.79 6.47
8/4/2022 3:00:00 AM 24.59 76.262 0.294 7.43 9.59 6.61
8/4/2022 3:15:00 AM 24.55 76.19 0.294 7.49 8.95 6.75
8/4/2022 3:30:00 AM 24.49 76.082 0.294 7.42 12.37 6.55
8/4/2022 3:45:00 AM 24.44 75.992 0.294 7.44 9.23 6.72
8/4/2022 4:00:00 AM 24.41 75.938 0.294 7.46 9.56 6.63
8/4/2022 4:15:00 AM 24.34 75.812 0.294 7.44 10.45 6.55
8/4/2022 4:30:00 AM 24.27 75.686 0.295 7.43 11.1 6.39
8/4/2022 4:45:00 AM 24.25 75.65 0.294 7.43 9.83 6.39
8/4/2022 5:00:00 AM 24.15 75.47 0.295 7.43 9.19 6.32
8/4/2022 5:15:00 AM 24.13 75.434 0.295 7.41 10.72 6.35
8/4/2022 5:30:00 AM 24.07 75.326 0.294 7.42 10.73 6.24
8/4/2022 5:45:00 AM 23.97 75.146 0.295 7.43 9.51 6.37
8/4/2022 6:00:00 AM 23.96 75.128 0.295 7.42 9.87 6.36
8/4/2022 6:15:00 AM 23.92 75.056 0.294 7.42 11.37 6.35
8/4/2022 6:30:00 AM 23.84 74.912 0.294 7.41 14.56 6.27
8/4/2022 6:45:00 AM 23.77 74.786 0.295 7.41 10.24 6.31
8/4/2022 7:00:00 AM 23.71 74.67799 0.295 7.39 9.84 6.13
8/4/2022 7:15:00 AM 23.73 74.714 0.295 7.4 11.22 6.25
8/4/2022 7:30:00 AM 23.66 74.588 0.295 7.39 10.46 6.13
8/4/2022 7:45:00 AM 23.68 74.624 0.295 7.39 13.37 6.07
8/4/2022 8:00:00 AM 23.67 74.606 0.294 7.39 10.58 6.21
8/4/2022 8:15:00 AM 23.69 74.642 0.294 7.37 10.88 6.1
8/4/2022 8:30:00 AM 23.67 74.606 0.295 7.38 16.87 6.23
8/4/2022 8:45:00 AM 23.7 74.66 0.294 7.4 12.46 6.3
8/4/2022 9:00:00 AM 23.74 74.732 0.294 7.4 10.66 6.35
8/4/2022 9:15:00 AM 23.84 74.912 0.293 7.39 11.99 6.33
8/4/2022 9:30:00 AM 23.87 74.966 0.293 7.39 11.92 6.37
8/4/2022 9:45:00 AM 24.02 75.236 0.293 7.4 11.77 6.47
8/4/2022 10:00:00 AM 24.07 75.326 0.293 7.41 14.21 6.5
8/4/2022 10:15:00 AM 24.07 75.326 0.293 7.41 13.88 6.48
8/4/2022 10:30:00 AM 24.06 75.308 0.293 7.4 15.92 6.5
8/4/2022 10:45:00 AM 23.97 75.146 0.293 7.4 15.53 6.44
8/4/2022 11:00:00 AM 24.15 75.47 0.293 7.42 11.55 6.67
8/4/2022 11:15:00 AM 24.01 75.218 0.293 7.41 12.34 6.71
8/4/2022 11:30:00 AM 24.06 75.308 0.293 7.42 21.15 6.89
8/4/2022 11:45:00 AM 24.3 75.74 0.293 7.42 15.64 7.17
8/4/2022 12:00:00 PM 24.27 75.686 0.293 7.42 14.46 7.16
8/4/2022 12:15:00 PM 24.4 75.92 0.293 7.44 14.92 7.22
8/4/2022 12:30:00 PM 24.52 76.136 0.293 7.47 15.41 7.44
8/4/2022 12:45:00 PM 24.64 76.352 0.293 7.5 15.16 7.5
8/4/2022 1:00:00 PM 24.63 76.334 0.293 7.53 14.4 7.81
8/4/2022 1:15:00 PM 24.67 76.406 0.293 7.54 13.46 7.72
8/4/2022 1:30:00 PM 24.58 76.244 0.293 7.56 15.44 7.82
8/4/2022 1:45:00 PM 24.54 76.172 0.293 7.55 14.28 7.7
8/4/2022 2:00:00 PM 25 77 0.293 7.52 16.07 7.67
8/4/2022 2:15:00 PM 24.68 76.424 0.293 7.53 15.16 7.5
8/4/2022 2:30:00 PM 24.63 76.334 0.293 7.51 15.65 7.43
8/4/2022 2:45:00 PM 24.73 76.514 0.293 7.51 14.62 7.38
8/4/2022 3:00:00 PM 24.87 76.766 0.294 7.48 15.07 7.2
8/4/2022 3:15:00 PM 24.98 76.964 0.294 7.49 13.6 7.27
8/4/2022 3:30:00 PM 25.01 77.018 0.295 7.48 16.25 7.2
8/4/2022 3:45:00 PM 25.2 77.36 0.296 7.5 13.72 7.33
8/4/2022 4:00:00 PM 24.97 76.946 0.295 7.48 16.27 7.04
8/4/2022 4:15:00 PM 24.63 76.334 0.294 7.43 13.7 7.06
8/4/2022 4:30:00 PM 24.59 76.262 0.294 7.37 15.93 6.87
8/4/2022 4:45:00 PM 24.86 76.748 0.295 7.43 14.58 6.93
8/4/2022 5:00:00 PM 25.03 77.054 0.295 7.42 16.6 6.76
8/4/2022 5:15:00 PM 24.96 76.92799 0.294 7.41 20.93 6.69
8/4/2022 5:30:00 PM 24.95 76.91 0.294 7.37 20.07 6.88
8/4/2022 5:45:00 PM 24.99 76.982 0.295 7.44 16.82 6.99
8/4/2022 6:00:00 PM 25.03 77.054 0.294 7.43 15.94 6.92
8/4/2022 6:15:00 PM 25.08 77.144 0.295 7.42 17.25 6.91
8/4/2022 6:30:00 PM 25.31 77.558 0.295 7.44 18.11 6.94
8/4/2022 6:45:00 PM 25.14 77.252 0.295 7.42 15.95 6.89
8/4/2022 7:00:00 PM 24.97 76.946 0.295 7.42 15.07 6.63
8/4/2022 7:15:00 PM 24.94 76.892 0.295 7.41 14.51 6.55
8/4/2022 7:30:00 PM 25 77 0.295 7.4 14.01 6.43
8/4/2022 7:45:00 PM 25.1 77.18 0.295 7.42 15.51 6.72
8/4/2022 8:00:00 PM 25.12 77.216 0.295 7.42 14.51 6.68
8/4/2022 8:15:00 PM 25.1 77.18 0.295 7.41 16.96 6.58
8/4/2022 8:30:00 PM 25.09 77.162 0.294 7.38 15.7 6.77
8/4/2022 8:45:00 PM 25.12 77.216 0.295 7.42 13.86 6.71
8/4/2022 9:00:00 PM 25.16 77.288 0.294 7.43 13.33 6.67
8/4/2022 9:15:00 PM 25.14 77.252 0.294 7.39 13.89 6.61
8/4/2022 9:30:00 PM 25.06 77.108 0.294 7.4 14.63 6.42
8/4/2022 9:45:00 PM 25.11 77.198 0.294 7.4 12.74 6.4
8/4/2022 10:00:00 PM 25.15 77.27 0.293 7.41 12.23 6.45
8/4/2022 10:15:00 PM 25.07 77.126 0.294 7.41 12.16 6.4
8/4/2022 10:30:00 PM 25.1 77.18 0.292 7.41 18.25 6.37
8/4/2022 10:45:00 PM 25.06 77.108 0.292 7.4 12.11 6.38
8/4/2022 11:00:00 PM 25.02 77.036 0.293 7.33 12.04 6.22
8/4/2022 11:15:00 PM 25.03 77.054 0.292 7.39 11.38 6.25
8/4/2022 11:30:00 PM 25 77 0.291 7.42 12.56 6.34
8/4/2022 11:45:00 PM 24.95 76.91 0.291 7.43 13.84 6.38
8/5/2022 12:00:00 AM 24.92 76.856 0.291 7.34 12.36 6.19
8/5/2022 12:15:00 AM 24.91 76.838 0.29 7.42 11.01 6.24
8/5/2022 12:30:00 AM 24.87 76.766 0.291 7.39 11.97 6.05
8/5/2022 12:45:00 AM 24.86 76.748 0.291 7.39 11.52 6.04
8/5/2022 1:00:00 AM 24.86 76.748 0.291 7.39 12.64 6.03
8/5/2022 1:15:00 AM 24.83 76.694 0.291 7.37 10.74 6.12
8/5/2022 1:30:00 AM 24.82 76.676 0.291 7.37 11.43 5.96
8/5/2022 1:45:00 AM 24.81 76.658 0.291 7.34 11.72 6.14
8/5/2022 2:00:00 AM 24.76 76.568 0.291 7.36 12.44 5.84
8/5/2022 2:15:00 AM 24.73 76.514 0.291 7.36 12.19 5.93
8/5/2022 2:30:00 AM 24.72 76.496 0.291 7.38 12.1 5.95
8/5/2022 2:45:00 AM 24.69 76.442 0.291 7.39 11.97 5.98
8/5/2022 3:00:00 AM 24.66 76.388 0.291 7.37 12.2 5.79
8/5/2022 3:15:00 AM 24.6 76.28 0.291 7.34 10.74 5.58
8/5/2022 3:30:00 AM 24.61 76.298 0.291 7.37 11.08 5.66
8/5/2022 3:45:00 AM 24.59 76.262 0.291 7.36 10.37 5.68
8/5/2022 4:00:00 AM 24.58 76.244 0.291 7.34 11.39 5.73
8/5/2022 4:15:00 AM 24.51 76.118 0.292 7.33 11.58 5.45
8/5/2022 4:30:00 AM 24.55 76.19 0.291 7.34 15.79 5.79
8/5/2022 4:45:00 AM 24.5 76.1 0.291 7.33 13.54 5.54
8/5/2022 5:00:00 AM 24.49 76.082 0.292 7.32 13.42 5.52
8/5/2022 5:15:00 AM 24.47 76.046 0.292 7.31 12.6 5.36
8/5/2022 5:30:00 AM 24.45 76.01 0.291 7.31 12.4 5.51
8/5/2022 5:45:00 AM 24.46 76.028 0.291 7.33 14.3 5.6
8/5/2022 6:00:00 AM 24.43 75.974 0.291 7.33 16.53 5.68
8/5/2022 6:15:00 AM 24.38 75.884 0.292 7.32 13.88 5.5
8/5/2022 6:30:00 AM 24.34 75.812 0.292 7.3 13.04 5.24
8/5/2022 6:45:00 AM 24.32 75.776 0.293 7.3 13.05 5.23
8/5/2022 7:00:00 AM 24.33 75.794 0.292 7.28 16.57 5.1
8/5/2022 7:15:00 AM 24.29 75.722 0.292 7.3 22.6 5.24
8/5/2022 7:30:00 AM 24.29 75.722 0.292 7.28 17.86 5.22
8/5/2022 7:45:00 AM 24.28 75.704 0.292 7.29 18.15 5.18
8/5/2022 8:00:00 AM 24.31 75.758 0.292 7.28 21.83 5.24
8/5/2022 8:15:00 AM 24.33 75.794 0.292 7.29 17.17 5.22
8/5/2022 8:30:00 AM 24.33 75.794 0.292 7.3 15.31 5.43
8/5/2022 8:45:00 AM 24.33 75.794 0.292 7.28 15.15 5.29
8/5/2022 9:00:00 AM 24.36 75.848 0.291 7.32 14.13 5.62
8/5/2022 9:15:00 AM 24.36 75.848 0.291 7.32 13.62 5.72
8/5/2022 9:30:00 AM 24.43 75.974 0.291 7.35 18.82 5.85
8/5/2022 9:45:00 AM 24.53 76.154 0.291 7.35 27.33 5.96
8/5/2022 10:00:00 AM 24.47 76.046 0.291 7.32 24.8 5.71
8/5/2022 10:15:00 AM 24.5 76.1 0.291 7.33 22.46 5.9
8/5/2022 10:30:00 AM 24.53 76.154 0.291 7.29 26.27 5.84
8/5/2022 10:45:00 AM 24.5 76.1 0.291 7.33 20.8 5.79
8/5/2022 11:00:00 AM 24.51 76.118 0.291 7.32 19.61 5.74
8/5/2022 11:15:00 AM 24.54 76.172 0.291 7.33 17.53 5.8
8/5/2022 11:30:00 AM 24.63 76.334 0.291 7.35 16.21 6.1
8/5/2022 11:45:00 AM 24.69 76.442 0.292 7.36 14.81 6.16
8/5/2022 12:00:00 PM 24.75 76.55 0.294 7.34 10.89 6.01
8/5/2022 12:15:00 PM 24.74 76.532 0.292 7.37 12.37 6.3
8/5/2022 12:30:00 PM 24.7 76.46 0.292 7.37 13.54 6.27
8/5/2022 12:45:00 PM 24.7 76.46 0.292 7.34 15.7 6.17
8/5/2022 1:00:00 PM 24.66 76.388 0.291 7.35 14.6 6.26
8/5/2022 1:15:00 PM 24.78 76.604 0.292 7.37 12.19 6.4
8/5/2022 1:30:00 PM 24.89 76.802 0.292 7.37 14.01 6.62
8/5/2022 1:45:00 PM 24.82 76.676 0.291 7.38 14.96 6.81
8/5/2022 2:00:00 PM 24.92 76.856 0.291 7.41 14.71 6.88
8/5/2022 2:15:00 PM 24.96 76.92799 0.291 7.42 15.26 7.07
8/5/2022 2:30:00 PM 25.16 77.288 0.291 7.44 13.38 7.28
8/5/2022 2:45:00 PM 25.21 77.378 0.291 7.48 16.26 7.54
8/5/2022 3:00:00 PM 25.2 77.36 0.291 7.52 15.61 7.73
8/5/2022 3:15:00 PM 25.24 77.432 0.291 7.44 13.21 7.64
8/5/2022 3:30:00 PM 25.38 77.684 0.291 7.51 12.99 7.73
8/5/2022 3:45:00 PM 25.55 77.99 0.292 7.53 11.78 7.72
8/5/2022 4:00:00 PM 25.52 77.936 0.291 7.57 14.02 7.99
8/5/2022 4:15:00 PM 25.46 77.828 0.291 7.58 16.07 8.02
8/5/2022 4:30:00 PM 25.43 77.774 0.291 7.61 14.68 8.22
8/5/2022 4:45:00 PM 25.44 77.792 0.291 7.63 12.94 8.34
8/5/2022 5:00:00 PM 25.51 77.918 0.292 7.64 14.79 8.32
8/5/2022 5:15:00 PM 25.5 77.9 0.291 7.65 13.17 8.32
8/5/2022 5:30:00 PM 25.61 78.098 0.291 7.63 12.78 8.34
8/5/2022 5:45:00 PM 25.66 78.188 0.292 7.64 12.52 8.43
8/5/2022 6:00:00 PM 25.84 78.512 0.293 7.6 14.44 8.06
8/5/2022 6:15:00 PM 25.64 78.152 0.293 7.62 12.17 8.12
8/5/2022 6:30:00 PM 25.46 77.828 0.293 7.59 12.26 7.81
8/5/2022 6:45:00 PM 25.46 77.828 0.292 7.58 14.3 7.71
8/5/2022 7:00:00 PM 25.8 78.44 0.293 7.56 11.62 7.75
8/5/2022 7:15:00 PM 25.85 78.53 0.293 7.56 11.62 7.79
8/5/2022 7:30:00 PM 25.86 78.548 0.293 7.55 11.43 7.77
8/5/2022 7:45:00 PM 25.8 78.44 0.293 7.55 11.37 7.75
8/5/2022 8:00:00 PM 25.75 78.35 0.293 7.53 57.07 7.6
8/5/2022 8:15:00 PM 25.95 78.71 0.294 7.53 13.13 7.6
8/5/2022 8:30:00 PM 25.87 78.566 0.294 7.53 12.08 7.54
8/5/2022 8:45:00 PM 25.92 78.656 0.294 7.53 14.31 7.44
8/5/2022 9:00:00 PM 25.82 78.476 0.293 7.54 11.46 7.59
8/5/2022 9:15:00 PM 25.77 78.386 0.294 7.53 11.01 7.43
8/5/2022 9:30:00 PM 25.85 78.53 0.294 7.53 10.18 7.48
8/5/2022 9:45:00 PM 25.85 78.53 0.294 7.5 12.3 7.19
8/5/2022 10:00:00 PM 25.8 78.44 0.294 7.47 10.65 7.15
8/5/2022 10:15:00 PM 25.83 78.494 0.294 7.48 11.01 7.16
8/5/2022 10:30:00 PM 25.93 78.674 0.294 7.5 9.6 7.23
8/5/2022 10:45:00 PM 25.84 78.512 0.294 7.46 10.64 7.13
8/5/2022 11:00:00 PM 25.85 78.53 0.294 7.48 9.89 7.26
8/5/2022 11:15:00 PM 25.87 78.566 0.294 7.48 10.86 7.07
8/5/2022 11:30:00 PM 25.84 78.512 0.294 7.46 9.98 6.89
8/5/2022 11:45:00 PM 25.9 78.62 0.294 7.43 9.85 6.75
8/6/2022 12:00:00 AM 25.99 78.782 0.294 7.45 10.84 6.8
8/6/2022 12:15:00 AM 25.95 78.71 0.294 7.44 15.05 6.68
8/6/2022 12:30:00 AM 25.91 78.638 0.294 7.45 9.96 6.82
8/6/2022 12:45:00 AM 25.89 78.602 0.294 7.44 9.69 6.91
8/6/2022 1:00:00 AM 25.93 78.674 0.294 7.46 9.3 6.87
8/6/2022 1:15:00 AM 25.91 78.638 0.294 7.45 8.7 6.76
8/6/2022 1:30:00 AM 25.84 78.512 0.294 7.46 9.94 6.59
8/6/2022 1:45:00 AM 25.8 78.44 0.294 7.44 9.82 6.61
8/6/2022 2:00:00 AM 25.82 78.476 0.294 7.46 9.45 6.84
8/6/2022 2:15:00 AM 25.76 78.368 0.294 7.45 9.29 6.65
8/6/2022 2:30:00 AM 25.67 78.206 0.294 7.45 9.2 6.36
8/6/2022 2:45:00 AM 25.66 78.188 0.294 7.43 8.89 6.33
8/6/2022 3:00:00 AM 25.62 78.116 0.294 7.43 9.06 6.2
8/6/2022 3:15:00 AM 25.57 78.026 0.294 7.44 8.52 6.2
8/6/2022 3:30:00 AM 25.57 78.026 0.294 7.44 8.34 6.36
8/6/2022 3:45:00 AM 25.55 77.99 0.294 7.4 8.36 6.13
8/6/2022 4:00:00 AM 25.49 77.882 0.294 7.41 8.73 6.03
8/6/2022 4:15:00 AM 25.5 77.9 0.294 7.41 9.87 6.22
8/6/2022 4:30:00 AM 25.44 77.792 0.294 7.43 8.45 6.41
8/6/2022 4:45:00 AM 25.42 77.756 0.294 7.4 9.1 6.04
8/6/2022 5:00:00 AM 25.39 77.702 0.294 7.41 8.14 6.05
8/6/2022 5:15:00 AM 25.38 77.684 0.294 7.39 9.25 6.1
8/6/2022 5:30:00 AM 25.35 77.63 0.294 7.4 9.09 6.09
8/6/2022 5:45:00 AM 25.31 77.558 0.294 7.39 9.92 6.15
8/6/2022 6:00:00 AM 25.28 77.504 0.294 7.41 8.96 6.15
8/6/2022 6:15:00 AM 25.2 77.36 0.294 7.39 9.03 5.82
8/6/2022 6:30:00 AM 25.18 77.324 0.294 7.36 9.72 5.78
8/6/2022 6:45:00 AM 25.12 77.216 0.294 7.37 10.47 5.81
8/6/2022 7:00:00 AM 25.16 77.288 0.294 7.36 12.05 5.75
8/6/2022 7:15:00 AM 25.14 77.252 0.294 7.36 10.84 5.9
8/6/2022 7:30:00 AM 25.1 77.18 0.294 7.36 10.11 5.85
8/6/2022 7:45:00 AM 25.08 77.144 0.294 7.35 11.05 5.6
8/6/2022 8:00:00 AM 25.09 77.162 0.294 7.33 38.52 5.57
8/6/2022 8:15:00 AM 25.1 77.18 0.294 7.36 27.39 5.93
8/6/2022 8:30:00 AM 25.12 77.216 0.294 7.38 11.66 6.15
8/6/2022 8:45:00 AM 25.14 77.252 0.293 7.38 11.06 6.27
8/6/2022 9:00:00 AM 25.16 77.288 0.294 7.41 12.34 6.35
8/6/2022 9:15:00 AM 25.14 77.252 0.294 7.39 12.55 6.27
8/6/2022 9:30:00 AM 25.27 77.486 0.293 7.4 11.77 6.55
8/6/2022 9:45:00 AM 25.34 77.612 0.293 7.41 12.11 6.55
8/6/2022 10:00:00 AM 25.42 77.756 0.293 7.42 15.55 6.58
8/6/2022 10:15:00 AM 25.63 78.134 0.293 7.45 34.48 6.85
8/6/2022 10:30:00 AM 25.47 77.846 0.293 7.45 17.07 6.85
8/6/2022 10:45:00 AM 25.38 77.684 0.293 7.43 13.22 6.79
8/6/2022 11:00:00 AM 25.37 77.666 0.293 7.4 14.31 6.79
8/6/2022 11:15:00 AM 25.37 77.666 0.293 7.43 15.86 6.89
8/6/2022 11:30:00 AM 25.49 77.882 0.293 7.45 17.79 6.92
8/6/2022 11:45:00 AM 25.59 78.062 0.293 7.48 15.19 7.45
8/6/2022 12:00:00 PM 25.73 78.314 0.293 7.53 13.3 7.63
8/6/2022 12:15:00 PM 25.78 78.404 0.292 7.52 14.63 7.84
8/6/2022 12:30:00 PM 25.78 78.404 0.292 7.54 14.68 7.98
8/6/2022 12:45:00 PM 25.7 78.26 0.292 7.56 16.16 8.1
8/6/2022 1:00:00 PM 25.74 78.332 0.292 7.6 13.64 8.27
8/6/2022 1:15:00 PM 25.91 78.638 0.292 7.63 13.04 8.52
8/6/2022 1:30:00 PM 26.07 78.926 0.292 7.66 13.79 8.77
8/6/2022 1:45:00 PM 26.18 79.124 0.292 7.7 13.59 9.11
8/6/2022 2:00:00 PM 26.11 78.998 0.292 7.75 14.72 9.2
8/6/2022 2:15:00 PM 26.2 79.16 0.293 7.73 13.03 8.97
8/6/2022 2:30:00 PM 26.24 79.232 0.293 7.8 13.48 9.26
8/6/2022 2:45:00 PM 26.2 79.16 0.293 7.75 12.05 9.05
8/6/2022 3:00:00 PM 26.18 79.124 0.293 7.75 18.07 8.92
8/6/2022 3:15:00 PM 26.39 79.502 0.293 7.74 11.15 8.99
8/6/2022 3:30:00 PM 26.63 79.934 0.294 7.73 11.41 9.06
8/6/2022 3:45:00 PM 26.74 80.132 0.294 7.76 11.62 9.24
8/6/2022 4:00:00 PM 26.74 80.132 0.294 7.81 11.69 9.32
8/6/2022 4:15:00 PM 26.83 80.294 0.294 7.85 9.79 9.56
8/6/2022 4:30:00 PM 26.78 80.204 0.294 7.84 13.35 9.36
8/6/2022 4:45:00 PM 26.58 79.844 0.294 7.82 11.54 9.33
8/6/2022 5:00:00 PM 26.5 79.7 0.294 7.82 10.64 9.18
8/6/2022 5:15:00 PM 26.52 79.736 0.294 7.83 11.35 9.28
8/6/2022 5:30:00 PM 26.7 80.06 0.294 7.81 11.23 9.4
8/6/2022 5:45:00 PM 26.85 80.33 0.294 7.76 10.96 9.11
8/6/2022 6:00:00 PM 26.84 80.312 0.294 7.79 9.98 9.12
8/6/2022 6:15:00 PM 26.92 80.456 0.295 7.79 10.19 9.28
8/6/2022 6:30:00 PM 26.9 80.42 0.295 7.8 9.82 9.19
8/6/2022 6:45:00 PM 26.81 80.258 0.295 7.76 10.25 9.1
8/6/2022 7:00:00 PM 26.77 80.186 0.295 7.76 10.88 8.83
8/6/2022 7:15:00 PM 26.74 80.132 0.295 7.74 11.26 8.75
8/6/2022 7:30:00 PM 26.8 80.24 0.295 7.69 10.93 8.67
8/6/2022 7:45:00 PM 26.99 80.582 0.295 7.68 10.71 8.58
8/6/2022 8:00:00 PM 26.98 80.564 0.295 7.66 10.75 8.53
8/6/2022 8:15:00 PM 26.91 80.438 0.295 7.67 9.98 8.76
8/6/2022 8:30:00 PM 27.05 80.69 0.295 7.69 9.51 8.86
8/6/2022 8:45:00 PM 27.13 80.834 0.296 7.69 8.84 8.62
8/6/2022 9:00:00 PM 27.15 80.87 0.296 7.68 9.98 8.76
8/6/2022 9:15:00 PM 27.01 80.618 0.296 7.67 10.44 8.67
8/6/2022 9:30:00 PM 27.13 80.834 0.296 7.68 9.26 8.67
8/6/2022 9:45:00 PM 27.07 80.726 0.296 7.61 11.95 8.2
8/6/2022 10:00:00 PM 27.01 80.618 0.296 7.58 14.32 7.8
8/6/2022 10:15:00 PM 27.08 80.744 0.295 7.68 9.05 8.51
8/6/2022 10:30:00 PM 27.09 80.762 0.296 7.65 8.28 8.39
8/6/2022 10:45:00 PM 27.34 81.212 0.297 7.68 13.25 8.45
8/6/2022 11:00:00 PM 27.15 80.87 0.296 7.69 8.9 8.61
8/6/2022 11:15:00 PM 27.14 80.852 0.296 7.69 7.56 8.61
8/6/2022 11:30:00 PM 27.11 80.798 0.295 7.66 7.74 8.5
8/6/2022 11:45:00 PM 27.06 80.708 0.296 7.65 8.44 8.33
8/7/2022 12:00:00 AM 27.12 80.816 0.296 7.58 8.34 8.2
8/7/2022 12:15:00 AM 27.11 80.798 0.296 7.62 8.23 7.99
8/7/2022 12:30:00 AM 27.2 80.96 0.297 7.59 8.52 8.1
8/7/2022 12:45:00 AM 27.22 80.996 0.297 7.6 8.79 7.94
8/7/2022 1:00:00 AM 27.15 80.87 0.297 7.59 8.63 7.8
8/7/2022 1:15:00 AM 27.14 80.852 0.297 7.52 8.34 7.42
8/7/2022 1:30:00 AM 27.03 80.654 0.296 7.53 10.15 7.33
8/7/2022 1:45:00 AM 27.13 80.834 0.298 7.55 8.24 7.46
8/7/2022 2:00:00 AM 27.12 80.816 0.297 7.55 8.44 7.45
8/7/2022 2:15:00 AM 27.1 80.78 0.297 7.55 8.51 7.29
8/7/2022 2:30:00 AM 27.12 80.816 0.298 7.56 7.69 7.31
8/7/2022 2:45:00 AM 27.05 80.69 0.298 7.55 7.42 7.05
8/7/2022 3:00:00 AM 27.04 80.672 0.298 7.53 8.09 7.03
8/7/2022 3:15:00 AM 27.04 80.672 0.298 7.53 8 7.07
8/7/2022 3:30:00 AM 27.02 80.636 0.296 7.55 8.14 7.3
8/7/2022 3:45:00 AM 26.96 80.528 0.299 7.54 7.42 7.05
8/7/2022 4:00:00 AM 26.97 80.546 0.296 7.53 7.43 7.29
8/7/2022 4:15:00 AM 26.9 80.42 0.297 7.52 7.5 7.04
8/7/2022 4:30:00 AM 26.85 80.33 0.297 7.53 9.58 6.98
8/7/2022 4:45:00 AM 26.86 80.348 0.296 7.53 8.72 7.12
8/7/2022 5:00:00 AM 26.77 80.186 0.297 7.49 9.89 6.76
8/7/2022 5:15:00 AM 26.74 80.132 0.297 7.48 9.11 6.7
8/7/2022 5:30:00 AM 26.68 80.024 0.297 7.48 11.95 6.64
8/7/2022 5:45:00 AM 26.67 80.006 0.296 7.49 8.39 6.86
8/7/2022 6:00:00 AM 26.62 79.916 0.297 7.48 8.46 6.73
8/7/2022 6:15:00 AM 26.58 79.844 0.297 7.46 8.6 6.59
8/7/2022 6:30:00 AM 26.53 79.754 0.297 7.46 7.99 6.41
8/7/2022 6:45:00 AM 26.49 79.682 0.297 7.45 11.89 6.47
8/7/2022 7:00:00 AM 26.49 79.682 0.297 7.43 8.74 6.56
8/7/2022 7:15:00 AM 26.41 79.538 0.297 7.49 7.9 6.61
8/7/2022 7:30:00 AM 26.45 79.61 0.297 7.45 8.09 6.5
8/7/2022 7:45:00 AM 26.45 79.61 0.296 7.46 8.49 6.67
8/7/2022 8:00:00 AM 26.37 79.466 0.297 7.46 8.88 6.48
8/7/2022 8:15:00 AM 26.37 79.466 0.297 7.47 8.8 6.62
8/7/2022 8:30:00 AM 26.38 79.484 0.296 7.51 9.79 6.92
8/7/2022 8:45:00 AM 26.43 79.574 0.296 7.5 8.65 7.01
8/7/2022 9:00:00 AM 26.47 79.646 0.296 7.52 9.96 7.11
8/7/2022 9:15:00 AM 26.58 79.844 0.296 7.54 9.84 7.15
8/7/2022 9:30:00 AM 26.55 79.79 0.296 7.52 9.44 7.21
8/7/2022 9:45:00 AM 26.73 80.114 0.296 7.53 8.81 7.24
8/7/2022 10:00:00 AM 26.71 80.078 0.296 7.53 11.83 7.22
8/7/2022 10:15:00 AM 26.74 80.132 0.296 7.53 12.36 7.21
8/7/2022 10:30:00 AM 26.57 79.826 0.297 7.48 8.23 7.07
8/7/2022 10:45:00 AM 26.85 80.33 0.296 7.56 10.54 7.49
8/7/2022 11:00:00 AM 26.71 80.078 0.297 7.5 8.51 7.16
8/7/2022 11:15:00 AM 26.75 80.15 0.297 7.5 9.51 7.28
8/7/2022 11:30:00 AM 26.8 80.24 0.297 7.54 11.56 7.36
8/7/2022 11:45:00 AM 26.85 80.33 0.297 7.51 10.26 7.33
8/7/2022 12:00:00 PM 26.93 80.474 0.297 7.49 8.85 7.55
8/7/2022 12:15:00 PM 27.32 81.176 0.299 7.62 7.66 7.98
8/7/2022 12:30:00 PM 27.4 81.32 0.299 7.62 8.16 7.98
8/7/2022 12:45:00 PM 27.24 81.032 0.298 7.61 9.61 8.21
8/7/2022 1:00:00 PM 27.39 81.302 0.298 7.62 12.04 8.4
8/7/2022 1:15:00 PM 26.94 80.492 0.295 7.64 10.83 8.55
8/7/2022 1:30:00 PM 27.03 80.654 0.295 7.65 12.39 8.66
8/7/2022 1:45:00 PM 27.22 80.996 0.298 7.65 10.4 8.47
8/7/2022 2:00:00 PM 27.31 81.158 0.298 7.7 9.29 8.67
8/7/2022 2:15:00 PM 27.3 81.14 0.297 7.72 143.73 8.92
8/7/2022 2:30:00 PM 27.47 81.446 0.297 7.78 9.33 8.92
8/7/2022 2:45:00 PM 27.53 81.554 0.297 7.76 10.28 9.08
8/7/2022 3:00:00 PM 27.55 81.59 0.297 7.77 8.58 9.36
8/7/2022 3:15:00 PM 27.64 81.752 0.297 7.83 10.29 9.41
8/7/2022 3:30:00 PM 27.72 81.896 0.297 7.86 9 9.54
8/7/2022 3:45:00 PM 27.58 81.644 0.297 7.92 9.64 9.75
8/7/2022 4:00:00 PM 27.78 82.004 0.297 7.92 8.91 9.68
8/7/2022 4:15:00 PM 27.64 81.752 0.296 7.94 9.49 10.09
8/7/2022 4:30:00 PM 27.84 82.112 0.297 7.94 9.17 9.73
8/7/2022 4:45:00 PM 27.93 82.274 0.298 7.91 11.16 9.65
8/7/2022 5:00:00 PM 28.08 82.544 0.298 7.85 9.22 9.48
8/7/2022 5:15:00 PM 28 82.4 0.298 7.92 9.57 9.72
8/7/2022 5:30:00 PM 29.14 84.452 0.302 7.86 6.59 8.92
8/7/2022 5:45:00 PM 28.26 82.868 0.299 7.93 9.35 9.54
8/7/2022 6:00:00 PM 28.14 82.652 0.299 7.89 7.96 9.28
8/7/2022 6:15:00 PM 28.51 83.318 0.301 7.8 7 8.55
8/7/2022 6:30:00 PM 28.97 84.146 0.301 7.87 7.61 8.62
8/7/2022 6:45:00 PM 28.64 83.552 0.3 7.82 7.28 8.59
8/7/2022 7:00:00 PM 27.99 82.382 0.3 7.81 7.69 8.92
8/7/2022 7:15:00 PM 28.2 82.76 0.3 7.76 9.12 8.45
8/7/2022 7:30:00 PM 28.31 82.958 0.301 7.76 7.81 8.28
8/7/2022 7:45:00 PM 28.15 82.67 0.3 7.76 8.03 8.46
8/7/2022 8:00:00 PM 28.06 82.508 0.3 7.74 8.44 8.5
8/7/2022 8:15:00 PM 28.18 82.724 0.3 7.69 6.72 8.2
8/7/2022 8:30:00 PM 28.29 82.922 0.301 7.67 8.07 7.79
8/7/2022 8:45:00 PM 28.22 82.796 0.3 7.69 7.98 8.06
8/7/2022 9:00:00 PM 28.16 82.688 0.3 7.68 7.62 7.9
8/7/2022 9:15:00 PM 28.2 82.76 0.301 7.67 8.14 7.87
8/7/2022 9:30:00 PM 28.25 82.85 0.301 7.65 6.87 7.64
8/7/2022 9:45:00 PM 28.29 82.922 0.301 7.66 7.57 7.68
8/7/2022 10:00:00 PM 28.21 82.778 0.301 7.65 6.67 7.64
8/7/2022 10:15:00 PM 28.16 82.688 0.301 7.61 7.21 7.65
8/7/2022 10:30:00 PM 28.18 82.724 0.301 7.63 6.99 7.7
8/7/2022 10:45:00 PM 28.12 82.616 0.3 7.68 7.79 7.83
8/7/2022 11:00:00 PM 28.1 82.58 0.3 7.66 6.33 7.64
8/7/2022 11:15:00 PM 28.03 82.454 0.3 7.64 7.1 7.74
8/7/2022 11:30:00 PM 27.97 82.346 0.3 7.62 6.67 7.53
8/7/2022 11:45:00 PM 27.97 82.346 0.301 7.63 7.36 7.41
8/8/2022 12:00:00 AM 27.92 82.256 0.301 7.59 6.75 7.15
8/8/2022 12:15:00 AM 27.9 82.22 0.3 7.62 6.12 7.36
8/8/2022 12:30:00 AM 27.84 82.112 0.3 7.58 7.24 7.19
8/8/2022 12:45:00 AM 27.73 81.914 0.301 7.6 8.37 7.06
8/8/2022 1:00:00 AM 27.73 81.914 0.301 7.56 6.53 7.04
8/8/2022 1:15:00 AM 27.65 81.77 0.301 7.58 6.93 7.01
8/8/2022 1:30:00 AM 27.64 81.752 0.3 7.58 6.61 7.22
8/8/2022 1:45:00 AM 27.57 81.626 0.301 7.55 7.19 6.94
8/8/2022 2:00:00 AM 27.5 81.5 0.301 7.56 9.23 6.81
8/8/2022 2:15:00 AM 27.48 81.464 0.301 7.56 6.91 6.83
8/8/2022 2:30:00 AM 27.43 81.374 0.3 7.56 6.73 6.98
8/8/2022 2:45:00 AM 27.37 81.266 0.301 7.54 9.2 6.89
8/8/2022 3:00:00 AM 27.34 81.212 0.301 7.54 8.53 6.91
8/8/2022 3:15:00 AM 27.31 81.158 0.301 7.52 8.99 6.81
8/8/2022 3:30:00 AM 27.25 81.05 0.301 7.52 9.02 6.71
8/8/2022 3:45:00 AM 27.2 80.96 0.301 7.51 9.13 6.7
8/8/2022 4:00:00 AM 27.16 80.888 0.301 7.51 11.44 6.63
8/8/2022 4:15:00 AM 27.12 80.816 0.301 7.5 9.23 6.44
8/8/2022 4:30:00 AM 27.03 80.654 0.301 7.49 7.28 6.56
8/8/2022 4:45:00 AM 26.98 80.564 0.301 7.48 9.13 6.33
8/8/2022 5:00:00 AM 26.98 80.564 0.301 7.48 9.68 6.45
8/8/2022 5:15:00 AM 26.86 80.348 0.301 7.48 9.15 6.31
8/8/2022 5:30:00 AM 26.82 80.276 0.301 7.46 9.49 6.34
8/8/2022 5:45:00 AM 26.81 80.258 0.302 7.45 9.52 6.08
8/8/2022 6:00:00 AM 26.72 80.096 0.302 7.44 10.45 6.04
8/8/2022 6:15:00 AM 26.71 80.078 0.301 7.43 10.94 6.16
8/8/2022 6:30:00 AM 26.61 79.898 0.302 7.42 8.11 6.05
8/8/2022 6:45:00 AM 26.64 79.952 0.301 7.41 8.5 5.91
8/8/2022 7:00:00 AM 26.57 79.826 0.301 7.43 9.55 6.08
8/8/2022 7:15:00 AM 26.56 79.808 0.301 7.43 8.43 6.06
8/8/2022 7:30:00 AM 26.54 79.772 0.301 7.42 12.06 6.07
8/8/2022 7:45:00 AM 26.51 79.718 0.301 7.42 10.73 5.97
8/8/2022 8:00:00 AM 26.51 79.718 0.301 7.41 10.47 5.93
8/8/2022 8:15:00 AM 26.47 79.646 0.301 7.42 11.48 5.97
8/8/2022 8:30:00 AM 26.47 79.646 0.301 7.38 9.66 6.09
8/8/2022 8:45:00 AM 26.48 79.664 0.301 7.42 9.85 6.19
8/8/2022 9:00:00 AM 26.67 80.006 0.3 7.46 9.34 6.44
8/8/2022 9:15:00 AM 26.73 80.114 0.3 7.46 10.28 6.42
8/8/2022 9:30:00 AM 26.84 80.312 0.299 7.46 11.44 6.54
8/8/2022 9:45:00 AM 26.96 80.528 0.299 7.48 11.01 6.66
8/8/2022 10:00:00 AM 26.97 80.546 0.3 7.46 11.41 6.55
8/8/2022 10:15:00 AM 27.16 80.888 0.3 7.49 13.21 6.63
8/8/2022 10:30:00 AM 27.29 81.122 0.3 7.45 10.09 6.83
8/8/2022 10:45:00 AM 27.1 80.78 0.3 7.51 9.92 6.9
8/8/2022 11:00:00 AM 27.14 80.852 0.3 7.49 10.62 6.91
8/8/2022 11:15:00 AM 27.02 80.636 0.301 7.48 8.81 6.98
8/8/2022 11:30:00 AM 26.97 80.546 0.301 7.48 9.28 7.02
8/8/2022 11:45:00 AM 27.26 81.068 0.302 7.5 9.69 7.1
8/8/2022 12:00:00 PM 27.31 81.158 0.302 7.53 8.21 7.32
8/8/2022 12:15:00 PM 27.26 81.068 0.302 7.53 9.57 7.28
8/8/2022 12:30:00 PM 27.08 80.744 0.301 7.51 16.04 7.06
8/8/2022 12:45:00 PM 27.14 80.852 0.3 7.55 9.86 7.41
8/8/2022 1:00:00 PM 27.33 81.194 0.301 7.53 8.28 7.53
8/8/2022 1:15:00 PM 27.73 81.914 0.302 7.59 8.07 7.96
8/8/2022 1:30:00 PM 28.7 83.66 0.303 7.66 8.3 7.91
8/8/2022 1:45:00 PM 27.86 82.148 0.3 7.65 14.16 8.7
8/8/2022 2:00:00 PM 27.47 81.446 0.299 7.7 11.33 8.62
8/8/2022 2:15:00 PM 27.9 82.22 0.303 7.67 9.59 8.2
8/8/2022 2:30:00 PM 28.79 83.82201 0.304 7.71 8.16 8.35
8/8/2022 2:45:00 PM 29.07 84.326 0.304 7.76 7.51 8.44
8/8/2022 3:00:00 PM 28.05 82.49 0.299 7.8 16.34 8.99
8/8/2022 3:15:00 PM 29.5 85.1 0.304 7.82 7.54 8.54
8/8/2022 3:30:00 PM 27.99 82.382 0.3 7.82 18.24 8.92
8/8/2022 3:45:00 PM 28.71 83.67799 0.304 7.77 11.53 8.58
8/8/2022 4:00:00 PM 28.32 82.976 0.304 7.78 13.97 8.69
8/8/2022 4:15:00 PM 28.48 83.264 0.303 7.78 9.8 8.56
8/8/2022 4:30:00 PM 28.2 82.76 0.302 7.8 11.39 8.66
8/8/2022 4:45:00 PM 28.08 82.544 0.302 7.79 8.94 8.58
8/8/2022 5:00:00 PM 28.26 82.868 0.303 7.79 7.21 8.5
8/8/2022 5:15:00 PM 28.82 83.876 0.304 7.78 6.16 8.36
8/8/2022 5:30:00 PM 28.55 83.39 0.303 7.78 12.91 8.48
8/8/2022 5:45:00 PM 28.26 82.868 0.303 7.83 21.52 8.54
8/8/2022 6:00:00 PM 29.11 84.39799 0.304 7.83 7.3 8.64
8/8/2022 6:15:00 PM 29.19 84.542 0.303 7.91 383.81 8.77
8/8/2022 6:30:00 PM 29.11 84.39799 0.303 7.92 7.56 8.78
8/8/2022 6:45:00 PM 29.09 84.362 0.303 7.95 7.12 8.72
8/8/2022 7:00:00 PM 28.79 83.82201 0.303 7.86 7.84 8.63
8/8/2022 7:15:00 PM 28.61 83.498 0.303 7.8 7.63 8.42
8/8/2022 7:30:00 PM 28.69 83.642 0.303 7.84 7.27 8.35
8/8/2022 7:45:00 PM 28.65 83.57 0.303 7.84 13.59 8.4
8/8/2022 8:00:00 PM 28.5 83.3 0.303 7.81 10.68 8.28
8/8/2022 8:15:00 PM 28.47 83.24599 0.303 7.75 21.52 7.96
8/8/2022 8:30:00 PM 28.58 83.444 0.304 7.73 33.46 7.77
8/8/2022 8:45:00 PM 28.64 83.552 0.304 7.72 8.81 7.9
8/8/2022 9:00:00 PM 28.57 83.426 0.303 7.78 10.57 7.89
8/8/2022 9:15:00 PM 28.5 83.3 0.303 7.77 8.87 7.81
8/8/2022 9:30:00 PM 28.53 83.354 0.303 7.76 8.89 8.09
8/8/2022 9:45:00 PM 28.44 83.192 0.303 7.73 8.86 7.87
8/8/2022 10:00:00 PM 28.44 83.192 0.303 7.73 10.26 7.73
8/8/2022 10:15:00 PM 28.38 83.084 0.303 7.7 9.16 7.55
8/8/2022 10:30:00 PM 28.37 83.066 0.303 7.72 8.67 7.63
8/8/2022 10:45:00 PM 28.34 83.012 0.303 7.69 9.19 7.43
8/8/2022 11:00:00 PM 28.29 82.922 0.303 7.71 8.56 7.7
8/8/2022 11:15:00 PM 28.25 82.85 0.303 7.69 8.71 7.6
8/8/2022 11:30:00 PM 28.26 82.868 0.303 7.71 9.81 7.71
8/8/2022 11:45:00 PM 28.23 82.814 0.303 7.69 8.9 7.59
8/9/2022 12:00:00 AM 28.18 82.724 0.303 7.69 9.07 7.55
8/9/2022 12:15:00 AM 28.14 82.652 0.303 7.69 8.23 7.59
8/9/2022 12:30:00 AM 28.1 82.58 0.303 7.66 8.62 7.37
8/9/2022 12:45:00 AM 28.07 82.526 0.303 7.67 8.21 7.51
8/9/2022 1:00:00 AM 28.04 82.472 0.303 7.65 8.59 7.41
8/9/2022 1:15:00 AM 28 82.4 0.303 7.67 9.07 7.47
8/9/2022 1:30:00 AM 27.97 82.346 0.303 7.65 8.82 7.38
8/9/2022 1:45:00 AM 27.93 82.274 0.303 7.61 9.04 7.32
8/9/2022 2:00:00 AM 27.88 82.184 0.303 7.62 8.93 7.08
8/9/2022 2:15:00 AM 27.84 82.112 0.303 7.6 8.7 7.07
8/9/2022 2:30:00 AM 27.8 82.04 0.304 7.58 8.42 6.86
8/9/2022 2:45:00 AM 27.8 82.04 0.303 7.59 7.98 7
8/9/2022 3:00:00 AM 27.76 81.968 0.304 7.6 8.55 6.9
8/9/2022 3:15:00 AM 27.73 81.914 0.304 7.57 9.1 6.87
8/9/2022 3:30:00 AM 27.71 81.878 0.303 7.55 8.34 6.87
8/9/2022 3:45:00 AM 27.66 81.788 0.303 7.55 8.48 6.76
8/9/2022 4:00:00 AM 27.64 81.752 0.303 7.53 9.63 6.58
8/9/2022 4:15:00 AM 27.61 81.698 0.303 7.52 9.37 6.65
8/9/2022 4:30:00 AM 27.56 81.608 0.304 7.5 8.58 6.39
8/9/2022 4:45:00 AM 27.51 81.518 0.304 7.54 8.42 6.51
8/9/2022 5:00:00 AM 27.44 81.392 0.304 7.52 8.19 6.37
8/9/2022 5:15:00 AM 27.42 81.356 0.304 7.52 7.86 6.46
8/9/2022 5:30:00 AM 27.41 81.338 0.304 7.53 8.41 6.4
8/9/2022 5:45:00 AM 27.41 81.338 0.303 7.53 8.55 6.51
8/9/2022 6:00:00 AM 27.39 81.302 0.303 7.51 10.47 6.46
8/9/2022 6:15:00 AM 27.33 81.194 0.304 7.48 11.79 6.23
8/9/2022 6:30:00 AM 27.33 81.194 0.304 7.48 12.13 6.23
8/9/2022 6:45:00 AM 27.26 81.068 0.304 7.47 9.36 6.18
8/9/2022 7:00:00 AM 27.27 81.086 0.303 7.47 12.01 6.18
8/9/2022 7:15:00 AM 27.2 80.96 0.304 7.46 9.3 5.97
8/9/2022 7:30:00 AM 27.22 80.996 0.303 7.47 10.28 6.06
8/9/2022 7:45:00 AM 27.16 80.888 0.304 7.46 8.98 6.03
8/9/2022 8:00:00 AM 27.13 80.834 0.304 7.46 9.15 6.06
8/9/2022 8:15:00 AM 27.15 80.87 0.303 7.49 9.08 6.29
8/9/2022 8:30:00 AM 27.13 80.834 0.303 7.5 8.85 6.36
8/9/2022 8:45:00 AM 27.11 80.798 0.303 7.5 9.57 6.3
8/9/2022 9:00:00 AM 27.1 80.78 0.303 7.49 8.99 6.16
8/9/2022 9:15:00 AM 27.13 80.834 0.303 7.47 9.46 6.15
8/9/2022 9:30:00 AM 27.09 80.762 0.303 7.48 9.74 6.22
8/9/2022 9:45:00 AM 27.02 80.636 0.304 7.49 9.74 6.26
8/9/2022 10:00:00 AM 26.98 80.564 0.303 7.5 9.98 6.33
8/9/2022 10:15:00 AM 27 80.6 0.303 7.48 8.65 6.19
8/9/2022 10:30:00 AM 26.97 80.546 0.304 7.47 9.05 6.12
8/9/2022 10:45:00 AM 26.97 80.546 0.303 7.49 9.02 6.26
8/9/2022 11:00:00 AM 26.94 80.492 0.304 7.5 8.34 6.36
8/9/2022 11:15:00 AM 26.96 80.528 0.303 7.5 11.23 6.43
8/9/2022 11:30:00 AM 26.97 80.546 0.303 7.49 8.79 6.42
8/9/2022 11:45:00 AM 27.07 80.726 0.303 7.5 9.33 6.43
8/9/2022 12:00:00 PM 27.26 81.068 0.303 7.5 8.99 6.41
8/9/2022 12:15:00 PM 27.28 81.104 0.303 7.53 9.29 6.72
8/9/2022 12:30:00 PM 27.29 81.122 0.303 7.6 9.92 7.19
8/9/2022 12:45:00 PM 27.29 81.122 0.303 7.62 7.79 7.39
8/9/2022 1:00:00 PM 27.24 81.032 0.303 7.66 8.43 7.53
8/9/2022 1:15:00 PM 27.22 80.996 0.303 7.64 7.79 7.59
8/9/2022 1:30:00 PM 27.27 81.086 0.303 7.63 8.41 7.63
8/9/2022 1:45:00 PM 27.34 81.212 0.303 7.64 7.35 7.67
8/9/2022 2:00:00 PM 27.49 81.482 0.303 7.67 7.19 7.83
8/9/2022 2:15:00 PM 27.55 81.59 0.303 7.71 7.78 8.09
8/9/2022 2:30:00 PM 27.56 81.608 0.302 7.74 8.01 8.15
8/9/2022 2:45:00 PM 27.56 81.608 0.302 7.72 20.46 8.12
8/9/2022 3:00:00 PM 27.58 81.644 0.302 7.78 8.74 8.36
8/9/2022 3:15:00 PM 27.68 81.824 0.302 7.84 8.4 8.5
8/9/2022 3:30:00 PM 27.64 81.752 0.302 7.85 8.46 8.72
8/9/2022 3:45:00 PM 27.86 82.148 0.302 7.88 7.81 8.97
8/9/2022 4:00:00 PM 27.82 82.076 0.302 7.91 9.01 9.04
8/9/2022 4:15:00 PM 27.94 82.292 0.302 7.89 8.44 9.11
8/9/2022 4:30:00 PM 28.15 82.67 0.302 7.93 8.91 8.99
8/9/2022 4:45:00 PM 28.11 82.598 0.302 7.99 8.24 9.26
8/9/2022 5:00:00 PM 27.96 82.328 0.302 7.98 9.74 9.18
8/9/2022 5:15:00 PM 28.01 82.418 0.302 7.99 7.76 9.27
8/9/2022 5:30:00 PM 28.29 82.922 0.302 8.01 8.27 9.23
8/9/2022 5:45:00 PM 28.23 82.814 0.303 7.98 7.63 9.02
8/9/2022 6:00:00 PM 28.24 82.832 0.303 7.99 7.86 8.88
8/9/2022 6:15:00 PM 28.25 82.85 0.304 7.95 7.74 8.74
8/9/2022 6:30:00 PM 27.97 82.346 0.306 7.91 7.03 8.41
8/9/2022 6:45:00 PM 27.79 82.022 0.307 7.85 8.22 8.18
8/9/2022 7:00:00 PM 28.06 82.508 0.305 7.85 7.79 8.26
8/9/2022 7:15:00 PM 28.04 82.472 0.305 7.83 9.36 8.01
8/9/2022 7:30:00 PM 28.01 82.418 0.305 7.81 10.72 8.09
8/9/2022 7:45:00 PM 27.97 82.346 0.306 7.78 10.92 7.97
8/9/2022 8:00:00 PM 27.95 82.31 0.305 7.8 8.32 7.92
8/9/2022 8:15:00 PM 27.86 82.148 0.305 7.78 8.8 7.84
8/9/2022 8:30:00 PM 27.84 82.112 0.304 7.77 7.96 7.87
8/9/2022 8:45:00 PM 27.7 81.86 0.306 7.74 8.44 7.51
8/9/2022 9:00:00 PM 27.67 81.806 0.304 7.75 8.54 7.73
8/9/2022 9:15:00 PM 27.58 81.644 0.305 7.73 9.64 7.54
8/9/2022 9:30:00 PM 27.54 81.57201 0.304 7.72 9.04 7.54
8/9/2022 9:45:00 PM 27.49 81.482 0.304 7.69 10.45 7.56
8/9/2022 10:00:00 PM 27.39 81.302 0.305 7.69 9.15 7.13
8/9/2022 10:15:00 PM 27.32 81.176 0.305 7.69 8.41 7.34
8/9/2022 10:30:00 PM 27.29 81.122 0.304 7.69 8.99 7.35
8/9/2022 10:45:00 PM 27.2 80.96 0.305 7.68 8.76 7.24
8/9/2022 11:00:00 PM 27.16 80.888 0.305 7.66 8.71 7.16
8/9/2022 11:15:00 PM 27.12 80.816 0.304 7.68 9.27 7.34
8/9/2022 11:30:00 PM 27.06 80.708 0.305 7.62 8.63 7.18
8/9/2022 11:45:00 PM 27.01 80.618 0.305 7.62 8.37 7.15
8/10/2022 12:00:00 AM 26.98 80.564 0.305 7.56 8.83 7.05
8/10/2022 12:15:00 AM 26.88 80.384 0.305 7.62 10.11 7.01
8/10/2022 12:30:00 AM 26.88 80.384 0.305 7.6 8.71 6.89
8/10/2022 12:45:00 AM 26.72 80.096 0.306 7.53 9.53 6.67
8/10/2022 1:00:00 AM 26.66 79.988 0.306 7.56 8.34 6.74
8/10/2022 1:15:00 AM 26.65 79.97 0.306 7.57 8.99 6.75
8/10/2022 1:30:00 AM 26.63 79.934 0.305 7.57 7.94 6.79
8/10/2022 1:45:00 AM 26.53 79.754 0.305 7.55 8.15 6.76
8/10/2022 2:00:00 AM 26.54 79.772 0.305 7.57 8.07 6.65
8/10/2022 2:15:00 AM 26.47 79.646 0.305 7.54 8.84 6.46
8/10/2022 2:30:00 AM 26.43 79.574 0.305 7.54 8.81 6.52
8/10/2022 2:45:00 AM 26.41 79.538 0.305 7.51 10.21 6.39
8/10/2022 3:00:00 AM 26.32 79.376 0.305 7.52 9.88 6.41
8/10/2022 3:15:00 AM 26.27 79.286 0.305 7.52 9.13 6.28
8/10/2022 3:30:00 AM 26.18 79.124 0.305 7.5 8.93 6.21
8/10/2022 3:45:00 AM 26.18 79.124 0.305 7.49 8.89 6.1
8/10/2022 4:00:00 AM 26.14 79.052 0.305 7.47 9.17 6.14
8/10/2022 4:15:00 AM 26.08 78.944 0.304 7.5 14.04 6.24
8/10/2022 4:30:00 AM 26.05 78.89 0.305 7.46 11.48 5.93
8/10/2022 4:45:00 AM 25.97 78.746 0.305 7.42 10.39 6.03
8/10/2022 5:00:00 AM 25.91 78.638 0.305 7.46 10.04 5.9
8/10/2022 5:15:00 AM 25.87 78.566 0.305 7.43 9.36 5.82
8/10/2022 5:30:00 AM 25.79 78.422 0.305 7.46 10.1 5.87
8/10/2022 5:45:00 AM 25.79 78.422 0.304 7.44 10.48 5.82
8/10/2022 6:00:00 AM 25.71 78.278 0.304 7.44 10.78 5.72
8/10/2022 6:15:00 AM 25.65 78.17 0.306 7.41 10.33 5.53
8/10/2022 6:30:00 AM 25.57 78.026 0.304 7.42 11.46 5.6
8/10/2022 6:45:00 AM 25.51 77.918 0.304 7.41 10.53 5.64
8/10/2022 7:00:00 AM 25.51 77.918 0.304 7.42 11.99 5.58
8/10/2022 7:15:00 AM 25.3 77.54 0.305 7.41 9.12 5.54
8/10/2022 7:30:00 AM 25.29 77.522 0.305 7.4 8.8 5.45
8/10/2022 7:45:00 AM 25.35 77.63 0.304 7.41 13.72 5.58
8/10/2022 8:00:00 AM 25.28 77.504 0.304 7.39 127.05 5.45
8/10/2022 8:15:00 AM 25.36 77.648 0.304 7.4 13.26 5.41
8/10/2022 8:30:00 AM 25.4 77.72 0.303 7.44 8.96 5.89
8/10/2022 8:45:00 AM 25.44 77.792 0.303 7.45 9.94 5.98
8/10/2022 9:00:00 AM 25.45 77.81 0.303 7.41 10.73 5.84
8/10/2022 9:15:00 AM 25.47 77.846 0.303 7.46 10.29 6.04
8/10/2022 9:30:00 AM 25.45 77.81 0.303 7.42 9.85 5.84
8/10/2022 9:45:00 AM 25.45 77.81 0.303 7.45 10.55 6.01
8/10/2022 10:00:00 AM 25.45 77.81 0.303 7.46 9.04 6.2
8/10/2022 10:15:00 AM 25.5 77.9 0.303 7.47 10.2 6.25
8/10/2022 10:30:00 AM 25.49 77.882 0.303 7.49 11 6.36
8/10/2022 10:45:00 AM 25.53 77.954 0.303 7.48 10.78 6.37
8/10/2022 11:00:00 AM 25.59 78.062 0.303 7.5 9.16 6.39
8/10/2022 11:15:00 AM 25.6 78.08 0.303 7.5 22 6.5
8/10/2022 11:30:00 AM 25.6 78.08 0.303 7.53 9.33 6.79
8/10/2022 11:45:00 AM 25.63 78.134 0.303 7.54 12.38 6.82
8/10/2022 12:00:00 PM 25.71 78.278 0.303 7.54 12.54 6.82
8/10/2022 12:15:00 PM 25.74 78.332 0.303 7.58 14.42 7.32
8/10/2022 12:30:00 PM 25.8 78.44 0.303 7.58 11.14 7.18
8/10/2022 12:45:00 PM 25.92 78.656 0.304 7.59 9.56 7.12
8/10/2022 1:00:00 PM 25.93 78.674 0.304 7.62 9.62 7.48
8/10/2022 1:15:00 PM 26.1 78.98 0.304 7.69 9.52 7.76
8/10/2022 1:30:00 PM 26.15 79.07 0.304 7.66 11.04 7.83
8/10/2022 1:45:00 PM 26.08 78.944 0.304 7.68 9.11 7.91
8/10/2022 2:00:00 PM 26.09 78.962 0.304 7.72 10.25 8.03
8/10/2022 2:15:00 PM 26.09 78.962 0.304 7.67 8.41 8.12
8/10/2022 2:30:00 PM 26.28 79.304 0.304 7.74 8.18 8.26
8/10/2022 2:45:00 PM 26.48 79.664 0.304 7.79 8.25 8.35
8/10/2022 3:00:00 PM 26.52 79.736 0.304 7.83 9.39 8.53
8/10/2022 3:15:00 PM 26.41 79.538 0.304 7.86 10.54 8.83
8/10/2022 3:30:00 PM 26.2 79.16 0.304 7.84 9.3 8.64
8/10/2022 3:45:00 PM 26.29 79.32201 0.304 7.82 8.25 8.59
8/10/2022 4:00:00 PM 26.52 79.736 0.304 7.88 12.28 8.92
8/10/2022 4:15:00 PM 26.56 79.808 0.304 7.84 9.16 9.02
8/10/2022 4:30:00 PM 26.49 79.682 0.304 7.91 10.73 9.05
8/10/2022 4:45:00 PM 26.49 79.682 0.304 7.9 10.64 8.71
8/10/2022 5:00:00 PM 26.55 79.79 0.306 7.9 9.62 8.79
8/10/2022 5:15:00 PM 26.51 79.718 0.304 7.84 12.4 9
8/10/2022 5:30:00 PM 26.72 80.096 0.303 7.82 9.82 9.02
8/10/2022 5:45:00 PM 26.67 80.006 0.303 7.83 9.95 8.98
8/10/2022 6:00:00 PM 26.76 80.168 0.303 7.81 8.93 8.95
8/10/2022 6:15:00 PM 26.73 80.114 0.303 7.82 7.91 8.89
8/10/2022 6:30:00 PM 26.79 80.222 0.303 7.83 8.02 8.86
8/10/2022 6:45:00 PM 26.76 80.168 0.303 7.82 6.76 8.64
8/10/2022 7:00:00 PM 26.71 80.078 0.302 7.82 6.91 8.66
8/10/2022 7:15:00 PM 26.64 79.952 0.302 7.82 6.86 8.56
8/10/2022 7:30:00 PM 26.53 79.754 0.304 7.75 8.33 7.9
8/10/2022 7:45:00 PM 26.48 79.664 0.304 7.75 7.14 8.09
8/10/2022 8:00:00 PM 26.47 79.646 0.303 7.78 7.24 8.23
8/10/2022 8:15:00 PM 26.38 79.484 0.304 7.75 8.31 7.95
8/10/2022 8:30:00 PM 26.37 79.466 0.303 7.73 8.56 8.01
8/10/2022 8:45:00 PM 26.26 79.268 0.303 7.75 7.94 8
8/10/2022 9:00:00 PM 26.23 79.214 0.304 7.71 8.03 7.81
8/10/2022 9:15:00 PM 26.21 79.17799 0.303 7.69 8.19 7.81
8/10/2022 9:30:00 PM 26.1 78.98 0.304 7.69 8.53 7.71
8/10/2022 9:45:00 PM 26.08 78.944 0.303 7.69 7.77 7.7
8/10/2022 10:00:00 PM 26.04 78.872 0.304 7.66 7.48 7.59
8/10/2022 10:15:00 PM 25.98 78.764 0.303 7.63 9.38 7.6
8/10/2022 10:30:00 PM 25.88 78.584 0.304 7.66 8.53 7.5
8/10/2022 10:45:00 PM 25.82 78.476 0.304 7.62 8.6 7.33
8/10/2022 11:00:00 PM 25.71 78.278 0.304 7.64 8.14 7.36
8/10/2022 11:15:00 PM 25.67 78.206 0.304 7.62 8.35 7.19
8/10/2022 11:30:00 PM 25.67 78.206 0.303 7.62 8.9 7.43
8/10/2022 11:45:00 PM 25.55 77.99 0.304 7.59 9.42 7.07
8/11/2022 12:00:00 AM 25.5 77.9 0.304 7.58 7.92 6.98
8/11/2022 12:15:00 AM 25.47 77.846 0.304 7.59 9.49 7.12
8/11/2022 12:30:00 AM 25.41 77.738 0.304 7.6 8.48 7.11
8/11/2022 12:45:00 AM 25.41 77.738 0.303 7.55 10.07 7.02
8/11/2022 1:00:00 AM 25.28 77.504 0.304 7.56 10.75 6.82
8/11/2022 1:15:00 AM 25.27 77.486 0.304 7.55 10.51 6.87
8/11/2022 1:30:00 AM 25.21 77.378 0.304 7.52 9.75 6.8
8/11/2022 1:45:00 AM 25.11 77.198 0.304 7.53 8.92 6.75
8/11/2022 2:00:00 AM 25.09 77.162 0.303 7.52 11.19 6.84
8/11/2022 2:15:00 AM 24.95 76.91 0.305 7.49 9.61 6.47
8/11/2022 2:30:00 AM 24.95 76.91 0.303 7.5 9.66 6.75
8/11/2022 2:45:00 AM 24.87 76.766 0.304 7.5 10.57 6.66
8/11/2022 3:00:00 AM 24.82 76.676 0.303 7.49 9.84 6.61
8/11/2022 3:15:00 AM 24.79 76.622 0.302 7.49 10.7 6.58
8/11/2022 3:30:00 AM 24.69 76.442 0.303 7.49 11.17 6.5
8/11/2022 3:45:00 AM 24.52 76.136 0.304 7.47 16.89 6.33
8/11/2022 4:00:00 AM 24.55 76.19 0.302 7.48 12.48 6.55
8/11/2022 4:15:00 AM 24.51 76.118 0.303 7.45 12.27 6.28
8/11/2022 4:30:00 AM 24.46 76.028 0.302 7.47 10.23 6.46
8/11/2022 4:45:00 AM 24.4 75.92 0.302 7.45 10.81 6.33
8/11/2022 5:00:00 AM 24.31 75.758 0.303 7.43 11.2 6.22
8/11/2022 5:15:00 AM 24.29 75.722 0.303 7.44 11.22 6.21
8/11/2022 5:30:00 AM 24.18 75.524 0.303 7.44 10.33 6.25
8/11/2022 5:45:00 AM 24.16 75.488 0.302 7.43 9.85 6.21
8/11/2022 6:00:00 AM 24.08 75.344 0.303 7.41 24.76 5.91
8/11/2022 6:15:00 AM 23.98 75.164 0.303 7.42 11.57 5.9
8/11/2022 6:30:00 AM 23.92 75.056 0.304 7.39 34.15 5.86
8/11/2022 6:45:00 AM 23.9 75.02 0.303 7.39 13.03 5.85
8/11/2022 7:00:00 AM 23.88 74.984 0.303 7.38 13.87 5.81
8/11/2022 7:15:00 AM 23.87 74.966 0.302 7.39 13.13 5.84
8/11/2022 7:30:00 AM 23.87 74.966 0.302 7.39 19.76 5.91
8/11/2022 7:45:00 AM 23.81 74.858 0.302 7.39 35.31 5.89
8/11/2022 8:00:00 AM 23.79 74.82201 0.302 7.38 25.72 5.88
8/11/2022 8:15:00 AM 23.76 74.768 0.303 7.38 39.44 5.76
8/11/2022 8:30:00 AM 23.8 74.84 0.302 7.38 36.78 5.94
8/11/2022 8:45:00 AM 23.82 74.876 0.301 7.4 37.97 6.1
8/11/2022 9:00:00 AM 23.89 75.002 0.301 7.41 21.35 6.19
8/11/2022 9:15:00 AM 23.78 74.804 0.302 7.41 20.19 6.19
8/11/2022 9:30:00 AM 23.95 75.11 0.302 7.41 42.42 6.22
8/11/2022 9:45:00 AM 24.21 75.578 0.302 7.42 36.59 6.26
8/11/2022 10:00:00 AM 24.27 75.686 0.302 7.41 15.2 6.12
8/11/2022 10:15:00 AM 24.43 75.974 0.302 7.42 12.59 6.26
8/11/2022 10:30:00 AM 24.4 75.92 0.302 7.44 12.42 6.46
8/11/2022 10:45:00 AM 24.32 75.776 0.302 7.48 11.98 6.79
8/11/2022 11:00:00 AM 24.28 75.704 0.303 7.48 10.41 6.95
8/11/2022 11:15:00 AM 24.11 75.398 0.306 7.53 10.37 7.42
8/11/2022 11:30:00 AM 24.51 76.118 0.305 7.51 14.93 7.24
8/11/2022 11:45:00 AM 24.47 76.046 0.308 7.55 11.76 7.66
8/11/2022 12:00:00 PM 24.48 76.064 0.308 7.57 8.09 7.74
8/11/2022 12:15:00 PM 24.7 76.46 0.308 7.58 10.4 8.05
8/11/2022 12:30:00 PM 24.59 76.262 0.307 7.6 10.35 8.07
8/11/2022 12:45:00 PM 24.54 76.172 0.306 7.61 13.39 7.99
8/11/2022 1:00:00 PM 24.71 76.478 0.306 7.58 11.09 7.73
8/11/2022 1:15:00 PM 24.87 76.766 0.305 7.59 10.9 7.86
8/11/2022 1:30:00 PM 25.06 77.108 0.305 7.62 10.22 8.01
8/11/2022 1:45:00 PM 25.15 77.27 0.305 7.64 10.48 8.2
8/11/2022 2:00:00 PM 25.25 77.45 0.305 7.66 10.5 8.34
8/11/2022 2:15:00 PM 25.35 77.63 0.305 7.7 11.28 8.56
8/11/2022 2:30:00 PM 25.57 78.026 0.305 7.78 11.28 8.98
8/11/2022 2:45:00 PM 25.02 77.036 0.304 7.79 12.03 8.79
8/11/2022 3:00:00 PM 25.19 77.342 0.305 7.77 9.98 8.81
8/11/2022 3:15:00 PM 25.83 78.494 0.305 7.79 9.64 8.96
8/11/2022 3:30:00 PM 26.09 78.962 0.305 7.82 11.11 9.13
8/11/2022 3:45:00 PM 25.45 77.81 0.304 7.82 18.95 8.87
8/11/2022 4:00:00 PM 25.42 77.756 0.304 7.85 10.91 8.92
8/11/2022 4:15:00 PM 25.99 78.782 0.305 7.86 14.64 9.13
8/11/2022 4:30:00 PM 25.8 78.44 0.303 7.94 11.91 9.42
8/11/2022 4:45:00 PM 25.84 78.512 0.304 7.91 15.69 9.24
8/11/2022 5:00:00 PM 26.03 78.854 0.305 7.9 12.64 9.26
8/11/2022 5:15:00 PM 26.18 79.124 0.304 7.87 10.13 8.98
8/11/2022 5:30:00 PM 26.73 80.114 0.305 7.84 11.15 8.81
8/11/2022 5:45:00 PM 25.92 78.656 0.309 7.88 10.74 8.76
8/11/2022 6:00:00 PM 25.55 77.99 0.309 7.84 10.86 8.45
8/11/2022 6:15:00 PM 25.71 78.278 0.308 7.83 10.58 8.42
8/11/2022 6:30:00 PM 26.02 78.836 0.307 7.84 11.14 8.6
8/11/2022 6:45:00 PM 25.89 78.602 0.309 7.8 8.45 8.3
8/11/2022 7:00:00 PM 25.76 78.368 0.311 7.8 9.43 8.27
8/11/2022 7:15:00 PM 25.78 78.404 0.311 7.8 8.78 8.22
8/11/2022 7:30:00 PM 26.02 78.836 0.308 7.79 8.12 8.28
8/11/2022 7:45:00 PM 26.11 78.998 0.309 7.78 14.64 8.1
8/11/2022 8:00:00 PM 26.07 78.926 0.309 7.76 13.99 7.98
8/11/2022 8:15:00 PM 25.93 78.674 0.309 7.74 14.01 7.88
8/11/2022 8:30:00 PM 25.93 78.674 0.309 7.72 12.86 7.63
8/11/2022 8:45:00 PM 26.04 78.872 0.309 7.74 10.42 7.86
8/11/2022 9:00:00 PM 25.93 78.674 0.309 7.71 10.36 7.68
8/11/2022 9:15:00 PM 25.8 78.44 0.309 7.69 10.98 7.49
8/11/2022 9:30:00 PM 25.85 78.53 0.308 7.67 9.49 7.45
8/11/2022 9:45:00 PM 25.75 78.35 0.309 7.64 9.87 7.16
8/11/2022 10:00:00 PM 25.68 78.224 0.31 7.63 9.54 7.06
8/11/2022 10:15:00 PM 25.63 78.134 0.308 7.65 9.36 7.29
8/11/2022 10:30:00 PM 25.54 77.972 0.309 7.64 9.09 7.26
8/11/2022 10:45:00 PM 25.47 77.846 0.307 7.63 8.94 7.23
8/11/2022 11:00:00 PM 25.38 77.684 0.309 7.62 9.61 6.98
8/11/2022 11:15:00 PM 25.28 77.504 0.308 7.6 10.11 6.97
8/11/2022 11:30:00 PM 25.18 77.324 0.309 7.6 9.32 6.91
8/11/2022 11:45:00 PM 25.12 77.216 0.308 7.6 9.71 6.98
8/12/2022 12:00:00 AM 25.07 77.126 0.308 7.6 10.08 6.98
8/12/2022 12:15:00 AM 24.95 76.91 0.309 7.57 10.72 6.68
8/12/2022 12:30:00 AM 24.86 76.748 0.309 7.58 9.76 6.68
8/12/2022 12:45:00 AM 24.82 76.676 0.308 7.56 11.32 6.74
8/12/2022 1:00:00 AM 24.74 76.532 0.308 7.57 10.45 6.78
8/12/2022 1:15:00 AM 24.67 76.406 0.308 7.53 10.56 6.66
8/12/2022 1:30:00 AM 24.53 76.154 0.308 7.55 12.89 6.65
8/12/2022 1:45:00 AM 24.5 76.1 0.308 7.56 12.31 6.71
8/12/2022 2:00:00 AM 24.4 75.92 0.309 7.55 12.52 6.6
8/12/2022 2:15:00 AM 24.34 75.812 0.308 7.54 11.35 6.65
8/12/2022 2:30:00 AM 24.25 75.65 0.309 7.51 12.51 6.47
8/12/2022 2:45:00 AM 24.2 75.56 0.308 7.53 11.86 6.6
8/12/2022 3:00:00 AM 24.15 75.47 0.307 7.54 10.31 6.67
8/12/2022 3:15:00 AM 24.06 75.308 0.307 7.53 9.43 6.63
8/12/2022 3:30:00 AM 23.98 75.164 0.307 7.51 11.72 6.49
8/12/2022 3:45:00 AM 23.94 75.092 0.307 7.5 10.64 6.43
8/12/2022 4:00:00 AM 23.9 75.02 0.307 7.48 12 6.38
8/12/2022 4:15:00 AM 23.75 74.75 0.307 7.49 11.22 6.29
8/12/2022 4:30:00 AM 23.71 74.67799 0.308 7.48 10.65 6.27
8/12/2022 4:45:00 AM 23.68 74.624 0.307 7.5 11.06 6.45
8/12/2022 5:00:00 AM 23.56 74.408 0.307 7.49 10.32 6.41
8/12/2022 5:15:00 AM 23.52 74.336 0.307 7.48 11.32 6.3
8/12/2022 5:30:00 AM 23.43 74.174 0.307 7.47 10.53 6.33
8/12/2022 5:45:00 AM 23.33 73.994 0.308 7.44 12.24 6.11
8/12/2022 6:00:00 AM 23.2 73.76 0.308 7.44 11.03 6.01
8/12/2022 6:15:00 AM 23.21 73.778 0.307 7.46 10.8 6.19
8/12/2022 6:30:00 AM 23.14 73.652 0.307 7.44 12.02 6.13
8/12/2022 6:45:00 AM 23.06 73.508 0.307 7.44 11.41 6.05
8/12/2022 7:00:00 AM 23.03 73.454 0.306 7.42 14.85 5.94
8/12/2022 7:15:00 AM 22.92 73.256 0.307 7.42 16.25 5.96
8/12/2022 7:30:00 AM 22.87 73.166 0.306 7.43 11.96 6.06
8/12/2022 7:45:00 AM 22.79 73.022 0.307 7.42 10.93 6.02
8/12/2022 8:00:00 AM 22.78 73.004 0.306 7.44 12.76 6.11
8/12/2022 8:15:00 AM 22.8 73.04 0.305 7.42 15.74 6.08
8/12/2022 8:30:00 AM 22.82 73.076 0.305 7.43 15.4 6.16
8/12/2022 8:45:00 AM 22.86 73.148 0.305 7.45 13.44 6.26
8/12/2022 9:00:00 AM 22.94 73.292 0.305 7.44 12.78 6.17
8/12/2022 9:15:00 AM 22.81 73.058 0.306 7.44 13.26 6.24
8/12/2022 9:30:00 AM 22.95 73.31 0.305 7.43 13.87 6.17
8/12/2022 9:45:00 AM 23.04 73.472 0.305 7.43 14.76 6.17
8/12/2022 10:00:00 AM 23.06 73.508 0.305 7.41 15.2 5.96
8/12/2022 10:15:00 AM 23.13 73.634 0.305 7.42 13.93 6.1
8/12/2022 10:30:00 AM 23.11 73.598 0.305 7.41 15.55 5.99
8/12/2022 10:45:00 AM 23.19 73.742 0.305 7.42 14.69 6.09
8/12/2022 11:00:00 AM 23.26 73.868 0.305 7.43 15.69 6.18
8/12/2022 11:15:00 AM 23.46 74.228 0.305 7.47 13.19 6.53
8/12/2022 11:30:00 AM 23.48 74.264 0.305 7.48 13.51 6.68
8/12/2022 11:45:00 AM 23.62 74.516 0.305 7.5 14.71 6.99
8/12/2022 12:00:00 PM 23.69 74.642 0.305 7.51 12.77 7.03
8/12/2022 12:15:00 PM 23.8 74.84 0.305 7.55 13.45 7.39
8/12/2022 12:30:00 PM 23.99 75.182 0.305 7.55 12.55 7.3
8/12/2022 12:45:00 PM 24.09 75.362 0.305 7.59 12.47 7.73
8/12/2022 1:00:00 PM 24.07 75.326 0.305 7.67 13.29 8.21
8/12/2022 1:15:00 PM 24.31 75.758 0.305 7.66 12.58 8.24
8/12/2022 1:30:00 PM 24.38 75.884 0.305 7.69 13.22 8.46
8/12/2022 1:45:00 PM 24.42 75.956 0.305 7.76 14.05 8.82
8/12/2022 2:00:00 PM 24.63 76.334 0.306 7.75 12.19 8.53
8/12/2022 2:15:00 PM 24.72 76.496 0.305 7.86 12.94 9.22
8/12/2022 2:30:00 PM 24.87 76.766 0.305 7.81 13.99 9.07
8/12/2022 2:45:00 PM 24.85 76.73 0.305 7.89 13.75 9.4
8/12/2022 3:00:00 PM 24.96 76.92799 0.305 7.89 13.36 9.37
8/12/2022 3:15:00 PM 25.3 77.54 0.306 7.81 12.82 8.75
8/12/2022 3:30:00 PM 25.41 77.738 0.306 7.87 14.79 9.16
8/12/2022 3:45:00 PM 25.44 77.792 0.306 7.81 17.59 8.45
8/12/2022 4:00:00 PM 25.43 77.774 0.306 7.89 14.14 8.85
8/12/2022 4:15:00 PM 25.65 78.17 0.306 7.97 15.12 9.1
8/12/2022 4:30:00 PM 25.6 78.08 0.306 7.97 21.23 9.4
8/12/2022 4:45:00 PM 25.08 77.144 0.305 8.04 16.02 9.57
8/12/2022 5:00:00 PM 25.69 78.242 0.306 7.96 23.94 9.24
8/12/2022 5:15:00 PM 26.08 78.944 0.308 7.92 13.31 8.97
8/12/2022 5:30:00 PM 25.67 78.206 0.306 7.99 18.76 9.14
8/12/2022 5:45:00 PM 25.32 77.576 0.307 7.95 17.04 8.94
8/12/2022 6:00:00 PM 25.94 78.692 0.309 7.87 12.24 8.43
8/12/2022 6:15:00 PM 25.77 78.386 0.309 7.87 13.92 8.2
8/12/2022 6:30:00 PM 25.24 77.432 0.309 7.83 16.33 8.14
8/12/2022 6:45:00 PM 25.15 77.27 0.31 7.79 17.06 7.92
8/12/2022 7:00:00 PM 25.46 77.828 0.309 7.77 15.07 7.87
8/12/2022 7:15:00 PM 25.48 77.864 0.309 7.74 17.63 7.76
8/12/2022 7:30:00 PM 25.31 77.558 0.31 7.71 21.88 7.56
8/12/2022 7:45:00 PM 25.21 77.378 0.31 7.71 20.15 7.56
8/12/2022 8:00:00 PM 25.2 77.36 0.31 7.72 19.15 7.63
8/12/2022 8:15:00 PM 25.25 77.45 0.31 7.73 12.49 7.72
8/12/2022 8:30:00 PM 25.2 77.36 0.31 7.75 11.68 7.75
8/12/2022 8:45:00 PM 25.1 77.18 0.31 7.74 11.22 7.55
8/12/2022 9:00:00 PM 25.06 77.108 0.31 7.72 11.66 7.64
8/12/2022 9:15:00 PM 24.93 76.874 0.311 7.71 11.96 7.48
8/12/2022 9:30:00 PM 24.84 76.712 0.311 7.67 14.52 7.25
8/12/2022 9:45:00 PM 24.73 76.514 0.31 7.71 11.68 7.49
8/12/2022 10:00:00 PM 24.67 76.406 0.311 7.68 12.37 7.31
8/12/2022 10:15:00 PM 24.6 76.28 0.311 7.68 10.65 7.31
8/12/2022 10:30:00 PM 24.46 76.028 0.311 7.67 10.42 7.28
8/12/2022 10:45:00 PM 24.39 75.902 0.31 7.68 10.74 7.37
8/12/2022 11:00:00 PM 24.33 75.794 0.31 7.67 10.96 7.33
8/12/2022 11:15:00 PM 24.17 75.506 0.312 7.63 10.83 7
8/12/2022 11:30:00 PM 24.1 75.38 0.31 7.65 11.83 7.27
8/12/2022 11:45:00 PM 23.98 75.164 0.311 7.64 10.19 7.07
8/13/2022 12:00:00 AM 23.94 75.092 0.311 7.63 12.21 7.11
8/13/2022 12:15:00 AM 23.78 74.804 0.311 7.62 12.58 6.99
8/13/2022 12:30:00 AM 23.71 74.67799 0.311 7.6 11.79 6.98
8/13/2022 12:45:00 AM 23.61 74.498 0.312 7.59 11.74 6.82
8/13/2022 1:00:00 AM 23.55 74.39 0.31 7.6 11.21 6.95
8/13/2022 1:15:00 AM 23.48 74.264 0.309 7.6 11.69 7.05
8/13/2022 1:30:00 AM 23.41 74.138 0.31 7.59 11.84 6.94
8/13/2022 1:45:00 AM 23.29 73.922 0.31 7.58 11.51 6.9
8/13/2022 2:00:00 AM 23.22 73.796 0.311 7.55 11.33 6.64
8/13/2022 2:15:00 AM 23.11 73.598 0.311 7.55 11.39 6.57
8/13/2022 2:30:00 AM 23.04 73.472 0.31 7.55 12.32 6.68
8/13/2022 2:45:00 AM 23.01 73.418 0.31 7.54 11.93 6.64
8/13/2022 3:00:00 AM 22.88 73.184 0.311 7.51 12.33 6.47
8/13/2022 3:15:00 AM 22.8 73.04 0.31 7.54 11.57 6.68
8/13/2022 3:30:00 AM 22.7 72.86 0.31 7.53 12.4 6.6
8/13/2022 3:45:00 AM 22.51 72.518 0.311 7.51 13 6.46
8/13/2022 4:00:00 AM 22.51 72.518 0.31 7.53 11.76 6.59
8/13/2022 4:15:00 AM 22.37 72.266 0.311 7.5 12.97 6.31
8/13/2022 4:30:00 AM 22.32 72.176 0.31 7.51 14.7 6.45
8/13/2022 4:45:00 AM 22.31 72.158 0.309 7.5 22.3 6.45
8/13/2022 5:00:00 AM 22.26 72.068 0.309 7.48 14.96 6.37
8/13/2022 5:15:00 AM 22.11 71.798 0.31 7.48 13.99 6.3
8/13/2022 5:30:00 AM 22.05 71.69 0.31 7.47 15.13 6.18
8/13/2022 5:45:00 AM 21.95 71.51 0.31 7.47 17.51 6.29
8/13/2022 6:00:00 AM 21.86 71.348 0.31 7.47 13.89 6.27
8/13/2022 6:15:00 AM 21.67 71.006 0.311 7.45 16.51 6.14
8/13/2022 6:30:00 AM 21.71 71.078 0.31 7.43 14.81 6.13
8/13/2022 6:45:00 AM 21.69 71.042 0.309 7.42 14.14 6.17
8/13/2022 7:00:00 AM 21.62 70.916 0.309 7.4 14.44 6.1
8/13/2022 7:15:00 AM 21.57 70.826 0.309 7.39 14.71 5.91
8/13/2022 7:30:00 AM 21.43 70.574 0.31 7.39 15.01 5.91
8/13/2022 7:45:00 AM 21.43 70.574 0.309 7.39 14.12 5.97
8/13/2022 8:00:00 AM 21.42 70.556 0.309 7.39 17.99 5.92
8/13/2022 8:15:00 AM 21.26 70.268 0.309 7.4 18.38 6.09
8/13/2022 8:30:00 AM 21.43 70.574 0.308 7.42 19.05 6.2
8/13/2022 8:45:00 AM 21.5 70.7 0.308 7.43 16.06 6.19
8/13/2022 9:00:00 AM 21.52 70.736 0.308 7.42 19.99 6.11
8/13/2022 9:15:00 AM 21.51 70.718 0.309 7.43 15.96 6.1
8/13/2022 9:30:00 AM 21.58 70.844 0.308 7.43 26.23 6.09
8/13/2022 9:45:00 AM 21.69 71.042 0.308 7.43 15.27 6.18
8/13/2022 10:00:00 AM 21.78 71.204 0.308 7.44 15.7 6.3
8/13/2022 10:15:00 AM 21.84 71.312 0.308 7.43 41.62 6.1
8/13/2022 10:30:00 AM 21.88 71.384 0.308 7.44 19.44 6.26
8/13/2022 10:45:00 AM 21.93 71.474 0.308 7.43 17.53 6.17
8/13/2022 11:00:00 AM 21.89 71.402 0.308 7.43 15.11 6.19
8/13/2022 11:15:00 AM 21.87 71.366 0.308 7.46 15.29 6.39
8/13/2022 11:30:00 AM 21.99 71.582 0.308 7.45 27.98 6.33
8/13/2022 11:45:00 AM 22.08 71.744 0.308 7.48 25.08 6.71
8/13/2022 12:00:00 PM 22.64 72.752 0.308 7.54 15.72 6.95
8/13/2022 12:15:00 PM 22.7 72.86 0.308 7.57 16.75 7.27
8/13/2022 12:30:00 PM 22.59 72.662 0.308 7.6 19.56 7.68
8/13/2022 12:45:00 PM 22.53 72.554 0.308 7.62 18.95 7.78
8/13/2022 1:00:00 PM 22.59 72.662 0.308 7.64 15.08 8
8/13/2022 1:15:00 PM 22.71 72.878 0.309 7.67 15.39 8.2
8/13/2022 1:30:00 PM 22.98 73.364 0.308 7.67 13.49 8.31
8/13/2022 1:45:00 PM 23.07 73.526 0.308 7.73 15.09 8.51
8/13/2022 2:00:00 PM 23.39 74.102 0.308 7.73 14.88 8.56
8/13/2022 2:15:00 PM 23.29 73.922 0.308 7.8 18.19 8.88
8/13/2022 2:30:00 PM 23.31 73.958 0.308 7.79 18.73 8.88
8/13/2022 2:45:00 PM 23.39 74.102 0.308 7.83 16.96 8.9
8/13/2022 3:00:00 PM 23.8 74.84 0.308 7.91 18.12 9.35
8/13/2022 3:15:00 PM 23.58 74.444 0.308 7.92 20.47 9.37
8/13/2022 3:30:00 PM 23.57 74.426 0.308 7.96 19.78 9.49
8/13/2022 3:45:00 PM 24.01 75.218 0.309 7.95 17.79 9.57
8/13/2022 4:00:00 PM 24.12 75.416 0.309 7.99 19.29 9.69
8/13/2022 4:15:00 PM 23.86 74.948 0.307 7.96 25.69 9.75
8/13/2022 4:30:00 PM 24.01 75.218 0.307 8.04 18.51 9.81
8/13/2022 4:45:00 PM 24.44 75.992 0.309 7.98 19.12 9.53
8/13/2022 5:00:00 PM 23.99 75.182 0.309 8.01 25.04 9.44
8/13/2022 5:15:00 PM 24.17 75.506 0.309 8.01 20.95 9.56
8/13/2022 5:30:00 PM 24.3 75.74 0.309 8.04 16.22 9.74
8/13/2022 5:45:00 PM 24.31 75.758 0.309 8.02 18.73 9.56
8/13/2022 6:00:00 PM 24.12 75.416 0.309 7.96 18.92 9.3
8/13/2022 6:15:00 PM 24.27 75.686 0.31 7.96 17.18 9.12
8/13/2022 6:30:00 PM 24.41 75.938 0.31 7.94 15.72 9.02
8/13/2022 6:45:00 PM 24.33 75.794 0.31 7.91 15.99 8.81
8/13/2022 7:00:00 PM 24.09 75.362 0.31 7.85 20.13 8.4
8/13/2022 7:15:00 PM 24.29 75.722 0.31 7.84 18.97 8.5
8/13/2022 7:30:00 PM 24.34 75.812 0.31 7.82 18.53 8.32
8/13/2022 7:45:00 PM 24.32 75.776 0.311 7.77 17.22 7.97
8/13/2022 8:00:00 PM 24.21 75.578 0.311 7.76 16.01 7.92
8/13/2022 8:15:00 PM 24.36 75.848 0.311 7.75 17.22 8.2
8/13/2022 8:30:00 PM 24.36 75.848 0.312 7.77 15.74 8.01
8/13/2022 8:45:00 PM 24.26 75.668 0.311 7.76 14.99 8.01
8/13/2022 9:00:00 PM 24.23 75.614 0.312 7.75 13.16 7.89
8/13/2022 9:15:00 PM 24.23 75.614 0.313 7.74 12.21 7.83
8/13/2022 9:30:00 PM 24.29 75.722 0.313 7.72 11.03 7.82
8/13/2022 9:45:00 PM 24.25 75.65 0.312 7.73 10.54 7.87
8/13/2022 10:00:00 PM 24.16 75.488 0.313 7.73 10.59 7.91
8/13/2022 10:15:00 PM 24 75.2 0.313 7.67 14.19 7.42
8/13/2022 10:30:00 PM 23.97 75.146 0.313 7.7 17.02 7.62
8/13/2022 10:45:00 PM 23.81 74.858 0.314 7.67 15.48 7.37
8/13/2022 11:00:00 PM 23.78 74.804 0.314 7.64 14.55 7.33
8/13/2022 11:15:00 PM 23.68 74.624 0.314 7.66 12.57 7.37
8/13/2022 11:30:00 PM 23.59 74.462 0.314 7.65 12.71 7.46
8/13/2022 11:45:00 PM 23.43 74.174 0.315 7.63 12.63 7.1
8/14/2022 12:00:00 AM 23.43 74.174 0.314 7.64 13.74 7.32
8/14/2022 12:15:00 AM 23.29 73.922 0.315 7.62 15.25 6.96
8/14/2022 12:30:00 AM 23.24 73.832 0.314 7.63 12.28 7.31
8/14/2022 12:45:00 AM 23.16 73.688 0.315 7.6 11.12 7.04
8/14/2022 1:00:00 AM 23.04 73.472 0.314 7.61 11.68 7.06
8/14/2022 1:15:00 AM 22.88 73.184 0.315 7.58 10.97 6.91
8/14/2022 1:30:00 AM 22.89 73.202 0.314 7.59 12.27 6.95
8/14/2022 1:45:00 AM 22.77 72.986 0.314 7.58 12.32 6.94
8/14/2022 2:00:00 AM 22.71 72.878 0.314 7.57 12.47 6.83
8/14/2022 2:15:00 AM 22.59 72.662 0.315 7.54 14.3 6.64
8/14/2022 2:30:00 AM 22.52 72.536 0.314 7.56 12.14 6.76
8/14/2022 2:45:00 AM 22.43 72.374 0.314 7.57 11.8 6.7
8/14/2022 3:00:00 AM 22.36 72.248 0.315 7.55 17.63 6.72
8/14/2022 3:15:00 AM 22.27 72.086 0.314 7.55 12.37 6.8
8/14/2022 3:30:00 AM 22.18 71.924 0.315 7.53 11.6 6.69
8/14/2022 3:45:00 AM 22.13 71.834 0.314 7.52 12.05 6.65
8/14/2022 4:00:00 AM 22.1 71.78 0.314 7.53 11.71 6.71
8/14/2022 4:15:00 AM 22 71.6 0.314 7.52 11.55 6.66
8/14/2022 4:30:00 AM 21.87 71.366 0.315 7.5 13.17 6.43
8/14/2022 4:45:00 AM 21.74 71.132 0.315 7.51 12.23 6.47
8/14/2022 5:00:00 AM 21.7 71.06 0.314 7.5 13.06 6.52
8/14/2022 5:15:00 AM 21.61 70.898 0.314 7.49 15.58 6.53
8/14/2022 5:30:00 AM 21.49 70.682 0.314 7.49 12.92 6.48
8/14/2022 5:45:00 AM 21.44 70.592 0.315 7.48 13.46 6.37
8/14/2022 6:00:00 AM 21.43 70.574 0.314 7.47 15.05 6.35
8/14/2022 6:15:00 AM 21.42 70.556 0.314 7.48 13.55 6.36
8/14/2022 6:30:00 AM 21.27 70.286 0.314 7.44 13.54 6.16
8/14/2022 6:45:00 AM 21.25 70.25 0.313 7.46 12.65 6.37
8/14/2022 7:00:00 AM 21.26 70.268 0.313 7.43 15.93 6.28
8/14/2022 7:15:00 AM 21.19 70.142 0.313 7.43 18.89 6.18
8/14/2022 7:30:00 AM 21.13 70.034 0.313 7.45 14.38 6.26
8/14/2022 7:45:00 AM 21.11 69.998 0.313 7.43 14.91 6.25
8/14/2022 8:00:00 AM 21 69.8 0.313 7.44 12.5 6.38
8/14/2022 8:15:00 AM 20.97 69.746 0.313 7.43 99.86 6.31
8/14/2022 8:30:00 AM 20.99 69.782 0.312 7.45 12.87 6.42
8/14/2022 8:45:00 AM 21.09 69.962 0.312 7.46 13.56 6.52
8/14/2022 9:00:00 AM 21.18 70.124 0.311 7.48 13.87 6.55
8/14/2022 9:15:00 AM 21.12 70.016 0.312 7.45 14.36 6.32
8/14/2022 9:30:00 AM 21.19 70.142 0.312 7.46 13.99 6.53
8/14/2022 9:45:00 AM 21.28 70.304 0.311 7.46 14.89 6.56
8/14/2022 10:00:00 AM 21.34 70.412 0.312 7.45 14.09 6.36
8/14/2022 10:15:00 AM 21.43 70.574 0.311 7.44 13.31 6.27
8/14/2022 10:30:00 AM 21.58 70.844 0.311 7.5 14.22 6.67
8/14/2022 10:45:00 AM 21.67 71.006 0.311 7.47 13.27 6.59
8/14/2022 11:00:00 AM 21.55 70.79 0.312 7.5 15.32 6.79
8/14/2022 11:15:00 AM 21.6 70.88 0.312 7.5 14.28 6.83
8/14/2022 11:30:00 AM 21.66 70.988 0.312 7.52 13.13 7
8/14/2022 11:45:00 AM 21.81 71.258 0.312 7.52 12.7 7
8/14/2022 12:00:00 PM 21.86 71.348 0.312 7.57 14.77 7.56
8/14/2022 12:15:00 PM 21.96 71.528 0.312 7.59 16.77 7.83
8/14/2022 12:30:00 PM 22.13 71.834 0.312 7.61 17.9 8.08
8/14/2022 12:45:00 PM 22.26 72.068 0.312 7.64 21.68 8.16
8/14/2022 1:00:00 PM 22.8 73.04 0.312 7.6 12.14 7.57
8/14/2022 1:15:00 PM 22.61 72.698 0.311 7.72 16.79 8.5
8/14/2022 1:30:00 PM 22.44 72.392 0.312 7.75 26.98 8.64
8/14/2022 1:45:00 PM 22.44 72.392 0.312 7.75 23.34 8.51
8/14/2022 2:00:00 PM 23.4 74.12 0.313 7.72 12.45 8.18
8/14/2022 2:15:00 PM 23.25 73.85 0.311 7.81 15.67 8.93
8/14/2022 2:30:00 PM 22.85 73.13 0.312 7.81 15.56 8.86
8/14/2022 2:45:00 PM 22.7 72.86 0.312 7.81 15.35 8.75
8/14/2022 3:00:00 PM 23.06 73.508 0.312 7.81 16.24 8.93
8/14/2022 3:15:00 PM 23.39 74.102 0.311 7.83 16.53 9.45
8/14/2022 3:30:00 PM 23.46 74.228 0.313 7.92 14.89 9.35
8/14/2022 3:45:00 PM 23.45 74.21 0.313 7.95 14.18 9.44
8/14/2022 4:00:00 PM 23.4 74.12 0.313 7.99 14.93 9.56
8/14/2022 4:15:00 PM 23.44 74.192 0.313 7.97 15.37 9.54
8/14/2022 4:30:00 PM 23.73 74.714 0.313 7.98 16.26 9.47
8/14/2022 4:45:00 PM 23.92 75.056 0.312 7.96 14.29 9.39
8/14/2022 5:00:00 PM 23.63 74.534 0.312 7.99 18.5 9.57
8/14/2022 5:15:00 PM 23.56 74.408 0.313 7.99 21.2 9.53
8/14/2022 5:30:00 PM 23.82 74.876 0.313 7.96 15.4 9.19
8/14/2022 5:45:00 PM 23.88 74.984 0.313 7.98 18.31 9.28
8/14/2022 6:00:00 PM 23.65 74.57 0.313 7.93 20.59 9.03
8/14/2022 6:15:00 PM 23.66 74.588 0.313 7.95 20.07 9.1
8/14/2022 6:30:00 PM 23.81 74.858 0.314 7.92 15.59 9.02
8/14/2022 6:45:00 PM 23.75 74.75 0.314 7.91 17.76 8.92
8/14/2022 7:00:00 PM 23.74 74.732 0.314 7.9 17.19 8.81
8/14/2022 7:15:00 PM 23.8 74.84 0.315 7.9 15.28 8.87
8/14/2022 7:30:00 PM 23.88 74.984 0.315 7.87 16.55 8.71
8/14/2022 7:45:00 PM 23.91 75.038 0.315 7.82 15.89 8.54
8/14/2022 8:00:00 PM 23.88 74.984 0.315 7.79 14.7 8.36
8/14/2022 8:15:00 PM 23.76 74.768 0.316 7.81 24.53 8.16
8/14/2022 8:30:00 PM 23.86 74.948 0.316 7.76 15.12 8.23
8/14/2022 8:45:00 PM 23.92 75.056 0.316 7.77 13.9 8.17
8/14/2022 9:00:00 PM 23.82 74.876 0.316 7.74 13.99 7.88
8/14/2022 9:15:00 PM 23.9 75.02 0.316 7.72 13.68 7.71
8/14/2022 9:30:00 PM 23.83 74.894 0.316 7.67 14.17 7.48
8/14/2022 9:45:00 PM 23.97 75.146 0.317 7.67 11.99 7.53
8/14/2022 10:00:00 PM 24.13 75.434 0.317 7.66 11.42 7.52
8/14/2022 10:15:00 PM 24.08 75.344 0.317 7.69 12.03 7.93
8/14/2022 10:30:00 PM 23.9 75.02 0.316 7.68 12.03 7.61
8/14/2022 10:45:00 PM 23.93 75.074 0.317 7.63 13.16 7.34
8/14/2022 11:00:00 PM 24.02 75.236 0.317 7.65 13.82 7.52
8/14/2022 11:15:00 PM 23.93 75.074 0.317 7.65 12.86 7.6
8/14/2022 11:30:00 PM 23.93 75.074 0.318 7.66 11.39 7.47
8/14/2022 11:45:00 PM 23.81 74.858 0.317 7.58 12.3 7.25
8/15/2022 12:00:00 AM 23.82 74.876 0.318 7.67 12.17 7.56
8/15/2022 12:15:00 AM 23.81 74.858 0.318 7.62 12.55 7.29
8/15/2022 12:30:00 AM 23.78 74.804 0.318 7.64 11.05 7.35
8/15/2022 12:45:00 AM 23.71 74.67799 0.317 7.58 11.48 7.28
8/15/2022 1:00:00 AM 23.64 74.552 0.318 7.6 12.04 7.31
8/15/2022 1:15:00 AM 23.58 74.444 0.319 7.59 12.57 7.19
8/15/2022 1:30:00 AM 23.52 74.336 0.319 7.59 12.94 7.1
8/15/2022 1:45:00 AM 23.47 74.246 0.318 7.58 16.18 7.06
8/15/2022 2:00:00 AM 23.35 74.03 0.319 7.57 16.28 6.87
8/15/2022 2:15:00 AM 23.34 74.012 0.319 7.56 12.75 6.98
8/15/2022 2:30:00 AM 23.27 73.886 0.32 7.59 13.09 7.11
8/15/2022 2:45:00 AM 23.21 73.778 0.319 7.56 14.39 6.98
8/15/2022 3:00:00 AM 23.11 73.598 0.32 7.58 12.84 6.9
8/15/2022 3:15:00 AM 23.11 73.598 0.318 7.56 16.24 7.04
8/15/2022 3:30:00 AM 23.02 73.436 0.319 7.55 13.18 6.84
8/15/2022 3:45:00 AM 22.94 73.292 0.32 7.54 11.73 6.91
8/15/2022 4:00:00 AM 22.89 73.202 0.32 7.52 13.48 6.63
8/15/2022 4:15:00 AM 22.84 73.112 0.319 7.53 16.76 6.9
8/15/2022 4:30:00 AM 22.74 72.932 0.32 7.52 13.88 6.66
8/15/2022 4:45:00 AM 22.72 72.896 0.318 7.54 20.21 6.97
8/15/2022 5:00:00 AM 22.66 72.788 0.318 7.53 16.22 6.91
8/15/2022 5:15:00 AM 22.49 72.482 0.321 7.53 13.61 6.55
8/15/2022 5:30:00 AM 22.49 72.482 0.32 7.49 14.25 6.65
8/15/2022 5:45:00 AM 22.43 72.374 0.319 7.52 14.87 6.61
8/15/2022 6:00:00 AM 22.33 72.194 0.32 7.5 12.89 6.64
8/15/2022 6:15:00 AM 22.2 71.96 0.321 7.48 12.77 6.33
8/15/2022 6:30:00 AM 22.22 71.996 0.318 7.5 18.52 6.46
8/15/2022 6:45:00 AM 22.15 71.87 0.319 7.48 16.09 6.32
8/15/2022 7:00:00 AM 22.17 71.906 0.318 7.47 26.54 6.33
8/15/2022 7:15:00 AM 22.01 71.618 0.319 7.48 16.37 6.27
8/15/2022 7:30:00 AM 21.98 71.564 0.319 7.48 17.61 6.43
8/15/2022 7:45:00 AM 21.89 71.402 0.319 7.47 17.72 6.43
8/15/2022 8:00:00 AM 21.86 71.348 0.318 7.45 18.64 6.42
8/15/2022 8:15:00 AM 21.85 71.33 0.318 7.47 19.83 6.39
8/15/2022 8:30:00 AM 21.83 71.294 0.318 7.46 20.5 6.49
8/15/2022 8:45:00 AM 21.92 71.456 0.316 7.48 17.36 6.7
8/15/2022 9:00:00 AM 21.93 71.474 0.317 7.49 18.23 6.54
8/15/2022 9:15:00 AM 21.91 71.438 0.317 7.48 18.24 6.55
8/15/2022 9:30:00 AM 22.03 71.654 0.316 7.5 18.38 6.64
8/15/2022 9:45:00 AM 22.13 71.834 0.316 7.5 19.76 6.69
8/15/2022 10:00:00 AM 22.21 71.978 0.315 7.5 16.67 6.73
8/15/2022 10:15:00 AM 22.26 72.068 0.315 7.48 16.29 6.68
8/15/2022 10:30:00 AM 22.35 72.23 0.315 7.49 16.88 6.67
8/15/2022 10:45:00 AM 22.3 72.14 0.316 7.48 19.3 6.57
8/15/2022 11:00:00 AM 22.41 72.338 0.316 7.5 19.88 6.9
8/15/2022 11:15:00 AM 22.42 72.356 0.316 7.47 20.67 6.77
8/15/2022 11:30:00 AM 22.56 72.608 0.315 7.49 17.96 6.81
8/15/2022 11:45:00 AM 22.43 72.374 0.316 7.55 18.38 7.34
8/15/2022 12:00:00 PM 22.43 72.374 0.316 7.5 18.44 7.24
8/15/2022 12:15:00 PM 22.68 72.824 0.316 7.55 17.24 7.29
8/15/2022 12:30:00 PM 22.81 73.058 0.316 7.55 22.42 7.45
8/15/2022 12:45:00 PM 22.91 73.238 0.317 7.6 20.12 7.63
8/15/2022 1:00:00 PM 22.91 73.238 0.317 7.62 18.47 7.99
8/15/2022 1:15:00 PM 22.89 73.202 0.317 7.69 21.12 8.22
8/15/2022 1:30:00 PM 22.89 73.202 0.317 7.67 26.64 8.28
8/15/2022 1:45:00 PM 22.93 73.274 0.317 7.71 20.45 8.42
8/15/2022 2:00:00 PM 22.96 73.328 0.317 7.71 18.41 8.54
8/15/2022 2:15:00 PM 23.08 73.544 0.317 7.71 17.84 8.54
8/15/2022 2:30:00 PM 23.1 73.58 0.317 7.72 20.5 8.43
8/15/2022 2:45:00 PM 23.21 73.778 0.317 7.7 15.83 8.25
8/15/2022 3:00:00 PM 23.34 74.012 0.318 7.74 16 8.51
8/15/2022 3:15:00 PM 23.4 74.12 0.318 7.74 15.14 8.56
8/15/2022 3:30:00 PM 23.39 74.102 0.319 7.74 14.95 8.67
8/15/2022 3:45:00 PM 23.34 74.012 0.318 7.69 16.09 8.35
8/15/2022 4:00:00 PM 23.39 74.102 0.32 7.73 14.71 8.35
8/15/2022 4:15:00 PM 23.42 74.156 0.32 7.74 14.4 8.43
8/15/2022 4:30:00 PM 23.36 74.048 0.319 7.75 15.08 8.42
8/15/2022 4:45:00 PM 23.78 74.804 0.324 7.79 11.78 8.81
8/15/2022 5:00:00 PM 23.46 74.228 0.319 7.83 13.52 8.83
8/15/2022 5:15:00 PM 23.28 73.904 0.318 7.84 15.63 8.75
8/15/2022 5:30:00 PM 23.29 73.922 0.318 7.86 17.62 8.92
8/15/2022 5:45:00 PM 23.38 74.084 0.318 7.85 16.14 8.94
8/15/2022 6:00:00 PM 23.53 74.354 0.318 7.88 16.02 9
8/15/2022 6:15:00 PM 23.51 74.318 0.318 7.85 19.71 8.72
8/15/2022 6:30:00 PM 23.52 74.336 0.318 7.81 21.49 8.54
8/15/2022 6:45:00 PM 23.45 74.21 0.318 7.76 18.3 8.39
8/15/2022 7:00:00 PM 23.37 74.066 0.318 7.87 16.28 8.68
8/15/2022 7:15:00 PM 23.23 73.814 0.318 7.81 16.56 8.36
8/15/2022 7:30:00 PM 23.53 74.354 0.317 7.83 18.2 8.52
8/15/2022 7:45:00 PM 23.71 74.67799 0.316 7.85 18.99 8.69
8/15/2022 8:00:00 PM 23.73 74.714 0.316 7.86 18.12 8.56
8/15/2022 8:15:00 PM 23.62 74.516 0.317 7.79 17.42 8.55
8/15/2022 8:30:00 PM 23.51 74.318 0.316 7.8 15.25 8.28
8/15/2022 8:45:00 PM 23.5 74.3 0.315 7.78 15.9 8.31
8/15/2022 9:00:00 PM 23.6 74.48 0.314 7.85 16.16 8.44
8/15/2022 9:15:00 PM 23.48 74.264 0.314 7.77 17.51 8.1
8/15/2022 9:30:00 PM 23.53 74.354 0.314 7.81 20.4 8.21
8/15/2022 9:45:00 PM 23.44 74.192 0.314 7.75 15.79 8.01
8/15/2022 10:00:00 PM 23.4 74.12 0.314 7.72 16.86 7.71
8/15/2022 10:15:00 PM 23.38 74.084 0.313 7.74 15.21 7.99
8/15/2022 10:30:00 PM 23.34 74.012 0.314 7.69 14.83 7.79
8/15/2022 10:45:00 PM 23.3 73.94 0.314 7.71 16.07 7.66
8/15/2022 11:00:00 PM 23.24 73.832 0.314 7.68 17.56 7.44
8/15/2022 11:15:00 PM 23.22 73.796 0.313 7.68 16.33 7.51
8/15/2022 11:30:00 PM 23.2 73.76 0.312 7.66 16.01 7.63
8/15/2022 11:45:00 PM 23.16 73.688 0.312 7.69 16.15 7.67
8/16/2022 12:00:00 AM 23.09 73.562 0.312 7.61 22.27 7.31
8/16/2022 12:15:00 AM 23.07 73.526 0.312 7.64 18.26 7.4
8/16/2022 12:30:00 AM 23.02 73.436 0.312 7.63 18.24 7.36
8/16/2022 12:45:00 AM 22.92 73.256 0.313 7.62 19.84 7.18
8/16/2022 1:00:00 AM 22.95 73.31 0.312 7.62 19.21 7.37
8/16/2022 1:15:00 AM 22.9 73.22 0.312 7.61 23.01 7.28
8/16/2022 1:30:00 AM 22.89 73.202 0.312 7.63 19.9 7.38
8/16/2022 1:45:00 AM 22.85 73.13 0.312 7.57 22.44 7.2
8/16/2022 2:00:00 AM 22.84 73.112 0.312 7.59 23.94 7.24
8/16/2022 2:15:00 AM 22.79 73.022 0.312 7.57 21.07 7.05
8/16/2022 2:30:00 AM 22.72 72.896 0.313 7.56 25.17 6.94
8/16/2022 2:45:00 AM 22.67 72.806 0.312 7.58 21.19 7.04
8/16/2022 3:00:00 AM 22.66 72.788 0.312 7.54 22.42 6.97
8/16/2022 3:15:00 AM 22.64 72.752 0.312 7.55 24.2 6.94
8/16/2022 3:30:00 AM 22.58 72.644 0.313 7.54 21.13 6.85
8/16/2022 3:45:00 AM 22.55 72.59 0.313 7.54 22.39 6.85
8/16/2022 4:00:00 AM 22.52 72.536 0.313 7.52 25.59 6.69
8/16/2022 4:15:00 AM 22.51 72.518 0.313 7.52 21.17 6.73
8/16/2022 4:30:00 AM 22.44 72.392 0.313 7.5 25.09 6.57
8/16/2022 4:45:00 AM 22.44 72.392 0.313 7.5 19.71 6.63
8/16/2022 5:00:00 AM 22.4 72.32 0.313 7.49 20.57 6.47
8/16/2022 5:15:00 AM 22.33 72.194 0.313 7.49 23.02 6.51
8/16/2022 5:30:00 AM 22.32 72.176 0.313 7.48 19.24 6.48
8/16/2022 5:45:00 AM 22.3 72.14 0.313 7.48 17.95 6.36
8/16/2022 6:00:00 AM 22.22 71.996 0.314 7.43 19.01 6.36
8/16/2022 6:15:00 AM 22.21 71.978 0.313 7.48 19.24 6.36
8/16/2022 6:30:00 AM 22.19 71.942 0.314 7.44 18.65 6.27
8/16/2022 6:45:00 AM 22.16 71.888 0.314 7.45 18.62 6.12
8/16/2022 7:00:00 AM 22.13 71.834 0.314 7.41 22.52 6.04
8/16/2022 7:15:00 AM 22.09 71.762 0.314 7.42 19.43 6
8/16/2022 7:30:00 AM 22.07 71.726 0.314 7.41 20.07 6
8/16/2022 7:45:00 AM 22.03 71.654 0.314 7.42 17.76 5.96
8/16/2022 8:00:00 AM 22.04 71.672 0.314 7.41 17.06 6
8/16/2022 8:15:00 AM 22.07 71.726 0.314 7.4 20.8 5.92
8/16/2022 8:30:00 AM 22.11 71.798 0.314 7.39 21.48 5.85
8/16/2022 8:45:00 AM 22.11 71.798 0.314 7.41 18.6 6.02
8/16/2022 9:00:00 AM 22.13 71.834 0.314 7.4 18.18 5.95
8/16/2022 9:15:00 AM 22.17 71.906 0.313 7.4 16.5 6
8/16/2022 9:30:00 AM 22.21 71.978 0.313 7.41 16.01 6.08
8/16/2022 9:45:00 AM 22.21 71.978 0.313 7.42 19.75 6.21
8/16/2022 10:00:00 AM 22.23 72.014 0.313 7.45 16.33 6.32
8/16/2022 10:15:00 AM 22.33 72.194 0.313 7.46 14.15 6.55
8/16/2022 10:30:00 AM 22.4 72.32 0.313 7.5 14.01 6.75
8/16/2022 10:45:00 AM 22.46 72.42799 0.313 7.52 18.92 6.74
8/16/2022 11:00:00 AM 22.48 72.464 0.313 7.51 17.87 6.69
8/16/2022 11:15:00 AM 22.54 72.57201 0.313 7.5 16.32 6.62
8/16/2022 11:30:00 AM 22.63 72.734 0.313 7.46 13.75 6.68
8/16/2022 11:45:00 AM 22.74 72.932 0.312 7.55 21.02 7.27
8/16/2022 12:00:00 PM 22.73 72.914 0.312 7.6 19.77 7.73
8/16/2022 12:15:00 PM 22.78 73.004 0.312 7.62 19.67 7.89
8/16/2022 12:30:00 PM 23.02 73.436 0.312 7.59 17.87 7.79
8/16/2022 12:45:00 PM 23.16 73.688 0.311 7.64 22.08 8.05
8/16/2022 1:00:00 PM 23.35 74.03 0.311 7.61 15.81 8.06
8/16/2022 1:15:00 PM 23.35 74.03 0.312 7.7 22.23 8.54
8/16/2022 1:30:00 PM 23.22 73.796 0.311 7.75 19.6 8.8
8/16/2022 1:45:00 PM 23.07 73.526 0.312 7.73 19.14 8.65
8/16/2022 2:00:00 PM 23.49 74.282 0.312 7.71 25.55 8.78
8/16/2022 2:15:00 PM 23.78 74.804 0.312 7.75 18.86 8.77
8/16/2022 2:30:00 PM 23.45 74.21 0.313 7.79 24.38 8.96
8/16/2022 2:45:00 PM 23.48 74.264 0.313 7.82 22.21 9
8/16/2022 3:00:00 PM 24.12 75.416 0.313 7.86 15 9.03
8/16/2022 3:15:00 PM 23.5 74.3 0.313 7.84 20.65 8.92
8/16/2022 3:30:00 PM 23.25 73.85 0.313 7.86 19.52 8.92
8/16/2022 3:45:00 PM 23.52 74.336 0.313 7.83 16.11 8.9
8/16/2022 4:00:00 PM 23.97 75.146 0.313 7.83 17.16 9.16
8/16/2022 4:15:00 PM 23.97 75.146 0.313 7.89 18.88 9.34
8/16/2022 4:30:00 PM 23.9 75.02 0.313 7.89 17.95 9.29
8/16/2022 4:45:00 PM 23.95 75.11 0.313 7.92 17.85 9.22
8/16/2022 5:00:00 PM 24.23 75.614 0.314 7.91 14.85 9.09
8/16/2022 5:15:00 PM 24.34 75.812 0.313 7.93 16.29 9.14
8/16/2022 5:30:00 PM 24.14 75.452 0.313 7.95 18.47 9.18
8/16/2022 5:45:00 PM 24.2 75.56 0.313 7.94 16.48 9.2
8/16/2022 6:00:00 PM 24.05 75.29 0.313 7.91 16.72 8.89
8/16/2022 6:15:00 PM 23.82 74.876 0.314 7.92 22.38 8.95
8/16/2022 6:30:00 PM 23.94 75.092 0.314 7.9 18.54 8.85
8/16/2022 6:45:00 PM 24.1 75.38 0.314 7.88 19.08 8.69
8/16/2022 7:00:00 PM 24.19 75.542 0.314 7.84 16.7 8.56
8/16/2022 7:15:00 PM 24.09 75.362 0.314 7.82 20.38 8.42
8/16/2022 7:30:00 PM 24.11 75.398 0.314 7.83 18.51 8.45
8/16/2022 7:45:00 PM 24.05 75.29 0.314 7.77 17.13 8.29
8/16/2022 8:00:00 PM 24.1 75.38 0.314 7.78 17.29 8.16
8/16/2022 8:15:00 PM 24.22 75.596 0.315 7.77 16.98 8.22
8/16/2022 8:30:00 PM 24.18 75.524 0.314 7.78 17.19 8.19
8/16/2022 8:45:00 PM 24.34 75.812 0.314 7.77 17.8 8.25
8/16/2022 9:00:00 PM 24.25 75.65 0.315 7.75 16.59 8.08
8/16/2022 9:15:00 PM 24.2 75.56 0.315 7.74 16.56 7.89
8/16/2022 9:30:00 PM 24.26 75.668 0.315 7.76 18.67 8.02
8/16/2022 9:45:00 PM 24.21 75.578 0.315 7.73 17.26 7.84
8/16/2022 10:00:00 PM 24.07 75.326 0.315 7.71 15.66 7.86
8/16/2022 10:15:00 PM 24.08 75.344 0.315 7.71 14.56 7.87
8/16/2022 10:30:00 PM 24.03 75.254 0.315 7.74 12.36 7.94
8/16/2022 10:45:00 PM 24 75.2 0.315 7.73 16.9 7.87
8/16/2022 11:00:00 PM 23.88 74.984 0.316 7.73 12.63 7.66
8/16/2022 11:15:00 PM 23.81 74.858 0.316 7.72 11.76 7.6
8/16/2022 11:30:00 PM 23.78 74.804 0.315 7.66 13.44 7.64
8/16/2022 11:45:00 PM 23.71 74.67799 0.315 7.72 15.36 7.85
8/17/2022 12:00:00 AM 23.66 74.588 0.315 7.71 18.17 7.75
8/17/2022 12:15:00 AM 23.53 74.354 0.315 7.66 17.58 7.47
8/17/2022 12:30:00 AM 23.52 74.336 0.315 7.67 15.26 7.61
8/17/2022 12:45:00 AM 23.47 74.246 0.315 7.65 20.65 7.45
8/17/2022 1:00:00 AM 23.36 74.048 0.316 7.64 15.53 7.33
8/17/2022 1:15:00 AM 23.31 73.958 0.315 7.63 14.95 7.26
8/17/2022 1:30:00 AM 23.24 73.832 0.315 7.64 15.47 7.44
8/17/2022 1:45:00 AM 23.17 73.706 0.315 7.65 25.4 7.34
8/17/2022 2:00:00 AM 23.07 73.526 0.316 7.61 17.78 7.11
8/17/2022 2:15:00 AM 23.07 73.526 0.315 7.61 14.28 7.16
8/17/2022 2:30:00 AM 22.99 73.382 0.316 7.56 17.26 6.92
8/17/2022 2:45:00 AM 22.93 73.274 0.316 7.57 15.52 6.91
8/17/2022 3:00:00 AM 22.89 73.202 0.316 7.57 14.34 6.77
8/17/2022 3:15:00 AM 22.85 73.13 0.315 7.57 14.87 6.95
8/17/2022 3:30:00 AM 22.8 73.04 0.315 7.57 17.02 6.91
8/17/2022 3:45:00 AM 22.73 72.914 0.315 7.53 18.83 6.84
8/17/2022 4:00:00 AM 22.7 72.86 0.315 7.55 16.64 6.8
8/17/2022 4:15:00 AM 22.64 72.752 0.315 7.55 18.55 6.69
8/17/2022 4:30:00 AM 22.63 72.734 0.315 7.51 16.56 6.74
8/17/2022 4:45:00 AM 22.58 72.644 0.314 7.53 17.55 6.64
8/17/2022 5:00:00 AM 22.51 72.518 0.315 7.52 15.25 6.55
8/17/2022 5:15:00 AM 22.46 72.42799 0.315 7.51 14.55 6.47
8/17/2022 5:30:00 AM 22.39 72.302 0.315 7.46 16.31 6.4
8/17/2022 5:45:00 AM 22.39 72.302 0.315 7.5 14.92 6.53
8/17/2022 6:00:00 AM 22.3 72.14 0.315 7.49 14.42 6.39
8/17/2022 6:15:00 AM 22.19 71.942 0.315 7.45 13.84 6.34
8/17/2022 6:30:00 AM 22.23 72.014 0.315 7.48 13.41 6.19
8/17/2022 6:45:00 AM 22.13 71.834 0.315 7.44 15.84 6.25
8/17/2022 7:00:00 AM 22.17 71.906 0.315 7.45 16.39 6.11
8/17/2022 7:15:00 AM 22.17 71.906 0.315 7.45 22.58 6.26
8/17/2022 7:30:00 AM 22.08 71.744 0.315 7.44 15.03 6.16
8/17/2022 7:45:00 AM 22.07 71.726 0.315 7.44 16.52 6.15
8/17/2022 8:00:00 AM 22.08 71.744 0.315 7.45 18.25 6.2
8/17/2022 8:15:00 AM 22.05 71.69 0.315 7.43 15.86 5.85
8/17/2022 8:30:00 AM 22.07 71.726 0.315 7.42 14.42 5.97
8/17/2022 8:45:00 AM 22.06 71.708 0.315 7.43 17.44 6.11
8/17/2022 9:00:00 AM 22.15 71.87 0.314 7.4 15.14 5.94
8/17/2022 9:15:00 AM 22.19 71.942 0.314 7.39 15.16 5.76
8/17/2022 9:30:00 AM 22.18 71.924 0.314 7.42 16.42 5.81
8/17/2022 9:45:00 AM 22.24 72.032 0.314 7.41 16.27 6
8/17/2022 10:00:00 AM 22.27 72.086 0.314 7.4 15.76 5.94
8/17/2022 10:15:00 AM 22.29 72.122 0.314 7.41 16.6 5.87
8/17/2022 10:30:00 AM 22.32 72.176 0.314 7.41 16 6.06
8/17/2022 10:45:00 AM 22.36 72.248 0.314 7.45 16.25 6.24
8/17/2022 11:00:00 AM 22.43 72.374 0.313 7.43 13.94 6.28
8/17/2022 11:15:00 AM 22.49 72.482 0.313 7.44 14.56 6.29
8/17/2022 11:30:00 AM 22.55 72.59 0.313 7.46 15.34 6.46
8/17/2022 11:45:00 AM 22.54 72.57201 0.314 7.49 18.03 6.66
8/17/2022 12:00:00 PM 22.51 72.518 0.314 7.53 14.38 6.99
8/17/2022 12:15:00 PM 22.51 72.518 0.314 7.54 12.72 7.06
8/17/2022 12:30:00 PM 22.71 72.878 0.313 7.53 14.56 7.01
8/17/2022 12:45:00 PM 22.84 73.112 0.313 7.55 12.54 6.9
8/17/2022 1:00:00 PM 23.01 73.418 0.313 7.56 15.23 7.23
8/17/2022 1:15:00 PM 22.89 73.202 0.313 7.62 14.27 7.81
8/17/2022 1:30:00 PM 23.08 73.544 0.315 7.6 12.76 7.65
8/17/2022 1:45:00 PM 23.02 73.436 0.313 7.58 14.91 7.96
8/17/2022 2:00:00 PM 23.11 73.598 0.315 7.67 14.25 8.01
8/17/2022 2:15:00 PM 22.85 73.13 0.313 7.64 16.43 8.09
8/17/2022 2:30:00 PM 22.9 73.22 0.313 7.67 17.43 8.06
8/17/2022 2:45:00 PM 23.1 73.58 0.314 7.67 26.51 8.23
8/17/2022 3:00:00 PM 23.39 74.102 0.314 7.68 24.17 8.08
8/17/2022 3:15:00 PM 23.48 74.264 0.314 7.72 14.91 8.29
8/17/2022 3:30:00 PM 23.64 74.552 0.315 7.7 15.83 8.02
8/17/2022 3:45:00 PM 23.56 74.408 0.314 7.71 22.79 8.03
8/17/2022 4:00:00 PM 23.43 74.174 0.314 7.75 18.63 8.31
8/17/2022 4:15:00 PM 24.28 75.704 0.315 7.75 13.68 8.18
8/17/2022 4:30:00 PM 24.17 75.506 0.314 7.76 14.3 8.28
8/17/2022 4:45:00 PM 23.71 74.67799 0.314 7.77 20.34 8.29
8/17/2022 5:00:00 PM 23.49 74.282 0.315 7.77 20.16 8.01
8/17/2022 5:15:00 PM 23.51 74.318 0.315 7.7 18.26 7.93
8/17/2022 5:30:00 PM 23.66 74.588 0.315 7.74 19.65 7.84
8/17/2022 5:45:00 PM 23.66 74.588 0.315 7.69 16.37 7.68
8/17/2022 6:00:00 PM 23.76 74.768 0.315 7.68 22.87 7.59
8/17/2022 6:15:00 PM 23.81 74.858 0.315 7.69 16.17 7.63
8/17/2022 6:30:00 PM 23.97 75.146 0.316 7.77 14.87 8.14
8/17/2022 6:45:00 PM 23.87 74.966 0.316 7.74 14.35 8
8/17/2022 7:00:00 PM 23.69 74.642 0.316 7.75 14.89 7.85
8/17/2022 7:15:00 PM 23.57 74.426 0.315 7.7 17.56 7.8
8/17/2022 7:30:00 PM 23.62 74.516 0.316 7.7 14.29 7.74
8/17/2022 7:45:00 PM 23.87 74.966 0.315 7.7 21.23 7.61
8/17/2022 8:00:00 PM 24.08 75.344 0.313 7.72 13.11 7.81
8/17/2022 8:15:00 PM 24.02 75.236 0.313 7.73 14.73 7.87
8/17/2022 8:30:00 PM 24 75.2 0.31 7.78 12.06 7.98
8/17/2022 8:45:00 PM 23.56 74.408 0.312 7.72 12.98 7.5
8/17/2022 9:00:00 PM 23.48 74.264 0.311 7.71 12.22 7.44
8/17/2022 9:15:00 PM 23.54 74.372 0.312 7.67 12.68 7.38
8/17/2022 9:30:00 PM 23.59 74.462 0.312 7.68 12.06 7.43
8/17/2022 9:45:00 PM 23.56 74.408 0.312 7.67 12.21 7.48
8/17/2022 10:00:00 PM 23.48 74.264 0.311 7.62 14.15 7.24
8/17/2022 10:15:00 PM 23.42 74.156 0.311 7.64 12.36 7.19
8/17/2022 10:30:00 PM 23.38 74.084 0.311 7.6 13.74 7.09
8/17/2022 10:45:00 PM 23.34 74.012 0.311 7.62 14.56 7.15
8/17/2022 11:00:00 PM 23.29 73.922 0.311 7.63 20.93 7.21
8/17/2022 11:15:00 PM 23.24 73.832 0.311 7.63 17.52 7.22
8/17/2022 11:30:00 PM 23.18 73.724 0.31 7.59 16.08 7.16
8/17/2022 11:45:00 PM 23.14 73.652 0.311 7.61 15.49 7.14
8/18/2022 12:00:00 AM 23.04 73.472 0.31 7.57 14.76 6.92
8/18/2022 12:15:00 AM 23.01 73.418 0.31 7.59 14.07 6.91
8/18/2022 12:30:00 AM 22.96 73.328 0.311 7.54 13.85 6.75
8/18/2022 12:45:00 AM 22.92 73.256 0.311 7.53 16.65 6.71
8/18/2022 1:00:00 AM 22.85 73.13 0.311 7.55 19.78 6.83
8/18/2022 1:15:00 AM 22.82 73.076 0.311 7.55 15.57 6.83
8/18/2022 1:30:00 AM 22.76 72.968 0.311 7.55 14.69 6.72
8/18/2022 1:45:00 AM 22.69 72.842 0.311 7.49 16.45 6.43
8/18/2022 2:00:00 AM 22.69 72.842 0.311 7.51 14.3 6.6
8/18/2022 2:15:00 AM 22.66 72.788 0.311 7.48 14.8 6.5
8/18/2022 2:30:00 AM 22.61 72.698 0.311 7.5 14.17 6.54
8/18/2022 2:45:00 AM 22.48 72.464 0.312 7.51 14.28 6.42
8/18/2022 3:00:00 AM 22.46 72.42799 0.311 7.47 13.23 6.49
8/18/2022 3:15:00 AM 22.39 72.302 0.312 7.46 17.6 6.25
8/18/2022 3:30:00 AM 22.31 72.158 0.312 7.46 13.73 6.26
8/18/2022 3:45:00 AM 22.31 72.158 0.312 7.46 14.16 6.2
8/18/2022 4:00:00 AM 22.3 72.14 0.312 7.44 17.07 6.24
8/18/2022 4:15:00 AM 22.21 71.978 0.312 7.47 16.45 6.17
8/18/2022 4:30:00 AM 22.17 71.906 0.312 7.44 16.07 6.12
8/18/2022 4:45:00 AM 22.16 71.888 0.312 7.44 15.3 6.03
8/18/2022 5:00:00 AM 22.09 71.762 0.312 7.42 13.96 6
8/18/2022 5:15:00 AM 22.07 71.726 0.312 7.42 14.27 5.86
8/18/2022 5:30:00 AM 22 71.6 0.312 7.38 14.58 5.74
8/18/2022 5:45:00 AM 21.96 71.528 0.312 7.4 14.84 5.73
8/18/2022 6:00:00 AM 21.94 71.492 0.312 7.36 15.43 5.64
8/18/2022 6:15:00 AM 21.84 71.312 0.312 7.39 14.66 5.76
8/18/2022 6:30:00 AM 21.83 71.294 0.312 7.38 19.63 5.44
8/18/2022 6:45:00 AM 21.82 71.276 0.312 7.35 16.01 5.51
8/18/2022 7:00:00 AM 21.84 71.312 0.312 7.37 19.95 5.42
8/18/2022 7:15:00 AM 21.74 71.132 0.312 7.35 17.15 5.5
8/18/2022 7:30:00 AM 21.73 71.114 0.312 7.36 16.72 5.48
8/18/2022 7:45:00 AM 21.71 71.078 0.312 7.38 16.43 5.68
8/18/2022 8:00:00 AM 21.71 71.078 0.312 7.37 17.13 5.66
8/18/2022 8:15:00 AM 21.72 71.096 0.312 7.37 14.92 5.65
8/18/2022 8:30:00 AM 21.69 71.042 0.312 7.39 15.63 5.82
8/18/2022 8:45:00 AM 21.71 71.078 0.312 7.39 15.42 5.77
8/18/2022 9:00:00 AM 21.73 71.114 0.312 7.38 17.22 5.76
8/18/2022 9:15:00 AM 21.81 71.258 0.312 7.39 17.12 5.89
8/18/2022 9:30:00 AM 21.88 71.384 0.312 7.4 17.5 5.81
8/18/2022 9:45:00 AM 21.93 71.474 0.312 7.4 18.88 5.86
8/18/2022 10:00:00 AM 21.94 71.492 0.312 7.41 17.29 5.94
8/18/2022 10:15:00 AM 21.99 71.582 0.312 7.39 16.31 6.02
8/18/2022 10:30:00 AM 22.05 71.69 0.312 7.44 16.89 6.24
8/18/2022 10:45:00 AM 22.08 71.744 0.311 7.45 13.91 6.38
8/18/2022 11:00:00 AM 22.12 71.816 0.311 7.51 14.25 6.61
8/18/2022 11:15:00 AM 22.19 71.942 0.311 7.48 14.81 6.66
8/18/2022 11:30:00 AM 22.39 72.302 0.312 7.5 13.48 6.67
8/18/2022 11:45:00 AM 22.69 72.842 0.312 7.51 15.42 6.7
8/18/2022 12:00:00 PM 22.92 73.256 0.312 7.51 14.27 6.77
8/18/2022 12:15:00 PM 22.92 73.256 0.312 7.54 15.77 6.98
8/18/2022 12:30:00 PM 22.8 73.04 0.312 7.54 15.6 7.13
8/18/2022 12:45:00 PM 22.6 72.68 0.311 7.51 22.04 7.03
8/18/2022 1:00:00 PM 22.54 72.57201 0.312 7.51 17.71 7.02
8/18/2022 1:15:00 PM 22.54 72.57201 0.311 7.52 17.83 7.04
8/18/2022 1:30:00 PM 22.7 72.86 0.311 7.52 17.64 7.11
8/18/2022 1:45:00 PM 22.76 72.968 0.311 7.57 17.63 7.37
8/18/2022 2:00:00 PM 22.9 73.22 0.311 7.57 16.25 7.42
8/18/2022 2:15:00 PM 23.04 73.472 0.311 7.6 17.04 7.59
8/18/2022 2:30:00 PM 23.24 73.832 0.311 7.61 18.01 7.66
8/18/2022 2:45:00 PM 23.53 74.354 0.313 7.61 14.53 7.43
8/18/2022 3:00:00 PM 23.48 74.264 0.312 7.66 16.94 7.8
8/18/2022 3:15:00 PM 23.32 73.976 0.311 7.67 22.09 7.84
8/18/2022 3:30:00 PM 23.79 74.82201 0.312 7.6 17.07 7.56
8/18/2022 3:45:00 PM 23.7 74.66 0.312 7.69 18.03 7.94
8/18/2022 4:00:00 PM 23.79 74.82201 0.312 7.69 16.38 7.83
8/18/2022 4:15:00 PM 23.52 74.336 0.312 7.7 16.71 8.24
8/18/2022 4:30:00 PM 23.35 74.03 0.311 7.73 26.02 8.14
8/18/2022 4:45:00 PM 23.51 74.318 0.312 7.75 22.98 8.19
8/18/2022 5:00:00 PM 23.74 74.732 0.312 7.75 21.5 8.18
8/18/2022 5:15:00 PM 23.99 75.182 0.313 7.64 15.83 7.59
8/18/2022 5:30:00 PM 24.06 75.308 0.313 7.61 28.33 7.47
8/18/2022 5:45:00 PM 24.21 75.578 0.313 7.65 14.76 7.61
8/18/2022 6:00:00 PM 24.33 75.794 0.313 7.63 16.14 7.46
8/18/2022 6:15:00 PM 23.5 74.3 0.313 7.67 23.7 7.43
8/18/2022 6:30:00 PM 23.49 74.282 0.313 7.66 17.58 7.3
8/18/2022 6:45:00 PM 23.92 75.056 0.313 7.62 13.85 7.19
8/18/2022 7:00:00 PM 24.05 75.29 0.313 7.63 14.93 7.24
8/18/2022 7:15:00 PM 23.86 74.948 0.314 7.61 17.62 6.98
8/18/2022 7:30:00 PM 23.68 74.624 0.314 7.58 17.23 7.04
8/18/2022 7:45:00 PM 23.73 74.714 0.314 7.6 14.05 7.02
8/18/2022 8:00:00 PM 23.93 75.074 0.314 7.58 13.62 7.04
8/18/2022 8:15:00 PM 23.9 75.02 0.314 7.61 13.91 7.22
8/18/2022 8:30:00 PM 23.87 74.966 0.314 7.61 14.35 7.11
8/18/2022 8:45:00 PM 23.72 74.696 0.314 7.61 16.58 7
8/18/2022 9:00:00 PM 23.75 74.75 0.314 7.61 14.19 6.96
8/18/2022 9:15:00 PM 23.7 74.66 0.314 7.55 14.15 6.88
8/18/2022 9:30:00 PM 23.76 74.768 0.313 7.6 13.1 7.07
8/18/2022 9:45:00 PM 23.68 74.624 0.314 7.55 13.83 6.88
8/18/2022 10:00:00 PM 23.61 74.498 0.314 7.56 13.21 6.92
8/18/2022 10:15:00 PM 23.45 74.21 0.314 7.57 13.73 6.78
8/18/2022 10:30:00 PM 23.43 74.174 0.314 7.58 12.75 7
8/18/2022 10:45:00 PM 23.36 74.048 0.314 7.58 14.27 6.88
8/18/2022 11:00:00 PM 23.28 73.904 0.314 7.55 15 6.63
8/18/2022 11:15:00 PM 23.22 73.796 0.312 7.55 16.65 6.82
8/18/2022 11:30:00 PM 23.17 73.706 0.312 7.53 17.77 6.79
8/18/2022 11:45:00 PM 23.11 73.598 0.313 7.53 16.89 6.71
8/19/2022 12:00:00 AM 23.03 73.454 0.313 7.5 17.4 6.57
8/19/2022 12:15:00 AM 22.96 73.328 0.313 7.51 22.17 6.51
8/19/2022 12:30:00 AM 22.97 73.346 0.313 7.49 1522.57 6.43
8/19/2022 12:45:00 AM 22.87 73.166 0.314 7.48 305.43 6.3
8/19/2022 1:00:00 AM 22.79 73.022 0.313 7.48 40.16 6.33
8/19/2022 1:15:00 AM 22.71 72.878 0.313 7.5 30.82 6.42
8/19/2022 1:30:00 AM 22.71 72.878 0.313 7.49 14.93 6.45
8/19/2022 1:45:00 AM 22.7 72.86 0.313 7.45 21.22 6.28
8/19/2022 2:00:00 AM 22.56 72.608 0.313 7.47 14.28 6.28
8/19/2022 2:15:00 AM 22.54 72.57201 0.313 7.46 16.61 6.23
8/19/2022 2:30:00 AM 22.52 72.536 0.313 7.45 19.31 6.17
8/19/2022 2:45:00 AM 22.45 72.41 0.313 7.45 18.62 6.23
8/19/2022 3:00:00 AM 22.37 72.266 0.313 7.45 16.43 6.22
8/19/2022 3:15:00 AM 22.36 72.248 0.313 7.43 16.17 6.09
8/19/2022 3:30:00 AM 22.32 72.176 0.313 7.43 16.2 5.99
8/19/2022 3:45:00 AM 22.28 72.104 0.313 7.42 15.77 5.96
8/19/2022 4:00:00 AM 22.23 72.014 0.313 7.43 15.49 6.09
8/19/2022 4:15:00 AM 22.13 71.834 0.313 7.42 16.21 5.9
8/19/2022 4:30:00 AM 22.14 71.852 0.313 7.41 18.17 5.9
8/19/2022 4:45:00 AM 22.06 71.708 0.313 7.39 19.04 5.79
8/19/2022 5:00:00 AM 22.06 71.708 0.313 7.41 17.22 5.79
8/19/2022 5:15:00 AM 21.98 71.564 0.314 7.37 21.65 5.66
8/19/2022 5:30:00 AM 21.92 71.456 0.313 7.38 15.71 5.66
8/19/2022 5:45:00 AM 21.89 71.402 0.313 7.37 19.03 5.59
8/19/2022 6:00:00 AM 21.85 71.33 0.314 7.35 17.45 5.52
8/19/2022 6:15:00 AM 21.8 71.24 0.313 7.36 18.45 5.5
8/19/2022 6:30:00 AM 21.79 71.222 0.314 7.35 20.7 5.39
8/19/2022 6:45:00 AM 21.73 71.114 0.313 7.35 18.88 5.35
8/19/2022 7:00:00 AM 21.68 71.024 0.313 7.35 17.61 5.51
8/19/2022 7:15:00 AM 21.64 70.952 0.314 7.34 18.57 5.29
8/19/2022 7:30:00 AM 21.59 70.862 0.313 7.35 17.75 5.42
8/19/2022 7:45:00 AM 21.59 70.862 0.313 7.32 17.03 5.33
8/19/2022 8:00:00 AM 21.59 70.862 0.314 7.33 19.42 5.24
8/19/2022 8:15:00 AM 21.59 70.862 0.313 7.33 22.69 5.31
8/19/2022 8:30:00 AM 21.59 70.862 0.313 7.33 21.06 5.38
8/19/2022 8:45:00 AM 21.6 70.88 0.313 7.33 20.38 5.29
8/19/2022 9:00:00 AM 21.65 70.97 0.313 7.34 19.62 5.41
8/19/2022 9:15:00 AM 21.68 71.024 0.313 7.36 19.42 5.64
8/19/2022 9:30:00 AM 21.6 70.88 0.313 7.36 19.64 5.62
8/19/2022 9:45:00 AM 21.82 71.276 0.313 7.37 18.97 5.67
8/19/2022 10:00:00 AM 21.87 71.366 0.313 7.35 17.54 5.59
8/19/2022 10:15:00 AM 22.3 72.14 0.313 7.4 18.24 5.84
8/19/2022 10:30:00 AM 22.6 72.68 0.313 7.4 14.27 5.86
8/19/2022 10:45:00 AM 22.69 72.842 0.313 7.41 15.28 5.8
8/19/2022 11:00:00 AM 22.32 72.176 0.312 7.39 20.06 6.05
8/19/2022 11:15:00 AM 22.25 72.05 0.313 7.39 24.49 6.05
8/19/2022 11:30:00 AM 22.13 71.834 0.313 7.41 19.59 6.25
8/19/2022 11:45:00 AM 22.26 72.068 0.313 7.41 20.65 6.21
8/19/2022 12:00:00 PM 23.17 73.706 0.315 7.43 16.05 6.2
8/19/2022 12:15:00 PM 24.25 75.65 0.315 7.55 12.6 7.17
8/19/2022 12:30:00 PM 22.81 73.058 0.312 7.54 17.96 7.23
8/19/2022 12:45:00 PM 23 73.4 0.312 7.5 17.04 6.97
8/19/2022 1:00:00 PM 22.8 73.04 0.313 7.52 17.79 7
8/19/2022 1:15:00 PM 22.93 73.274 0.312 7.54 19.99 7.2
8/19/2022 1:30:00 PM 22.96 73.328 0.312 7.59 21.48 7.44
8/19/2022 1:45:00 PM 23.14 73.652 0.313 7.59 18.15 7.56
8/19/2022 2:00:00 PM 25.03 77.054 0.318 7.59 12.42 7.52
8/19/2022 2:15:00 PM 23.5 74.3 0.313 7.62 19.26 7.59
8/19/2022 2:30:00 PM 23.09 73.562 0.313 7.65 18 7.68
8/19/2022 2:45:00 PM 24.09 75.362 0.314 7.62 17.62 7.71
8/19/2022 3:00:00 PM 24.18 75.524 0.315 7.64 17.21 7.76
8/19/2022 3:15:00 PM 23.58 74.444 0.313 7.7 20.23 7.96
8/19/2022 3:30:00 PM 24.15 75.47 0.314 7.67 16.67 7.74
8/19/2022 3:45:00 PM 24.32 75.776 0.314 7.71 16.97 7.98
8/19/2022 4:00:00 PM 24.01 75.218 0.313 7.82 23.71 8.57
8/19/2022 4:15:00 PM 24 75.2 0.314 7.8 25.38 8.39
8/19/2022 4:30:00 PM 24.46 76.028 0.314 7.78 22.02 8.23
8/19/2022 4:45:00 PM 24.62 76.316 0.314 7.76 22.57 8.17
8/19/2022 5:00:00 PM 24.31 75.758 0.314 7.75 19.17 8.04
8/19/2022 5:15:00 PM 24.94 76.892 0.314 7.76 18.48 8.26
8/19/2022 5:30:00 PM 24.3 75.74 0.314 7.78 25.12 8.11
8/19/2022 5:45:00 PM 23.93 75.074 0.314 7.79 19.92 8.14
8/19/2022 6:00:00 PM 24.25 75.65 0.314 7.76 21.91 8.13
8/19/2022 6:15:00 PM 24.58 76.244 0.315 7.76 16.04 8.03
8/19/2022 6:30:00 PM 24.53 76.154 0.315 7.73 26.36 7.9
8/19/2022 6:45:00 PM 24.46 76.028 0.314 7.72 18.25 7.94
8/19/2022 7:00:00 PM 24.59 76.262 0.315 7.73 16.98 7.85
8/19/2022 7:15:00 PM 24.79 76.622 0.316 7.72 16.96 7.77
8/19/2022 7:30:00 PM 24.47 76.046 0.315 7.73 17.19 7.73
8/19/2022 7:45:00 PM 24.62 76.316 0.315 7.67 16.22 7.66
8/19/2022 8:00:00 PM 24.62 76.316 0.315 7.72 17.79 7.77
8/19/2022 8:15:00 PM 24.61 76.298 0.316 7.72 16.35 7.75
8/19/2022 8:30:00 PM 24.63 76.334 0.315 7.67 15.47 7.65
8/19/2022 8:45:00 PM 24.78 76.604 0.316 7.7 17.26 7.69
8/19/2022 9:00:00 PM 24.79 76.622 0.316 7.71 14.37 7.71
8/19/2022 9:15:00 PM 24.68 76.424 0.316 7.66 14.81 7.55
8/19/2022 9:30:00 PM 24.64 76.352 0.316 7.67 18.53 7.36
8/19/2022 9:45:00 PM 24.77 76.586 0.316 7.64 17.26 7.31
8/19/2022 10:00:00 PM 24.77 76.586 0.316 7.63 16.84 7.25
8/19/2022 10:15:00 PM 24.79 76.622 0.316 7.65 17.3 7.26
8/19/2022 10:30:00 PM 24.82 76.676 0.317 7.68 14.38 7.5
8/19/2022 10:45:00 PM 24.59 76.262 0.316 7.66 16.08 7.42
8/19/2022 11:00:00 PM 24.64 76.352 0.317 7.69 16.2 7.39
8/19/2022 11:15:00 PM 24.48 76.064 0.317 7.63 17.35 7.1
8/19/2022 11:30:00 PM 24.45 76.01 0.317 7.61 13.84 7.25
8/19/2022 11:45:00 PM 24.31 75.758 0.317 7.6 15.55 6.99
8/20/2022 12:00:00 AM 24.23 75.614 0.317 7.56 15.03 6.87
8/20/2022 12:15:00 AM 24.14 75.452 0.317 7.58 16 6.78
8/20/2022 12:30:00 AM 24.1 75.38 0.317 7.53 15.98 6.66
8/20/2022 12:45:00 AM 24 75.2 0.317 7.56 17.08 6.66
8/20/2022 1:00:00 AM 23.89 75.002 0.317 7.54 15.94 6.52
8/20/2022 1:15:00 AM 23.89 75.002 0.316 7.53 17.71 6.59
8/20/2022 1:30:00 AM 23.8 74.84 0.317 7.52 16.99 6.37
8/20/2022 1:45:00 AM 23.72 74.696 0.317 7.48 17.79 6.31
8/20/2022 2:00:00 AM 23.67 74.606 0.316 7.5 24.79 6.51
8/20/2022 2:15:00 AM 23.55 74.39 0.317 7.49 22.63 6.15
8/20/2022 2:30:00 AM 23.5 74.3 0.317 7.5 17.4 6.21
8/20/2022 2:45:00 AM 23.44 74.192 0.317 7.48 19.77 6.04
8/20/2022 3:00:00 AM 23.37 74.066 0.317 7.44 18.79 6.06
8/20/2022 3:15:00 AM 23.25 73.85 0.317 7.47 18.05 6.16
8/20/2022 3:30:00 AM 23.19 73.742 0.317 7.48 32.54 6.17
8/20/2022 3:45:00 AM 23.17 73.706 0.317 7.43 23.25 6.08
8/20/2022 4:00:00 AM 23.05 73.49 0.317 7.44 22.48 6.03
8/20/2022 4:15:00 AM 23 73.4 0.317 7.43 18.31 5.93
8/20/2022 4:30:00 AM 22.99 73.382 0.317 7.42 22.54 5.91
8/20/2022 4:45:00 AM 22.92 73.256 0.317 7.42 26.42 5.94
8/20/2022 5:00:00 AM 22.83 73.094 0.317 7.41 23.17 5.88
8/20/2022 5:15:00 AM 22.79 73.022 0.317 7.41 22.91 5.87
8/20/2022 5:30:00 AM 22.75 72.95 0.317 7.4 19.57 5.82
8/20/2022 5:45:00 AM 22.64 72.752 0.316 7.4 21.31 5.74
8/20/2022 6:00:00 AM 22.59 72.662 0.316 7.39 20.39 5.66
8/20/2022 6:15:00 AM 22.48 72.464 0.316 7.4 24.2 5.69
8/20/2022 6:30:00 AM 22.45 72.41 0.316 7.36 22.12 5.63
8/20/2022 6:45:00 AM 22.38 72.284 0.316 7.37 17.93 5.58
8/20/2022 7:00:00 AM 22.36 72.248 0.316 7.36 19.38 5.52
8/20/2022 7:15:00 AM 22.32 72.176 0.316 7.36 22.14 5.42
8/20/2022 7:30:00 AM 22.28 72.104 0.316 7.35 28.32 5.39
8/20/2022 7:45:00 AM 22.18 71.924 0.316 7.34 19.14 5.49
8/20/2022 8:00:00 AM 22.14 71.852 0.316 7.36 19.91 5.4
8/20/2022 8:15:00 AM 22.11 71.798 0.316 7.33 18.07 5.2
8/20/2022 8:30:00 AM 22.12 71.816 0.316 7.35 19.89 5.47
8/20/2022 8:45:00 AM 22.21 71.978 0.315 7.38 16.32 5.75
8/20/2022 9:00:00 AM 22.26 72.068 0.316 7.4 15.47 5.77
8/20/2022 9:15:00 AM 22.2 71.96 0.315 7.39 16.69 5.74
8/20/2022 9:30:00 AM 22.28 72.104 0.315 7.39 15.91 5.8
8/20/2022 9:45:00 AM 22.37 72.266 0.315 7.39 16.15 5.75
8/20/2022 10:00:00 AM 22.49 72.482 0.315 7.4 14 5.77
8/20/2022 10:15:00 AM 22.57 72.626 0.315 7.42 13.41 5.79
8/20/2022 10:30:00 AM 22.64 72.752 0.315 7.41 14.78 5.76
8/20/2022 10:45:00 AM 22.67 72.806 0.315 7.37 15.14 5.63
8/20/2022 11:00:00 AM 22.75 72.95 0.315 7.42 15.06 5.91
8/20/2022 11:15:00 AM 22.96 73.328 0.317 7.42 17.14 5.94
8/20/2022 11:30:00 AM 23.06 73.508 0.316 7.45 17.46 6.16
8/20/2022 11:45:00 AM 22.99 73.382 0.316 7.48 17.61 6.81
8/20/2022 12:00:00 PM 22.85 73.13 0.315 7.52 18.75 7.26
8/20/2022 12:15:00 PM 22.98 73.364 0.316 7.52 17.63 6.85
8/20/2022 12:30:00 PM 23.36 74.048 0.317 7.46 14.83 6.72
8/20/2022 12:45:00 PM 23.33 73.994 0.316 7.55 17.44 7.3
8/20/2022 1:00:00 PM 23.58 74.444 0.316 7.57 17.53 7.59
8/20/2022 1:15:00 PM 23.61 74.498 0.316 7.58 19.54 7.46
8/20/2022 1:30:00 PM 23.57 74.426 0.316 7.58 21.77 7.43
8/20/2022 1:45:00 PM 23.55 74.39 0.316 7.61 19.1 7.56
8/20/2022 2:00:00 PM 23.91 75.038 0.316 7.59 16.35 7.51
8/20/2022 2:15:00 PM 23.8 74.84 0.316 7.63 21.48 7.8
8/20/2022 2:30:00 PM 23.9 75.02 0.316 7.67 20.84 7.93
8/20/2022 2:45:00 PM 23.78 74.804 0.316 7.69 20.64 7.91
8/20/2022 3:00:00 PM 23.61 74.498 0.316 7.69 20.04 7.83
8/20/2022 3:15:00 PM 23.71 74.67799 0.316 7.67 20.07 7.78
8/20/2022 3:30:00 PM 23.89 75.002 0.317 7.65 25.42 7.48
8/20/2022 3:45:00 PM 24.35 75.83 0.316 7.62 15.59 7.4
8/20/2022 4:00:00 PM 24.52 76.136 0.316 7.67 15.44 7.5
8/20/2022 4:15:00 PM 24.17 75.506 0.316 7.62 23.96 7.52
8/20/2022 4:30:00 PM 24.35 75.83 0.316 7.69 18.25 7.76
8/20/2022 4:45:00 PM 24.56 76.208 0.317 7.66 17.45 7.78
8/20/2022 5:00:00 PM 24.67 76.406 0.317 7.63 17.55 7.57
8/20/2022 5:15:00 PM 24.4 75.92 0.317 7.7 20.02 7.71
8/20/2022 5:30:00 PM 24.61 76.298 0.317 7.71 20.06 7.79
8/20/2022 5:45:00 PM 24.95 76.91 0.317 7.72 16.98 7.85
8/20/2022 6:00:00 PM 24.46 76.028 0.317 7.7 20.55 7.75
8/20/2022 6:15:00 PM 24.26 75.668 0.317 7.69 21.2 7.67
8/20/2022 6:30:00 PM 24.42 75.956 0.317 7.7 16.57 7.54
8/20/2022 6:45:00 PM 24.51 76.118 0.317 7.68 21.95 7.46
8/20/2022 7:00:00 PM 24.44 75.992 0.318 7.59 21.69 7.16
8/20/2022 7:15:00 PM 24.44 75.992 0.318 7.64 19.41 7.2
8/20/2022 7:30:00 PM 24.54 76.172 0.317 7.61 17.4 7.24
8/20/2022 7:45:00 PM 24.55 76.19 0.317 7.63 16.87 7.1
8/20/2022 8:00:00 PM 24.56 76.208 0.318 7.59 16.33 6.97
8/20/2022 8:15:00 PM 24.56 76.208 0.318 7.62 18.22 6.98
8/20/2022 8:30:00 PM 24.66 76.388 0.317 7.65 16.77 7.33
8/20/2022 8:45:00 PM 24.83 76.694 0.317 7.68 17.44 7.4
8/20/2022 9:00:00 PM 24.86 76.748 0.317 7.65 16.63 7.36
8/20/2022 9:15:00 PM 24.68 76.424 0.318 7.63 16.35 7.19
8/20/2022 9:30:00 PM 24.74 76.532 0.318 7.65 15.76 7.19
8/20/2022 9:45:00 PM 24.79 76.622 0.317 7.62 14.7 7.28
8/20/2022 10:00:00 PM 24.75 76.55 0.317 7.68 13.78 7.34
8/20/2022 10:15:00 PM 24.76 76.568 0.317 7.68 14.41 7.35
8/20/2022 10:30:00 PM 24.65 76.37 0.317 7.63 12.84 7.18
8/20/2022 10:45:00 PM 24.66 76.388 0.317 7.63 13.84 7.15
8/20/2022 11:00:00 PM 24.62 76.316 0.317 7.61 17.44 7.23
8/20/2022 11:15:00 PM 24.56 76.208 0.318 7.6 14.85 6.87
8/20/2022 11:30:00 PM 24.5 76.1 0.318 7.6 12.99 6.97
8/20/2022 11:45:00 PM 24.39 75.902 0.318 7.58 14.95 6.59
8/21/2022 12:00:00 AM 24.36 75.848 0.318 7.55 14.36 6.53
8/21/2022 12:15:00 AM 24.27 75.686 0.318 7.52 16.12 6.57
8/21/2022 12:30:00 AM 24.2 75.56 0.318 7.56 13.57 6.52
8/21/2022 12:45:00 AM 24.18 75.524 0.317 7.55 17.15 6.58
8/21/2022 1:00:00 AM 24.13 75.434 0.318 7.51 18.16 6.46
8/21/2022 1:15:00 AM 24.06 75.308 0.318 7.53 15.64 6.52
8/21/2022 1:30:00 AM 24 75.2 0.317 7.54 19.08 6.57
8/21/2022 1:45:00 AM 23.95 75.11 0.317 7.52 16.4 6.56
8/21/2022 2:00:00 AM 23.9 75.02 0.317 7.45 16.12 6.43
8/21/2022 2:15:00 AM 23.83 74.894 0.318 7.49 18.04 6.33
8/21/2022 2:30:00 AM 23.78 74.804 0.317 7.46 19.01 6.38
8/21/2022 2:45:00 AM 23.73 74.714 0.318 7.49 19.07 6.26
8/21/2022 3:00:00 AM 23.68 74.624 0.317 7.45 18.51 6.32
8/21/2022 3:15:00 AM 23.63 74.534 0.317 7.49 23.93 6.35
8/21/2022 3:30:00 AM 23.57 74.426 0.317 7.48 18 6.2
8/21/2022 3:45:00 AM 23.5 74.3 0.318 7.42 19.94 6
8/21/2022 4:00:00 AM 23.5 74.3 0.318 7.44 20.83 5.99
8/21/2022 4:15:00 AM 23.47 74.246 0.318 7.43 16.82 5.89
8/21/2022 4:30:00 AM 23.39 74.102 0.318 7.39 19.94 5.81
8/21/2022 4:45:00 AM 23.37 74.066 0.318 7.42 15.84 5.77
8/21/2022 5:00:00 AM 23.31 73.958 0.318 7.41 15.84 5.7
8/21/2022 5:15:00 AM 23.27 73.886 0.319 7.36 17.35 5.56
8/21/2022 5:30:00 AM 23.2 73.76 0.319 7.4 16.96 5.5
8/21/2022 5:45:00 AM 23.13 73.634 0.319 7.4 16.82 5.58
8/21/2022 6:00:00 AM 23.12 73.616 0.319 7.35 17.4 5.5
8/21/2022 6:15:00 AM 23.03 73.454 0.319 7.35 16.38 5.44
8/21/2022 6:30:00 AM 23.02 73.436 0.318 7.39 16.77 5.49
8/21/2022 6:45:00 AM 23.01 73.418 0.318 7.37 16.13 5.37
8/21/2022 7:00:00 AM 22.97 73.346 0.319 7.32 16.68 5.18
8/21/2022 7:15:00 AM 22.95 73.31 0.318 7.37 17.41 5.3
8/21/2022 7:30:00 AM 22.87 73.166 0.319 7.34 18.57 5.28
8/21/2022 7:45:00 AM 22.86 73.148 0.318 7.36 16.79 5.24
8/21/2022 8:00:00 AM 22.83 73.094 0.319 7.36 17.85 5.23
8/21/2022 8:15:00 AM 22.77 72.986 0.319 7.33 17.28 5.34
8/21/2022 8:30:00 AM 22.81 73.058 0.318 7.35 16.38 5.2
8/21/2022 8:45:00 AM 22.79 73.022 0.319 7.35 20.06 5.21
8/21/2022 9:00:00 AM 22.82 73.076 0.318 7.31 20.45 5.22
8/21/2022 9:15:00 AM 22.82 73.076 0.318 7.33 18.44 5.29
8/21/2022 9:30:00 AM 22.85 73.13 0.318 7.33 15.81 5.22
8/21/2022 9:45:00 AM 22.88 73.184 0.318 7.33 15.37 5.16
8/21/2022 10:00:00 AM 22.92 73.256 0.318 7.37 15.96 5.31
8/21/2022 10:15:00 AM 22.95 73.31 0.318 7.38 16.51 5.49
8/21/2022 10:30:00 AM 23 73.4 0.317 7.45 15.7 6
8/21/2022 10:45:00 AM 23.11 73.598 0.317 7.45 17.01 6.03
8/21/2022 11:00:00 AM 23.24 73.832 0.318 7.46 17.12 6.09
8/21/2022 11:15:00 AM 23.52 74.336 0.318 7.48 15.93 6.17
8/21/2022 11:30:00 AM 23.68 74.624 0.318 7.5 15.64 6.24
8/21/2022 11:45:00 AM 23.82 74.876 0.318 7.54 16.61 6.56
8/21/2022 12:00:00 PM 24.1 75.38 0.318 7.49 16.02 6.54
8/21/2022 12:15:00 PM 24.23 75.614 0.318 7.56 17.68 6.6
8/21/2022 12:30:00 PM 24.32 75.776 0.318 7.57 17.01 6.78
8/21/2022 12:45:00 PM 24.56 76.208 0.318 7.63 15.89 7.17
8/21/2022 1:00:00 PM 24.89 76.802 0.318 7.66 16.22 7.29
8/21/2022 1:15:00 PM 24.94 76.892 0.318 7.64 16.35 7.19
8/21/2022 1:30:00 PM 25.02 77.036 0.318 7.65 16.14 7.22
8/21/2022 1:45:00 PM 25.14 77.252 0.319 7.6 15.58 7.24
8/21/2022 2:00:00 PM 25.2 77.36 0.318 7.73 15.57 7.61
8/21/2022 2:15:00 PM 25.46 77.828 0.319 7.77 15.55 7.85
8/21/2022 2:30:00 PM 25.55 77.99 0.319 7.8 15.53 8
8/21/2022 2:45:00 PM 25.58 78.044 0.319 7.77 16.54 7.74
8/21/2022 3:00:00 PM 25.74 78.332 0.319 7.82 15.49 7.96
8/21/2022 3:15:00 PM 25.71 78.278 0.319 7.76 16.9 7.92
8/21/2022 3:30:00 PM 25.53 77.954 0.319 7.71 19.24 7.69
8/21/2022 3:45:00 PM 25.45 77.81 0.319 7.73 16.05 7.57
8/21/2022 4:00:00 PM 25.57 78.026 0.32 7.81 14.98 8.05
8/21/2022 4:15:00 PM 25.52 77.936 0.32 7.88 14.27 8.3
8/21/2022 4:30:00 PM 25.11 77.198 0.32 7.7 17.13 7.43
8/21/2022 4:45:00 PM 25.2 77.36 0.32 7.7 14.78 7.48
8/21/2022 5:00:00 PM 25.21 77.378 0.32 7.68 13.22 7.5
8/21/2022 5:15:00 PM 25.3 77.54 0.319 7.78 12.94 7.9
8/21/2022 5:30:00 PM 25.2 77.36 0.32 7.84 16.16 8.07
8/21/2022 5:45:00 PM 25.15 77.27 0.319 7.88 15.79 8.23
8/21/2022 6:00:00 PM 25.02 77.036 0.32 7.7 14.75 7.35
8/21/2022 6:15:00 PM 24.96 76.92799 0.32 7.68 15.76 7.31
8/21/2022 6:30:00 PM 24.99 76.982 0.32 7.72 14.73 7.36
8/21/2022 6:45:00 PM 24.95 76.91 0.319 7.68 14.21 7.59
8/21/2022 7:00:00 PM 24.78 76.604 0.32 7.7 24 7.17
8/21/2022 7:15:00 PM 24.66 76.388 0.319 7.72 15.61 7.45
8/21/2022 7:30:00 PM 24.66 76.388 0.319 7.71 48.07 7.35
8/21/2022 7:45:00 PM 24.66 76.388 0.319 7.76 17.39 7.46
8/21/2022 8:00:00 PM 24.64 76.352 0.319 7.77 14.48 7.71
8/21/2022 8:15:00 PM 24.6 76.28 0.319 7.78 15.87 7.8
8/21/2022 8:30:00 PM 24.56 76.208 0.319 7.79 13.15 7.77
8/21/2022 8:45:00 PM 24.47 76.046 0.319 7.76 14.92 7.54
8/21/2022 9:00:00 PM 24.43 75.974 0.319 7.77 13.2 7.59
8/21/2022 9:15:00 PM 24.39 75.902 0.319 7.75 13.19 7.48
8/21/2022 9:30:00 PM 24.36 75.848 0.319 7.67 12.8 7.17
8/21/2022 9:45:00 PM 24.31 75.758 0.32 7.64 14.56 7.03
8/21/2022 10:00:00 PM 24.27 75.686 0.32 7.66 15.66 7.01
8/21/2022 10:15:00 PM 24.22 75.596 0.32 7.59 14.25 6.88
8/21/2022 10:30:00 PM 24.17 75.506 0.32 7.61 14.38 6.85
8/21/2022 10:45:00 PM 24.14 75.452 0.32 7.61 16.37 6.73
8/21/2022 11:00:00 PM 24.09 75.362 0.32 7.62 16.62 6.8
8/21/2022 11:15:00 PM 24.05 75.29 0.319 7.61 16.53 6.78
8/21/2022 11:30:00 PM 23.98 75.164 0.32 7.53 18.63 6.56
8/21/2022 11:45:00 PM 23.96 75.128 0.32 7.54 18.93 6.52
8/22/2022 12:00:00 AM 23.89 75.002 0.32 7.52 17.98 6.36
8/22/2022 12:15:00 AM 23.85 74.93 0.32 7.52 19.48 6.37
8/22/2022 12:30:00 AM 23.83 74.894 0.32 7.52 17.95 6.29
8/22/2022 12:45:00 AM 23.77 74.786 0.32 7.52 15.62 6.32
8/22/2022 1:00:00 AM 23.75 74.75 0.32 7.52 19.11 6.31
8/22/2022 1:15:00 AM 23.69 74.642 0.32 7.5 17.56 6.14
8/22/2022 1:30:00 AM 23.63 74.534 0.32 7.51 17.57 6.09
8/22/2022 1:45:00 AM 23.61 74.498 0.32 7.46 17.26 6.15
8/22/2022 2:00:00 AM 23.58 74.444 0.32 7.48 17.11 6.01
8/22/2022 2:15:00 AM 23.57 74.426 0.32 7.41 19.09 5.79
8/22/2022 2:30:00 AM 23.5 74.3 0.32 7.43 18.51 5.77
8/22/2022 2:45:00 AM 23.46 74.228 0.32 7.45 17.65 5.71
8/22/2022 3:00:00 AM 23.43 74.174 0.321 7.39 16.89 5.58
8/22/2022 3:15:00 AM 23.43 74.174 0.32 7.41 16.12 5.64
8/22/2022 3:30:00 AM 23.37 74.066 0.321 7.42 16.4 5.5
8/22/2022 3:45:00 AM 23.34 74.012 0.321 7.36 16.28 5.37
8/22/2022 4:00:00 AM 23.34 74.012 0.321 7.39 17.74 5.25
8/22/2022 4:15:00 AM 23.31 73.958 0.321 7.38 15.88 5.16
8/22/2022 4:30:00 AM 23.27 73.886 0.321 7.37 15.53 5.18
8/22/2022 4:45:00 AM 23.21 73.778 0.321 7.35 16.46 5.19
8/22/2022 5:00:00 AM 23.21 73.778 0.32 7.38 16.3 5.28
8/22/2022 5:15:00 AM 23.18 73.724 0.32 7.31 15.65 5.09
8/22/2022 5:30:00 AM 23.16 73.688 0.32 7.35 15.96 5.04
8/22/2022 5:45:00 AM 23.07 73.526 0.32 7.33 16.63 5.25
8/22/2022 6:00:00 AM 23.07 73.526 0.319 7.34 16.16 5.14
8/22/2022 6:15:00 AM 23.05 73.49 0.32 7.32 14.69 5.01
8/22/2022 6:30:00 AM 23.03 73.454 0.32 7.3 16.46 4.61
8/22/2022 6:45:00 AM 22.98 73.364 0.32 7.33 16.52 4.8
8/22/2022 7:00:00 AM 22.97 73.346 0.319 7.32 15.94 4.78
8/22/2022 7:15:00 AM 22.95 73.31 0.319 7.32 14.96 4.77
8/22/2022 7:30:00 AM 22.94 73.292 0.319 7.27 15.72 4.69
8/22/2022 7:45:00 AM 22.9 73.22 0.319 7.32 16.38 4.73
8/22/2022 8:00:00 AM 22.88 73.184 0.319 7.27 15.19 4.59
8/22/2022 8:15:00 AM 22.83 73.094 0.319 7.29 15.16 4.87
8/22/2022 8:30:00 AM 22.85 73.13 0.318 7.29 14.69 4.82
8/22/2022 8:45:00 AM 22.83 73.094 0.318 7.28 15.32 4.69
8/22/2022 9:00:00 AM 22.81 73.058 0.317 7.33 15.13 4.89
8/22/2022 9:15:00 AM 22.81 73.058 0.318 7.31 17.29 4.81
8/22/2022 9:30:00 AM 22.81 73.058 0.318 7.28 14.93 4.78
8/22/2022 9:45:00 AM 22.82 73.076 0.317 7.28 14.5 4.79
8/22/2022 10:00:00 AM 22.84 73.112 0.317 7.29 16.34 4.93
8/22/2022 10:15:00 AM 22.93 73.274 0.317 7.27 15.81 4.73
8/22/2022 10:30:00 AM 22.99 73.382 0.317 7.3 18.25 5.02
8/22/2022 10:45:00 AM 23.06 73.508 0.317 7.3 16.03 4.96
8/22/2022 11:00:00 AM 23.16 73.688 0.317 7.3 16.1 4.91
8/22/2022 11:15:00 AM 23.26 73.868 0.317 7.32 17.24 5.19
8/22/2022 11:30:00 AM 23.39 74.102 0.317 7.34 15.5 5.35
8/22/2022 11:45:00 AM 23.51 74.318 0.317 7.36 16.08 5.47
8/22/2022 12:00:00 PM 23.42 74.156 0.317 7.42 17.31 6.04
8/22/2022 12:15:00 PM 23.42 74.156 0.316 7.45 16.87 6.22
8/22/2022 12:30:00 PM 23.52 74.336 0.316 7.44 17.62 6.58
8/22/2022 12:45:00 PM 23.67 74.606 0.316 7.47 18.41 6.56
8/22/2022 1:00:00 PM 23.56 74.408 0.316 7.47 19.59 6.47
8/22/2022 1:15:00 PM 23.43 74.174 0.317 7.45 17.65 6.27
8/22/2022 1:30:00 PM 23.4 74.12 0.317 7.45 21.22 6.28
8/22/2022 1:45:00 PM 23.34 74.012 0.317 7.42 17.87 6.05
8/22/2022 2:00:00 PM 23.57 74.426 0.317 7.42 19.43 6.05
8/22/2022 2:15:00 PM 23.76 74.768 0.317 7.38 18.25 5.85
8/22/2022 2:30:00 PM 23.84 74.912 0.317 7.44 16.93 6.09
8/22/2022 2:45:00 PM 23.88 74.984 0.317 7.49 17.13 6.39
8/22/2022 3:00:00 PM 23.87 74.966 0.317 7.45 19.79 6.22
8/22/2022 3:15:00 PM 23.91 75.038 0.317 7.49 19.56 6.51
8/22/2022 3:30:00 PM 24.05 75.29 0.317 7.53 17.45 6.92
8/22/2022 3:45:00 PM 24.02 75.236 0.317 7.49 18.83 6.63
8/22/2022 4:00:00 PM 24.29 75.722 0.317 7.6 16.97 7.16
8/22/2022 4:15:00 PM 24.13 75.434 0.317 7.5 19.02 6.95
8/22/2022 4:30:00 PM 23.92 75.056 0.317 7.55 16.54 6.92
8/22/2022 4:45:00 PM 23.86 74.948 0.317 7.6 17.67 6.99
8/22/2022 5:00:00 PM 24.03 75.254 0.317 7.56 16 6.95
8/22/2022 5:15:00 PM 24.29 75.722 0.317 7.59 17.39 7.32
8/22/2022 5:30:00 PM 24.28 75.704 0.316 7.59 16.68 7.15
8/22/2022 5:45:00 PM 24.36 75.848 0.317 7.62 15.6 7.38
8/22/2022 6:00:00 PM 24.52 76.136 0.317 7.65 19.88 7.63
8/22/2022 6:15:00 PM 24.26 75.668 0.317 7.59 49.69 6.9
8/22/2022 6:30:00 PM 24.07 75.326 0.317 7.62 22.76 7.05
8/22/2022 6:45:00 PM 24.02 75.236 0.317 7.58 19.3 6.77
8/22/2022 7:00:00 PM 24.29 75.722 0.317 7.6 18.21 7.19
8/22/2022 7:15:00 PM 24.52 76.136 0.316 7.62 26.85 7.33
8/22/2022 7:30:00 PM 24.34 75.812 0.317 7.57 16.92 6.96
8/22/2022 7:45:00 PM 24.18 75.524 0.317 7.58 25.39 6.9
8/22/2022 8:00:00 PM 24.14 75.452 0.318 7.57 16.16 6.77
8/22/2022 8:15:00 PM 24.23 75.614 0.317 7.61 15.55 6.86
8/22/2022 8:30:00 PM 24.43 75.974 0.316 7.7 13.91 7.56
8/22/2022 8:45:00 PM 24.44 75.992 0.316 7.69 13.67 7.53
8/22/2022 9:00:00 PM 24.4 75.92 0.316 7.72 12.64 7.63
8/22/2022 9:15:00 PM 24.28 75.704 0.317 7.64 16.53 7.11
8/22/2022 9:30:00 PM 24.23 75.614 0.317 7.59 13.95 7.06
8/22/2022 9:45:00 PM 24.17 75.506 0.317 7.55 14.56 6.63
8/22/2022 10:00:00 PM 24.24 75.632 0.317 7.55 14.73 6.77
8/22/2022 10:15:00 PM 24.22 75.596 0.316 7.6 14.08 7.01
8/22/2022 10:30:00 PM 24.14 75.452 0.316 7.54 15.54 6.88
8/22/2022 10:45:00 PM 24.11 75.398 0.316 7.6 20.01 6.93
8/22/2022 11:00:00 PM 24.05 75.29 0.316 7.57 18.86 6.73
8/22/2022 11:15:00 PM 24.01 75.218 0.316 7.59 14.93 6.79
8/22/2022 11:30:00 PM 23.98 75.164 0.316 7.58 18.44 6.84
8/22/2022 11:45:00 PM 23.91 75.038 0.317 7.53 16.92 6.49
8/23/2022 12:00:00 AM 23.9 75.02 0.316 7.56 16.07 6.67
8/23/2022 12:15:00 AM 23.86 74.948 0.316 7.53 15.47 6.48
8/23/2022 12:30:00 AM 23.79 74.82201 0.316 7.48 15.61 6.39
8/23/2022 12:45:00 AM 23.77 74.786 0.316 7.52 15.73 6.31
8/23/2022 1:00:00 AM 23.74 74.732 0.316 7.52 16.67 6.32
8/23/2022 1:15:00 AM 23.67 74.606 0.316 7.5 14.66 6.28
8/23/2022 1:30:00 AM 23.68 74.624 0.317 7.47 14.21 6.08
8/23/2022 1:45:00 AM 23.61 74.498 0.317 7.44 14.42 5.79
8/23/2022 2:00:00 AM 23.6 74.48 0.317 7.4 15.19 5.77
8/23/2022 2:15:00 AM 23.55 74.39 0.317 7.41 14.12 5.75
8/23/2022 2:30:00 AM 23.49 74.282 0.317 7.43 14.74 5.87
8/23/2022 2:45:00 AM 23.47 74.246 0.317 7.43 15.35 5.68
8/23/2022 3:00:00 AM 23.47 74.246 0.317 7.42 15.26 5.63
8/23/2022 3:15:00 AM 23.45 74.21 0.317 7.39 13.96 5.68
8/23/2022 3:30:00 AM 23.38 74.084 0.317 7.42 14.25 5.64
8/23/2022 3:45:00 AM 23.37 74.066 0.317 7.4 13.48 5.51
8/23/2022 4:00:00 AM 23.35 74.03 0.317 7.35 14.76 5.39
8/23/2022 4:15:00 AM 23.33 73.994 0.317 7.34 16.39 5.21
8/23/2022 4:30:00 AM 23.31 73.958 0.317 7.35 15.39 5.24
8/23/2022 4:45:00 AM 23.28 73.904 0.317 7.33 16.96 5.22
8/23/2022 5:00:00 AM 23.24 73.832 0.317 7.34 15.29 5.24
8/23/2022 5:15:00 AM 23.24 73.832 0.317 7.34 14.29 5.18
8/23/2022 5:30:00 AM 23.22 73.796 0.317 7.31 14.77 5.01
8/23/2022 5:45:00 AM 23.2 73.76 0.317 7.34 17.33 5.03
8/23/2022 6:00:00 AM 23.17 73.706 0.317 7.33 14.9 4.95
8/23/2022 6:15:00 AM 23.13 73.634 0.317 7.29 15.38 5
8/23/2022 6:30:00 AM 23.12 73.616 0.318 7.28 15.08 4.7
8/23/2022 6:45:00 AM 23.11 73.598 0.318 7.3 14.44 4.63
8/23/2022 7:00:00 AM 23.08 73.544 0.318 7.3 14.84 4.64
8/23/2022 7:15:00 AM 23.06 73.508 0.318 7.25 15.97 4.59
8/23/2022 7:30:00 AM 23.03 73.454 0.318 7.28 18.42 4.51
8/23/2022 7:45:00 AM 23.04 73.472 0.318 7.28 14.76 4.5
8/23/2022 8:00:00 AM 22.99 73.382 0.318 7.29 15.18 4.63
8/23/2022 8:15:00 AM 23.01 73.418 0.318 7.25 13.89 4.64
8/23/2022 8:30:00 AM 23.02 73.436 0.318 7.28 14.41 4.57
8/23/2022 8:45:00 AM 23.03 73.454 0.317 7.24 13.1 4.64
8/23/2022 9:00:00 AM 23.04 73.472 0.317 7.28 14.67 4.87
8/23/2022 9:15:00 AM 23.06 73.508 0.317 7.27 15.02 4.71
8/23/2022 9:30:00 AM 23.18 73.724 0.317 7.29 16.19 4.87
8/23/2022 9:45:00 AM 23.25 73.85 0.317 7.34 16.99 5.16
8/23/2022 10:00:00 AM 23.39 74.102 0.317 7.39 16.32 5.37
8/23/2022 10:15:00 AM 23.52 74.336 0.317 7.4 15.06 5.6
8/23/2022 10:30:00 AM 23.73 74.714 0.317 7.43 15.43 5.85
8/23/2022 10:45:00 AM 23.8 74.84 0.317 7.47 14.55 5.99
8/23/2022 11:00:00 AM 23.8 74.84 0.317 7.45 16.46 5.93
8/23/2022 11:15:00 AM 23.6 74.48 0.317 7.42 16.86 5.78
8/23/2022 11:30:00 AM 23.41 74.138 0.318 7.37 18.13 5.48
8/23/2022 11:45:00 AM 23.4 74.12 0.317 7.38 16.92 5.61
8/23/2022 12:00:00 PM 23.65 74.57 0.317 7.41 13.77 5.8
8/23/2022 12:15:00 PM 24.07 75.326 0.317 7.53 13.36 6.57
8/23/2022 12:30:00 PM 24.32 75.776 0.317 7.5 13.57 6.56
8/23/2022 12:45:00 PM 24.01 75.218 0.317 7.46 17.31 6.33
8/23/2022 1:00:00 PM 23.72 74.696 0.317 7.46 16.16 6.24
8/23/2022 1:15:00 PM 24.4 75.92 0.317 7.47 17.55 6.35
8/23/2022 1:30:00 PM 24.98 76.964 0.317 7.61 17.55 7.25
8/23/2022 1:45:00 PM 25.16 77.288 0.317 7.69 12.94 7.31
8/23/2022 2:00:00 PM 25.41 77.738 0.318 7.67 12.49 7.35
8/23/2022 2:15:00 PM 24.31 75.758 0.317 7.55 16.51 6.88
8/23/2022 2:30:00 PM 23.92 75.056 0.317 7.51 16.32 6.54
8/23/2022 2:45:00 PM 24.91 76.838 0.318 7.54 14.04 7.09
8/23/2022 3:00:00 PM 24.45 76.01 0.317 7.47 16.77 6.52
8/23/2022 3:15:00 PM 24.35 75.83 0.318 7.53 22.97 6.74
8/23/2022 3:30:00 PM 24.21 75.578 0.319 7.61 20.93 7.38
8/23/2022 3:45:00 PM 24.26 75.668 0.318 7.8 11.68 8.21
8/23/2022 4:00:00 PM 24.52 76.136 0.316 7.78 17.42 8.16
8/23/2022 4:15:00 PM 24.51 76.118 0.316 7.71 19.01 7.78
8/23/2022 4:30:00 PM 24.49 76.082 0.316 7.69 15.63 7.74
8/23/2022 4:45:00 PM 24.26 75.668 0.318 7.6 17.11 7.32
8/23/2022 5:00:00 PM 24.39 75.902 0.317 7.63 13.87 7.32
8/23/2022 5:15:00 PM 24.74 76.532 0.316 7.72 12.29 7.9
8/23/2022 5:30:00 PM 24.74 76.532 0.316 7.74 12.87 8
8/23/2022 5:45:00 PM 24.46 76.028 0.317 7.68 14.52 7.73
8/23/2022 6:00:00 PM 24.22 75.596 0.318 7.7 14.54 7.72
8/23/2022 6:15:00 PM 24.35 75.83 0.317 7.71 14.15 7.92
8/23/2022 6:30:00 PM 24.4 75.92 0.317 7.76 13.31 8.06
8/23/2022 6:45:00 PM 24.49 76.082 0.317 7.72 12.61 7.87
8/23/2022 7:00:00 PM 24.47 76.046 0.304 7.73 16.29 7.87
8/23/2022 7:15:00 PM 24.33 75.794 0.318 7.73 13.44 7.92
8/23/2022 7:30:00 PM 24.39 75.902 0.317 7.93 12.41 8.56
8/23/2022 7:45:00 PM 24.35 75.83 0.317 7.9 12.61 8.51
8/23/2022 8:00:00 PM 24.29 75.722 0.318 7.87 13.43 8.41
8/23/2022 8:15:00 PM 24.38 75.884 0.317 7.85 14.18 8.19
8/23/2022 8:30:00 PM 24.33 75.794 0.317 7.8 15.11 8.1
8/23/2022 8:45:00 PM 24.3 75.74 0.317 7.81 13.95 8.1
8/23/2022 9:00:00 PM 24.28 75.704 0.317 7.79 17.01 7.85
8/23/2022 9:15:00 PM 24.24 75.632 0.317 7.79 12.4 7.85
8/23/2022 9:30:00 PM 24.15 75.47 0.318 7.73 13.12 7.6
8/23/2022 9:45:00 PM 24.15 75.47 0.318 7.69 12.35 7.57
8/23/2022 10:00:00 PM 24.1 75.38 0.318 7.7 15.91 7.67
8/23/2022 10:15:00 PM 24.09 75.362 0.317 7.71 12.86 7.71
8/23/2022 10:30:00 PM 24 75.2 0.317 7.73 13.5 7.55
8/23/2022 10:45:00 PM 23.92 75.056 0.318 7.71 12.82 7.56
8/23/2022 11:00:00 PM 23.96 75.128 0.317 7.68 13.26 7.44
8/23/2022 11:15:00 PM 23.86 74.948 0.318 7.66 14.26 7.37
8/23/2022 11:30:00 PM 23.82 74.876 0.318 7.65 12.28 7.32
8/23/2022 11:45:00 PM 23.81 74.858 0.317 7.68 15.78 7.37
8/24/2022 12:00:00 AM 23.77 74.786 0.317 7.61 14.67 7.18
8/24/2022 12:15:00 AM 23.72 74.696 0.317 7.61 19.54 7.09
8/24/2022 12:30:00 AM 23.62 74.516 0.318 7.6 15.69 7.12
8/24/2022 12:45:00 AM 23.62 74.516 0.318 7.62 19 7.01
8/24/2022 1:00:00 AM 23.58 74.444 0.317 7.61 19.98 7.03
8/24/2022 1:15:00 AM 23.59 74.462 0.317 7.54 16.73 6.6
8/24/2022 1:30:00 AM 23.55 74.39 0.317 7.57 19.28 6.73
8/24/2022 1:45:00 AM 23.46 74.228 0.318 7.58 16.52 6.9
8/24/2022 2:00:00 AM 23.44 74.192 0.317 7.57 13.9 6.78
8/24/2022 2:15:00 AM 23.34 74.012 0.318 7.57 14.51 6.76
8/24/2022 2:30:00 AM 23.37 74.066 0.318 7.53 14.45 6.62
8/24/2022 2:45:00 AM 23.26 73.868 0.318 7.55 26.52 6.73
8/24/2022 3:00:00 AM 23.29 73.922 0.317 7.51 20.52 6.39
8/24/2022 3:15:00 AM 23.19 73.742 0.318 7.48 15.8 6.42
8/24/2022 3:30:00 AM 23.19 73.742 0.318 7.49 16.31 6.33
8/24/2022 3:45:00 AM 23.16 73.688 0.318 7.45 17.34 6.01
8/24/2022 4:00:00 AM 23.12 73.616 0.318 7.46 14.1 6.22
8/24/2022 4:15:00 AM 23.06 73.508 0.318 7.44 16.67 6.1
8/24/2022 4:30:00 AM 23.05 73.49 0.318 7.43 14.16 6.02
8/24/2022 4:45:00 AM 22.94 73.292 0.318 7.43 14.69 6
8/24/2022 5:00:00 AM 22.87 73.166 0.318 7.43 13.69 6.16
8/24/2022 5:15:00 AM 22.88 73.184 0.318 7.42 14.56 5.95
8/24/2022 5:30:00 AM 22.87 73.166 0.319 7.39 14.41 5.71
8/24/2022 5:45:00 AM 22.82 73.076 0.318 7.42 13.82 5.83
8/24/2022 6:00:00 AM 22.79 73.022 0.318 7.38 13.77 5.71
8/24/2022 6:15:00 AM 22.64 72.752 0.318 7.41 14.77 5.72
8/24/2022 6:30:00 AM 22.74 72.932 0.318 7.4 15.03 5.67
8/24/2022 6:45:00 AM 22.6 72.68 0.318 7.38 12.97 5.49
8/24/2022 7:00:00 AM 22.53 72.554 0.316 7.34 15.67 5.54
8/24/2022 7:15:00 AM 22.51 72.518 0.316 7.36 13.41 5.49
8/24/2022 7:30:00 AM 22.56 72.608 0.316 7.37 12.84 5.39
8/24/2022 7:45:00 AM 22.49 72.482 0.316 7.32 14.19 5.41
8/24/2022 8:00:00 AM 22.6 72.68 0.316 7.35 14.23 5.24
8/24/2022 8:15:00 AM 22.6 72.68 0.316 7.36 14.3 5.25
8/24/2022 8:30:00 AM 22.63 72.734 0.317 7.33 17.85 5.44
8/24/2022 8:45:00 AM 22.66 72.788 0.317 7.4 14.51 5.68
8/24/2022 9:00:00 AM 22.55 72.59 0.315 7.4 12.12 5.65
8/24/2022 9:15:00 AM 22.68 72.824 0.317 7.47 13.06 6.06
8/24/2022 9:30:00 AM 22.64 72.752 0.315 7.42 15.83 5.89
8/24/2022 9:45:00 AM 22.63 72.734 0.315 7.39 15.96 5.67
8/24/2022 10:00:00 AM 22.66 72.788 0.316 7.39 15.25 5.62
8/24/2022 10:15:00 AM 22.69 72.842 0.316 7.37 16.25 5.64
8/24/2022 10:30:00 AM 22.74 72.932 0.317 7.37 16.07 5.7
8/24/2022 10:45:00 AM 22.78 73.004 0.316 7.44 16.36 6.04
8/24/2022 11:00:00 AM 22.83 73.094 0.317 7.45 13.7 6.03
8/24/2022 11:15:00 AM 22.91 73.238 0.317 7.42 14.07 6.11
8/24/2022 11:30:00 AM 23.01 73.418 0.317 7.46 12.11 6.14
8/24/2022 11:45:00 AM 23.03 73.454 0.316 7.49 15 6.51
8/24/2022 12:00:00 PM 23 73.4 0.313 7.54 15 7.05
8/24/2022 12:15:00 PM 22.97 73.346 0.313 7.55 15.07 7.13
8/24/2022 12:30:00 PM 23.24 73.832 0.315 7.59 14.84 7.06
8/24/2022 12:45:00 PM 23.45 74.21 0.315 7.62 15.48 7.29
8/24/2022 1:00:00 PM 23.64 74.552 0.314 7.64 13.65 7.4
8/24/2022 1:15:00 PM 23.29 73.922 0.307 7.65 16.26 7.89
8/24/2022 1:30:00 PM 23.22 73.796 0.309 7.67 17.19 7.94
8/24/2022 1:45:00 PM 23.41 74.138 0.307 7.66 14.28 7.96
8/24/2022 2:00:00 PM 23.56 74.408 0.308 7.73 14.29 8.34
8/24/2022 2:15:00 PM 23.74 74.732 0.308 7.69 14.97 8.37
8/24/2022 2:30:00 PM 23.78 74.804 0.308 7.78 16.52 8.79
8/24/2022 2:45:00 PM 23.72 74.696 0.308 7.83 15.01 9.05
8/24/2022 3:00:00 PM 23.69 74.642 0.307 7.9 15.04 9.03
8/24/2022 3:15:00 PM 23.99 75.182 0.309 7.83 29.23 8.84
8/24/2022 3:30:00 PM 23.83 74.894 0.307 7.93 18.76 9.12
8/24/2022 3:45:00 PM 23.91 75.038 0.306 7.93 16.65 9.49
8/24/2022 4:00:00 PM 24.13 75.434 0.308 8 15.89 9.55
8/24/2022 4:15:00 PM 24.51 76.118 0.302 8.01 12.28 9.43
8/24/2022 4:30:00 PM 24.1 75.38 0.305 8.02 16.73 9.68
8/24/2022 4:45:00 PM 23.92 75.056 0.304 8.02 14.2 9.49
8/24/2022 5:00:00 PM 24.11 75.398 0.303 7.98 12.74 9.33
8/24/2022 5:15:00 PM 24.14 75.452 0.304 8 13.52 9.25
8/24/2022 5:30:00 PM 24.3 75.74 0.299 7.93 19.72 9.01
8/24/2022 5:45:00 PM 24.13 75.434 0.304 7.94 15.45 9.1
8/24/2022 6:00:00 PM 24.18 75.524 0.302 7.9 12.09 8.88
8/24/2022 6:15:00 PM 24.3 75.74 0.3 7.84 10.49 8.83
8/24/2022 6:30:00 PM 24.29 75.722 0.301 7.88 12.66 8.7
8/24/2022 6:45:00 PM 24.27 75.686 0.301 7.82 13.78 8.63
8/24/2022 7:00:00 PM 24.21 75.578 0.302 7.82 11.81 8.44
8/24/2022 7:15:00 PM 24.2 75.56 0.301 7.85 14.32 8.54
8/24/2022 7:30:00 PM 24.33 75.794 0.3 7.82 12.68 8.37
8/24/2022 7:45:00 PM 24.31 75.758 0.3 7.8 13.01 8.33
8/24/2022 8:00:00 PM 24.37 75.866 0.3 7.72 12.9 8.14
8/24/2022 8:15:00 PM 24.36 75.848 0.3 7.7 20.59 7.92
8/24/2022 8:30:00 PM 24.33 75.794 0.301 7.74 14.57 7.94
8/24/2022 8:45:00 PM 24.38 75.884 0.301 7.7 16.45 7.84
8/24/2022 9:00:00 PM 24.41 75.938 0.301 7.69 16.09 7.71
8/24/2022 9:15:00 PM 24.4 75.92 0.301 7.67 20.33 7.94
8/24/2022 9:30:00 PM 24.47 76.046 0.301 7.68 19.33 7.78
8/24/2022 9:45:00 PM 24.42 75.956 0.301 7.66 17.03 7.64
8/24/2022 10:00:00 PM 24.48 76.064 0.301 7.63 15.14 7.54
8/24/2022 10:15:00 PM 24.51 76.118 0.301 7.6 16.44 7.6
8/24/2022 10:30:00 PM 24.5 76.1 0.301 7.65 14.85 7.66
8/24/2022 10:45:00 PM 24.48 76.064 0.301 7.66 14.26 7.76
8/24/2022 11:00:00 PM 24.4 75.92 0.302 7.65 12.85 7.64
8/24/2022 11:15:00 PM 24.45 76.01 0.302 7.63 15.45 7.47
8/24/2022 11:30:00 PM 24.38 75.884 0.302 7.65 16.48 7.62
8/24/2022 11:45:00 PM 24.46 76.028 0.304 7.62 13.14 7.46
8/25/2022 12:00:00 AM 24.28 75.704 0.302 7.59 15.46 7.16
8/25/2022 12:15:00 AM 24.23 75.614 0.301 7.61 13.61 7.27
8/25/2022 12:30:00 AM 24.19 75.542 0.302 7.62 13.12 7.32
8/25/2022 12:45:00 AM 24.15 75.47 0.302 7.59 12.28 7.28
8/25/2022 1:00:00 AM 24.09 75.362 0.302 7.6 12.44 7.27
8/25/2022 1:15:00 AM 24.03 75.254 0.301 7.58 11.9 7.19
8/25/2022 1:30:00 AM 23.96 75.128 0.301 7.57 13.33 7.05
8/25/2022 1:45:00 AM 23.89 75.002 0.303 7.6 11.41 7.25
8/25/2022 2:00:00 AM 23.84 74.912 0.302 7.59 10.86 7.12
8/25/2022 2:15:00 AM 23.78 74.804 0.303 7.56 12.13 7.06
8/25/2022 2:30:00 AM 23.69 74.642 0.301 7.57 11.66 6.9
8/25/2022 2:45:00 AM 23.62 74.516 0.3 7.59 12.1 7.09
8/25/2022 3:00:00 AM 23.56 74.408 0.299 7.5 11.53 6.87
8/25/2022 3:15:00 AM 23.43 74.174 0.297 7.52 11.72 6.81
8/25/2022 3:30:00 AM 23.42 74.156 0.3 7.55 12.07 6.96
8/25/2022 3:45:00 AM 23.35 74.03 0.299 7.54 11.29 6.83
8/25/2022 4:00:00 AM 23.28 73.904 0.297 7.54 11.42 6.88
8/25/2022 4:15:00 AM 23.27 73.886 0.3 7.5 10.21 6.81
8/25/2022 4:30:00 AM 23.24 73.832 0.299 7.5 11.47 6.8
8/25/2022 4:45:00 AM 23.11 73.598 0.296 7.48 10.76 6.68
8/25/2022 5:00:00 AM 23.16 73.688 0.3 7.48 11.3 6.71
8/25/2022 5:15:00 AM 23.07 73.526 0.298 7.5 11.71 6.76
8/25/2022 5:30:00 AM 22.98 73.364 0.298 7.5 11.89 6.77
8/25/2022 5:45:00 AM 22.94 73.292 0.299 7.47 11.5 6.67
8/25/2022 6:00:00 AM 22.89 73.202 0.298 7.47 11.26 6.68
8/25/2022 6:15:00 AM 22.74 72.932 0.295 7.44 14.35 6.65
8/25/2022 6:30:00 AM 22.74 72.932 0.296 7.46 11.56 6.43
8/25/2022 6:45:00 AM 22.69 72.842 0.295 7.46 13.35 6.4
8/25/2022 7:00:00 AM 22.72 72.896 0.297 7.4 11.55 6.32
8/25/2022 7:15:00 AM 22.63 72.734 0.297 7.44 11.99 6.39
8/25/2022 7:30:00 AM 22.6 72.68 0.297 7.42 11.14 6.41
8/25/2022 7:45:00 AM 22.6 72.68 0.299 7.46 10.09 6.58
8/25/2022 8:00:00 AM 22.62 72.716 0.3 7.45 11.48 6.46
8/25/2022 8:15:00 AM 22.59 72.662 0.299 7.42 11.1 6.37
8/25/2022 8:30:00 AM 22.63 72.734 0.301 7.43 12.02 6.17
8/25/2022 8:45:00 AM 22.65 72.77 0.303 7.44 12.56 6.15
8/25/2022 9:00:00 AM 22.66 72.788 0.304 7.46 12.15 6.22
8/25/2022 9:15:00 AM 22.59 72.662 0.299 7.48 13.42 6.5
8/25/2022 9:30:00 AM 22.54 72.57201 0.3 7.43 11.3 6.58
8/25/2022 9:45:00 AM 22.6 72.68 0.302 7.46